Provisional Data: Long Run near Gaines, PA


Please select a monitoring station.
Please select start date.
Please select start date.

Toggle Unit: C/F Toggle Unit: C/F
Sample Time Temperature (C) Temperature (F) Specific Conductivity (mS/cm) pH   Turbidity (NTU+) DO (mg/L)
1/12/2021 12:00:00 AM 1.33 34.394 0.081 7.13 7.5 13.38
1/12/2021 12:15:00 AM 1.29 34.322 0.081 7.14 7.7 13.4
1/12/2021 12:30:00 AM 1.26 34.268 0.081 7.13 7.6 13.41
1/12/2021 12:45:00 AM 1.24 34.232 0.081 7.13 7.54 13.42
1/12/2021 1:00:00 AM 1.23 34.214 0.081 7.13 7.41 13.43
1/12/2021 1:15:00 AM 1.23 34.214 0.081 7.13 7.56 13.43
1/12/2021 1:30:00 AM 1.24 34.232 0.081 7.13 7.48 13.44
1/12/2021 1:45:00 AM 1.25 34.25 0.081 7.13 7.48 13.44
1/12/2021 2:00:00 AM 1.25 34.25 0.081 7.13 7.62 13.43
1/12/2021 2:15:00 AM 1.26 34.268 0.081 7.14 7.61 13.44
1/12/2021 2:30:00 AM 1.26 34.268 0.081 7.14 7.5 13.43
1/12/2021 2:45:00 AM 1.26 34.268 0.081 7.13 7.45 13.43
1/12/2021 3:00:00 AM 1.25 34.25 0.081 7.14 7.41 13.43
1/12/2021 3:15:00 AM 1.25 34.25 0.081 7.14 7.55 13.43
1/12/2021 3:30:00 AM 1.24 34.232 0.081 7.14 7.57 13.43
1/12/2021 3:45:00 AM 1.24 34.232 0.08 7.14 7.49 13.44
1/12/2021 4:00:00 AM 1.23 34.214 0.081 7.14 7.45 13.43
1/12/2021 4:15:00 AM 1.22 34.196 0.08 7.14 7.64 13.44
1/12/2021 4:30:00 AM 1.22 34.196 0.081 7.14 7.47 13.44
1/12/2021 4:45:00 AM 1.21 34.178 0.08 7.14 7.48 13.44
1/12/2021 5:00:00 AM 1.2 34.16 0.081 7.15 7.56 13.44
1/12/2021 5:15:00 AM 1.2 34.16 0.081 7.14 7.49 13.45
1/12/2021 5:30:00 AM 1.19 34.142 0.081 7.14 7.43 13.44
1/12/2021 5:45:00 AM 1.18 34.124 0.081 7.14 7.53 13.45
1/12/2021 6:00:00 AM 1.16 34.088 0.081 7.13 7.47 13.45
1/12/2021 6:15:00 AM 1.15 34.07 0.081 7.14 7.45 13.46
1/12/2021 6:30:00 AM 1.14 34.052 0.081 7.14 7.56 13.46
1/12/2021 6:45:00 AM 1.14 34.052 0.081 7.14 7.48 13.46
1/12/2021 7:00:00 AM 1.13 34.034 0.081 7.14 7.56 13.47
1/12/2021 7:15:00 AM 1.14 34.052 0.081 7.14 7.63 13.47
1/12/2021 7:30:00 AM 1.14 34.052 0.081 7.14 7.58 13.47
1/12/2021 7:45:00 AM 1.15 34.07 0.081 7.14 7.48 13.47
1/12/2021 8:00:00 AM 1.15 34.07 0.081 7.14 7.65 13.48
1/12/2021 8:15:00 AM 1.16 34.088 0.081 7.14 7.56 13.49
1/12/2021 8:30:00 AM 1.17 34.106 0.081 7.15 7.55 13.5
1/12/2021 8:45:00 AM 1.19 34.142 0.081 7.16 7.51 13.52
1/12/2021 9:00:00 AM 1.21 34.178 0.08 7.16 7.49 13.53
1/12/2021 9:15:00 AM 1.24 34.232 0.08 7.17 7.41 13.54
1/12/2021 9:30:00 AM 1.28 34.304 0.08 7.18 7.52 13.55
1/12/2021 9:45:00 AM 1.32 34.376 0.08 7.19 7.56 13.56
1/12/2021 10:00:00 AM 1.37 34.466 0.081 7.19 8.11 13.55
1/12/2021 10:15:00 AM 1.42 34.556 0.085 7.19 7.77 13.55
1/12/2021 10:30:00 AM 1.47 34.646 0.085 7.2 7.58 13.53
1/12/2021 10:45:00 AM 1.52 34.736 0.085 7.21 7.59 13.52
1/12/2021 11:00:00 AM 1.58 34.844 0.085 7.21 7.54 13.51
1/12/2021 11:15:00 AM 1.64 34.952 0.08 7.22 9.16 13.49
1/12/2021 11:30:00 AM 1.7 35.06 0.08 7.22 7.58 13.47
1/12/2021 11:45:00 AM 1.77 35.186 0.08 7.22 7.48 13.45
1/12/2021 12:00:00 PM 1.84 35.312 0.08 7.24 9.92 13.43
1/12/2021 12:15:00 PM 1.91 35.438 0.08 7.25 7.72 13.4
1/12/2021 12:30:00 PM 1.98 35.564 0.08 7.25 7.54 13.37
1/12/2021 12:45:00 PM 2.06 35.708 0.08 7.24 7.58 13.34
1/12/2021 1:00:00 PM 2.12 35.816 0.08 7.25 7.51 13.31
1/12/2021 1:15:00 PM 2.19 35.942 0.08 7.26 7.42 13.29
1/12/2021 1:30:00 PM 2.25 36.05 0.08 7.27 7.55 13.26
1/12/2021 1:45:00 PM 2.3 36.14 0.08 7.28 7.58 13.24
1/12/2021 2:00:00 PM 2.35 36.23 0.08 7.28 7.73 13.22
1/12/2021 2:15:00 PM 2.38 36.284 0.08 7.29 7.49 13.2
1/12/2021 2:30:00 PM 2.42 36.356 0.08 7.28 7.55 13.18
1/12/2021 2:45:00 PM 2.44 36.392 0.08 7.29 7.55 13.16
1/12/2021 3:00:00 PM 2.46 36.428 0.08 7.28 7.54 13.15
1/12/2021 3:15:00 PM 2.46 36.428 0.08 7.28 7.57 13.14
1/12/2021 3:30:00 PM 2.46 36.428 0.079 7.28 7.66 13.12
1/12/2021 3:45:00 PM 2.44 36.392 0.08 7.27 7.6 13.11
1/12/2021 4:00:00 PM 2.41 36.338 0.08 7.27 7.55 13.1
1/12/2021 4:15:00 PM 2.39 36.302 0.079 7.27 7.34 13.08
1/12/2021 4:30:00 PM 2.36 36.248 0.08 7.26 7.67 13.08
1/12/2021 4:45:00 PM 2.33 36.194 0.08 7.25 7.56 13.07
1/12/2021 5:00:00 PM 2.29 36.122 0.08 7.24 7.57 13.06
1/12/2021 5:15:00 PM 2.26 36.068 0.08 7.23 7.53 13.06
1/12/2021 5:30:00 PM 2.23 36.014 0.08 7.23 7.68 13.05
1/12/2021 5:45:00 PM 2.21 35.978 0.08 7.23 7.68 13.06
1/12/2021 6:00:00 PM 2.18 35.924 0.08 7.22 7.56 13.06
1/12/2021 6:15:00 PM 2.15 35.87 0.08 7.22 7.67 13.07
1/12/2021 6:30:00 PM 2.13 35.834 0.08 7.22 7.64 13.07
1/12/2021 6:45:00 PM 2.1 35.78 0.08 7.21 7.62 13.08
1/12/2021 7:00:00 PM 2.08 35.744 0.08 7.21 7.7 13.09
1/12/2021 7:15:00 PM 2.06 35.708 0.08 7.21 7.61 13.09
1/12/2021 7:30:00 PM 2.04 35.672 0.08 7.2 7.52 13.1
1/12/2021 7:45:00 PM 2.03 35.654 0.08 7.2 7.49 13.11
1/12/2021 8:00:00 PM 2.01 35.618 0.08 7.2 7.61 13.11
1/12/2021 8:15:00 PM 2 35.6 0.08 7.2 7.63 13.12
1/12/2021 8:30:00 PM 1.99 35.582 0.08 7.19 7.71 13.12
1/12/2021 8:45:00 PM 1.97 35.546 0.08 7.19 7.58 13.13
1/12/2021 9:00:00 PM 1.96 35.528 0.08 7.19 7.63 13.13
1/12/2021 9:15:00 PM 1.95 35.51 0.08 7.19 7.55 13.13
1/12/2021 9:30:00 PM 1.94 35.492 0.08 7.19 7.66 13.14
1/12/2021 9:45:00 PM 1.93 35.474 0.08 7.19 7.73 13.14
1/12/2021 10:00:00 PM 1.92 35.456 0.08 7.19 7.67 13.15
1/12/2021 10:15:00 PM 1.91 35.438 0.08 7.19 7.81 13.15
1/12/2021 10:30:00 PM 1.91 35.438 0.08 7.19 7.6 13.15
1/12/2021 10:45:00 PM 1.89 35.402 0.08 7.18 7.78 13.16
1/12/2021 11:00:00 PM 1.88 35.384 0.08 7.19 7.65 13.16
1/12/2021 11:15:00 PM 1.87 35.366 0.08 7.19 7.57 13.16
1/12/2021 11:30:00 PM 1.85 35.33 0.08 7.19 7.69 13.17
1/12/2021 11:45:00 PM 1.85 35.33 0.08 7.18 7.68 13.17
1/13/2021 12:00:00 AM 1.84 35.312 0.08 7.19 7.64 13.18
1/13/2021 12:15:00 AM 1.83 35.294 0.08 7.19 7.64 13.18
1/13/2021 12:30:00 AM 1.82 35.276 0.08 7.19 7.65 13.18
1/13/2021 12:45:00 AM 1.81 35.258 0.08 7.19 7.63 13.18
1/13/2021 1:00:00 AM 1.8 35.24 0.08 7.19 7.54 13.18
1/13/2021 1:15:00 AM 1.79 35.222 0.08 7.19 7.63 13.19
1/13/2021 1:30:00 AM 1.78 35.204 0.08 7.19 7.7 13.19
1/13/2021 1:45:00 AM 1.77 35.186 0.08 7.19 7.62 13.2
1/13/2021 2:00:00 AM 1.77 35.186 0.08 7.18 7.71 13.2
1/13/2021 2:15:00 AM 1.76 35.168 0.08 7.19 7.56 13.2
1/13/2021 2:30:00 AM 1.75 35.15 0.08 7.19 7.56 13.2
1/13/2021 2:45:00 AM 1.74 35.132 0.08 7.19 7.57 13.21
1/13/2021 3:00:00 AM 1.73 35.114 0.08 7.18 7.6 13.21
1/13/2021 3:15:00 AM 1.73 35.114 0.08 7.18 7.65 13.22
1/13/2021 3:30:00 AM 1.71 35.078 0.08 7.19 7.68 13.22
1/13/2021 3:45:00 AM 1.71 35.078 0.08 7.19 7.57 13.22
1/13/2021 4:00:00 AM 1.7 35.06 0.08 7.19 7.55 13.22
1/13/2021 4:15:00 AM 1.69 35.042 0.08 7.19 7.53 13.22
1/13/2021 4:30:00 AM 1.68 35.024 0.084 7.18 8.4 13.22
1/13/2021 4:45:00 AM 1.67 35.006 0.084 7.2 21.48 13.23
1/13/2021 5:00:00 AM 1.66 34.988 0.086 7.19 51.62 13.23
1/13/2021 5:15:00 AM 1.65 34.97 0.086 7.18 21.42 13.24
1/13/2021 5:30:00 AM 1.64 34.952 0.086 7.19 9.42 13.24
1/13/2021 5:45:00 AM 1.62 34.916 0.086 7.19 6.93 13.25
1/13/2021 6:00:00 AM 1.62 34.916 0.086 7.18 6.49 13.24
1/13/2021 6:15:00 AM 1.61 34.898 0.086 7.18 6.74 13.25
1/13/2021 6:30:00 AM 1.6 34.88 0.086 7.19 9.48 13.25
1/13/2021 6:45:00 AM 1.59 34.862 0.086 7.18 11.42 13.25
1/13/2021 7:00:00 AM 1.59 34.862 0.086 7.18 11.12 13.25
1/13/2021 7:15:00 AM 1.58 34.844 0.086 7.18 9.44 13.25
1/13/2021 7:30:00 AM 1.57 34.826 0.086 7.18 7.92 13.25
1/13/2021 7:45:00 AM 1.56 34.808 0.086 7.18 15.45 13.26
1/13/2021 8:00:00 AM 1.56 34.808 0.086 7.17 54.98 13.25
1/13/2021 8:15:00 AM 1.55 34.79 0.086 7.17 5.36 13.25
1/13/2021 8:30:00 AM 1.54 34.772 0.086 7.17 5.38 13.26
1/13/2021 8:45:00 AM 1.54 34.772 0.086 7.16 5.38 13.26
1/13/2021 9:00:00 AM 1.54 34.772 0.086 7.17 5.37 13.29
1/13/2021 9:15:00 AM 1.55 34.79 0.086 7.18 5.4 13.31
1/13/2021 9:30:00 AM 1.56 34.808 0.086 6.87 5.43 13.33
1/13/2021 9:45:00 AM 1.58 34.844 0.085 7.13 5.46 13.35
1/13/2021 10:00:00 AM 1.59 34.862 0.08 7.22 6.72 13.35
1/13/2021 10:15:00 AM 1.61 34.898 0.083 7.2 7.84 13.36
1/13/2021 10:30:00 AM 1.63 34.934 0.085 7.21 7.18 13.33
1/13/2021 10:45:00 AM 1.65 34.97 0.085 7.22 7.13 13.34
1/13/2021 11:00:00 AM 1.68 35.024 0.085 7.22 7.14 13.34
1/13/2021 11:15:00 AM 1.73 35.114 0.085 7.23 7.07 13.34
1/13/2021 11:30:00 AM 1.8 35.24 0.085 7.24 7.09 13.32
1/13/2021 11:45:00 AM 1.88 35.384 0.085 7.24 7.1 13.31
1/13/2021 12:00:00 PM 1.95 35.51 0.085 7.24 7.13 13.29
1/13/2021 12:15:00 PM 2.02 35.636 0.085 7.25 7.2 13.27
1/13/2021 12:30:00 PM 2.09 35.762 0.085 7.26 7.12 13.25
1/13/2021 12:45:00 PM 2.17 35.906 0.085 7.26 7.07 13.23
1/13/2021 1:00:00 PM 2.22 35.996 0.085 7.27 7.12 13.19
1/13/2021 1:15:00 PM 2.28 36.104 0.085 7.27 7.09 13.16
1/13/2021 1:30:00 PM 2.32 36.176 0.085 7.27 7.11 13.15
1/13/2021 1:45:00 PM 2.36 36.248 0.085 7.27 7.09 13.12
1/13/2021 2:00:00 PM 2.43 36.374 0.085 7 7.08 13.12
1/13/2021 2:15:00 PM 2.51 36.518 0.085 7.28 7.03 13.09
1/13/2021 2:30:00 PM 2.57 36.626 0.085 7.28 7.11 13.07
1/13/2021 2:45:00 PM 2.6 36.68 0.085 7.28 7.1 13.03
1/13/2021 3:00:00 PM 2.64 36.752 0.085 7.27 7.11 13.01
1/13/2021 3:15:00 PM 2.66 36.788 0.085 7.27 7.14 13.02
1/13/2021 3:30:00 PM 2.68 36.824 0.085 7.27 7.13 13
1/13/2021 3:45:00 PM 2.7 36.86 0.085 7.27 7.17 12.99
1/13/2021 4:00:00 PM 2.69 36.842 0.085 7.27 7.14 12.98
1/13/2021 4:15:00 PM 2.69 36.842 0.085 7.26 7.16 12.96
1/13/2021 4:30:00 PM 2.67 36.806 0.085 7.26 7.25 12.93
1/13/2021 4:45:00 PM 2.64 36.752 0.085 7.25 7.24 12.91
1/13/2021 5:00:00 PM 2.6 36.68 0.085 7.23 7.25 12.91
1/13/2021 5:15:00 PM 2.56 36.608 0.085 7.23 7.22 12.9
1/13/2021 5:30:00 PM 2.52 36.536 0.085 7.22 7.36 12.88
1/13/2021 5:45:00 PM 2.48 36.464 0.08 7.22 7.95 12.88
1/13/2021 6:00:00 PM 2.45 36.41 0.08 7.19 7.36 12.87
1/13/2021 6:15:00 PM 2.41 36.338 0.08 7.21 7.09 12.88
1/13/2021 6:30:00 PM 2.39 36.302 0.08 7.21 7.07 12.88
1/13/2021 6:45:00 PM 2.36 36.248 0.08 7.2 7.14 12.89
1/13/2021 7:00:00 PM 2.34 36.212 0.08 7.2 7.05 12.89
1/13/2021 7:15:00 PM 2.32 36.176 0.08 7.19 7.12 12.9
1/13/2021 7:30:00 PM 2.29 36.122 0.08 7.19 7.3 12.91
1/13/2021 7:45:00 PM 2.27 36.086 0.08 7.19 7.07 12.91
1/13/2021 8:00:00 PM 2.25 36.05 0.08 7.19 7.13 12.92
1/13/2021 8:15:00 PM 2.23 36.014 0.08 7.19 7.04 12.93
1/13/2021 8:30:00 PM 2.21 35.978 0.08 7.19 7.16 12.93
1/13/2021 8:45:00 PM 2.2 35.96 0.08 7.18 7.17 12.93
1/13/2021 9:00:00 PM 2.18 35.924 0.08 7.18 7.11 12.94
1/13/2021 9:15:00 PM 2.17 35.906 0.08 7.18 7.12 12.95
1/13/2021 9:30:00 PM 2.16 35.888 0.08 7.18 7.17 12.95
1/13/2021 9:45:00 PM 2.15 35.87 0.08 7.18 7.03 12.95
1/13/2021 10:00:00 PM 2.15 35.87 0.08 7.18 7.09 12.96
1/13/2021 10:15:00 PM 2.14 35.852 0.08 7.18 7.1 12.96
1/13/2021 10:30:00 PM 2.12 35.816 0.08 7.17 7.13 12.96
1/13/2021 10:45:00 PM 2.11 35.798 0.08 7.17 7.1 12.97
1/13/2021 11:00:00 PM 2.09 35.762 0.08 7.18 7.26 12.97
1/13/2021 11:15:00 PM 2.08 35.744 0.08 7.17 7.05 12.97
1/13/2021 11:30:00 PM 2.08 35.744 0.08 7.17 7.08 12.98
1/13/2021 11:45:00 PM 2.07 35.726 0.08 7.17 7.16 12.98
1/14/2021 12:00:00 AM 2.06 35.708 0.08 7.17 7.17 12.98
1/14/2021 12:15:00 AM 2.05 35.69 0.08 7.17 7.2 12.98
1/14/2021 12:30:00 AM 2.05 35.69 0.08 7.17 7.07 12.98
1/14/2021 12:45:00 AM 2.04 35.672 0.08 7.17 7.07 12.99
1/14/2021 1:00:00 AM 2.03 35.654 0.08 7.17 7.09 12.99
1/14/2021 1:15:00 AM 2.03 35.654 0.08 7.17 7.02 12.99
1/14/2021 1:30:00 AM 2.02 35.636 0.08 7.17 7.05 12.99
1/14/2021 1:45:00 AM 2.02 35.636 0.08 7.17 7.1 12.99
1/14/2021 2:00:00 AM 2.02 35.636 0.081 7.17 7.13 12.99
1/14/2021 2:15:00 AM 2.02 35.636 0.08 7.17 7.07 12.99
1/14/2021 2:30:00 AM 2.01 35.618 0.081 7.17 7.16 13
1/14/2021 2:45:00 AM 2.01 35.618 0.08 7.17 7.01 12.99
1/14/2021 3:00:00 AM 2.01 35.618 0.08 7.17 7.11 12.99
1/14/2021 3:15:00 AM 2.01 35.618 0.081 7.17 7.19 12.99
1/14/2021 3:30:00 AM 2.01 35.618 0.08 7.16 7.12 13
1/14/2021 3:45:00 AM 2.01 35.618 0.081 7.16 7.07 13
1/14/2021 4:00:00 AM 2.01 35.618 0.08 7.17 7.03 12.99
1/14/2021 4:15:00 AM 2.01 35.618 0.08 7.17 7.08 12.99
1/14/2021 4:30:00 AM 2 35.6 0.081 7.17 7.05 12.99
1/14/2021 4:45:00 AM 2 35.6 0.081 7.16 7.11 12.99
1/14/2021 5:00:00 AM 2 35.6 0.081 7.17 7.15 12.99
1/14/2021 5:15:00 AM 2 35.6 0.08 7.17 6.93 12.99
1/14/2021 5:30:00 AM 2.01 35.618 0.081 7.14 7.18 12.99
1/14/2021 5:45:00 AM 2.01 35.618 0.086 6.84 6.57 12.98
1/14/2021 6:00:00 AM 2.01 35.618 0.086 7.14 6.5 12.96
1/14/2021 6:15:00 AM 2.01 35.618 0.086 7.16 6.56 12.94
1/14/2021 6:30:00 AM 2.02 35.636 0.08 7.17 7.05 12.98
1/14/2021 6:45:00 AM 2 35.6 0.08 7.17 7.11 12.98
1/14/2021 7:00:00 AM 2 35.6 0.08 7.17 7.11 12.99
1/14/2021 7:15:00 AM 2 35.6 0.08 7.17 7.08 12.99
1/14/2021 7:30:00 AM 1.99 35.582 0.081 7.17 7.01 12.99
1/14/2021 7:45:00 AM 1.99 35.582 0.08 7.17 7.09 13
1/14/2021 8:00:00 AM 2 35.6 0.08 7.17 6.99 13.01
1/14/2021 8:15:00 AM 2.01 35.618 0.08 7.17 7.1 13.02
1/14/2021 8:30:00 AM 2.02 35.636 0.08 7.18 7.07 13.04
1/14/2021 8:45:00 AM 2.03 35.654 0.08 7.19 7.03 13.06
1/14/2021 9:00:00 AM 2.05 35.69 0.08 7.19 7.05 13.08
1/14/2021 9:15:00 AM 2.06 35.708 0.08 7.2 6.92 13.09
1/14/2021 9:30:00 AM 2.08 35.744 0.08 7.21 6.94 13.11
1/14/2021 9:45:00 AM 2.11 35.798 0.08 7.21 6.93 13.13
1/14/2021 10:00:00 AM 2.17 35.906 0.08 7.22 6.94 13.14
1/14/2021 10:15:00 AM 2.23 36.014 0.085 7.21 6.67 13.11
1/14/2021 10:30:00 AM 2.3 36.14 0.085 7.22 6.51 13.09
1/14/2021 10:45:00 AM 2.36 36.248 0.085 7.01 6.24 13.1
1/14/2021 11:00:00 AM 2.44 36.392 0.08 7.22 7.02 13.09
1/14/2021 11:15:00 AM 2.54 36.572 0.08 7.26 7.01 13.07
1/14/2021 11:30:00 AM 2.64 36.752 0.08 7.27 6.92 13.05
1/14/2021 11:45:00 AM 2.75 36.95 0.08 7.27 6.85 13.02
1/14/2021 12:00:00 PM 2.83 37.094 0.08 7.28 6.92 12.99
1/14/2021 12:15:00 PM 2.9 37.22 0.08 7.28 7.02 12.96
1/14/2021 12:30:00 PM 2.99 37.382 0.08 7.28 6.96 12.93
1/14/2021 12:45:00 PM 3.04 37.472 0.079 7.29 7.11 12.9
1/14/2021 1:00:00 PM 3.08 37.544 0.08 7.28 7.06 12.88
1/14/2021 1:15:00 PM 3.12 37.616 0.08 7.28 6.97 12.86
1/14/2021 1:30:00 PM 3.14 37.652 0.08 7.28 6.92 12.84
1/14/2021 1:45:00 PM 3.18 37.724 0.079 7.28 6.98 12.83
1/14/2021 2:00:00 PM 3.2 37.76 0.079 7.28 6.93 12.82
1/14/2021 2:15:00 PM 3.22 37.796 0.08 7.28 6.99 12.8
1/14/2021 2:30:00 PM 3.23 37.814 0.079 7.28 6.96 12.78
1/14/2021 2:45:00 PM 3.24 37.832 0.079 7.28 7 12.78
1/14/2021 3:00:00 PM 3.25 37.85 0.079 7.28 6.91 12.77
1/14/2021 3:15:00 PM 3.24 37.832 0.079 7.27 7.03 12.76
1/14/2021 3:30:00 PM 3.22 37.796 0.079 7.27 7.25 12.74
1/14/2021 3:45:00 PM 3.2 37.76 0.079 7.26 7.02 12.73
1/14/2021 4:00:00 PM 3.19 37.742 0.079 7.25 7.09 12.73
1/14/2021 4:15:00 PM 3.17 37.706 0.08 7.25 6.92 12.71
1/14/2021 4:30:00 PM 3.15 37.67 0.079 7.24 7.03 12.7
1/14/2021 4:45:00 PM 3.12 37.616 0.08 7.23 7.04 12.69
1/14/2021 5:00:00 PM 3.1 37.58 0.08 7.22 7.04 12.68
1/14/2021 5:15:00 PM 3.07 37.526 0.08 7.22 6.99 12.67
1/14/2021 5:30:00 PM 3.05 37.49 0.08 7.21 7 12.66
1/14/2021 5:45:00 PM 3.02 37.436 0.08 7.2 7 12.66
1/14/2021 6:00:00 PM 2.99 37.382 0.08 7.2 7.03 12.66
1/14/2021 6:15:00 PM 2.97 37.346 0.08 7.19 6.86 12.67
1/14/2021 6:30:00 PM 2.95 37.31 0.08 7.19 6.98 12.67
1/14/2021 6:45:00 PM 2.93 37.274 0.08 7.19 6.99 12.68
1/14/2021 7:00:00 PM 2.91 37.238 0.08 7.18 6.99 12.68
1/14/2021 7:15:00 PM 2.89 37.202 0.08 7.19 7.09 12.68
1/14/2021 7:30:00 PM 2.87 37.166 0.08 7.18 7.14 12.69
1/14/2021 7:45:00 PM 2.86 37.148 0.08 7.18 7.06 12.7
1/14/2021 8:00:00 PM 2.83 37.094 0.08 7.17 7.06 12.7
1/14/2021 8:15:00 PM 2.81 37.058 0.08 7.18 7.04 12.71
1/14/2021 8:30:00 PM 2.76 36.968 0.08 7.17 6.96 12.72
1/14/2021 8:45:00 PM 2.72 36.896 0.08 7.18 7.01 12.73
1/14/2021 9:00:00 PM 2.67 36.806 0.08 7.17 7.12 12.75
1/14/2021 9:15:00 PM 2.63 36.734 0.08 7.17 6.88 12.77
1/14/2021 9:30:00 PM 2.6 36.68 0.08 7.17 7.09 12.78
1/14/2021 9:45:00 PM 2.55 36.59 0.08 7.17 7.46 12.79
1/14/2021 10:00:00 PM 2.51 36.518 0.081 7.17 6.96 12.8
1/14/2021 10:15:00 PM 2.48 36.464 0.08 7.17 6.93 12.82
1/14/2021 10:30:00 PM 2.44 36.392 0.08 7.17 6.9 12.83
1/14/2021 10:45:00 PM 2.41 36.338 0.08 7.17 6.95 12.84
1/14/2021 11:00:00 PM 2.37 36.266 0.081 7.17 6.98 12.85
1/14/2021 11:15:00 PM 2.34 36.212 0.081 7.17 6.91 12.87
1/14/2021 11:30:00 PM 2.31 36.158 0.081 7.16 6.91 12.88
1/14/2021 11:45:00 PM 2.28 36.104 0.081 7.16 6.98 12.89
1/15/2021 12:00:00 AM 2.25 36.05 0.081 7.16 6.97 12.9
1/15/2021 12:15:00 AM 2.22 35.996 0.081 7.16 7.01 12.91
1/15/2021 12:30:00 AM 2.19 35.942 0.081 7.16 7.04 12.92
1/15/2021 12:45:00 AM 2.16 35.888 0.081 7.16 6.92 12.93
1/15/2021 1:00:00 AM 2.15 35.87 0.081 7.16 7.09 12.95
1/15/2021 1:15:00 AM 2.15 35.87 0.081 7.16 7.08 12.95
1/15/2021 1:30:00 AM 2.14 35.852 0.081 7.16 7.08 12.95
1/15/2021 1:45:00 AM 2.13 35.834 0.081 7.16 7.18 12.96
1/15/2021 2:00:00 AM 2.13 35.834 0.081 7.16 7.12 12.96
1/15/2021 2:15:00 AM 2.11 35.798 0.081 7.16 7.01 12.97
1/15/2021 2:30:00 AM 2.1 35.78 0.081 7.16 7.13 12.97
1/15/2021 2:45:00 AM 2.08 35.744 0.081 7.17 7.14 12.98
1/15/2021 3:00:00 AM 2.07 35.726 0.081 7.16 7.13 12.98
1/15/2021 3:15:00 AM 2.07 35.726 0.081 7.16 7.07 12.99
1/15/2021 3:30:00 AM 2.07 35.726 0.081 7.16 7.04 12.99
1/15/2021 3:45:00 AM 2.08 35.744 0.081 7.16 7.03 12.99
1/15/2021 4:00:00 AM 2.08 35.744 0.081 7.16 6.99 12.98
1/15/2021 4:15:00 AM 2.09 35.762 0.081 7.17 7.01 12.98
1/15/2021 4:30:00 AM 2.1 35.78 0.081 7.17 6.97 12.98
1/15/2021 4:45:00 AM 2.11 35.798 0.081 7.17 6.98 12.98
1/15/2021 5:00:00 AM 2.12 35.816 0.081 7.17 7.01 12.97
1/15/2021 5:15:00 AM 2.13 35.834 0.081 7.17 6.99 12.97
1/15/2021 5:30:00 AM 2.14 35.852 0.081 7.17 7.16 12.97
1/15/2021 5:45:00 AM 2.15 35.87 0.081 7.18 7.01 12.96
1/15/2021 6:00:00 AM 2.16 35.888 0.081 7.18 7.12 12.96
1/15/2021 6:15:00 AM 2.17 35.906 0.081 7.18 7.03 12.95
1/15/2021 6:30:00 AM 2.18 35.924 0.081 7.18 7.14 12.95
1/15/2021 6:45:00 AM 2.19 35.942 0.081 7.18 7.13 12.95
1/15/2021 7:00:00 AM 2.2 35.96 0.081 7.19 6.96 12.94
1/15/2021 7:15:00 AM 2.21 35.978 0.081 7.19 7.03 12.94
1/15/2021 7:30:00 AM 2.21 35.978 0.081 7.19 7.08 12.94
1/15/2021 7:45:00 AM 2.22 35.996 0.081 7.19 7.17 12.94
1/15/2021 8:00:00 AM 2.23 36.014 0.081 7.19 7.05 12.94
1/15/2021 8:15:00 AM 2.24 36.032 0.081 7.2 6.97 12.95
1/15/2021 8:30:00 AM 2.25 36.05 0.081 7.2 7 12.96
1/15/2021 8:45:00 AM 2.27 36.086 0.081 7.2 7.24 12.96
1/15/2021 9:00:00 AM 2.29 36.122 0.081 7.2 7.01 12.98
1/15/2021 9:15:00 AM 2.31 36.158 0.081 7.22 7.02 13
1/15/2021 9:30:00 AM 2.34 36.212 0.081 7.23 6.98 13.02
1/15/2021 9:45:00 AM 2.38 36.284 0.081 7.23 7.01 13.04
1/15/2021 10:00:00 AM 2.42 36.356 0.081 7.24 7.02 13.05
1/15/2021 10:15:00 AM 2.47 36.446 0.081 7.25 7.03 13.06
1/15/2021 10:30:00 AM 2.52 36.536 0.081 7.26 6.92 13.06
1/15/2021 10:45:00 AM 2.56 36.608 0.08 7.26 7.83 13.05
1/15/2021 11:00:00 AM 2.6 36.68 0.081 7.26 6.88 13.04
1/15/2021 11:15:00 AM 2.65 36.77 0.08 7.27 6.98 13.03
1/15/2021 11:30:00 AM 2.7 36.86 0.08 7.28 7.21 13.02
1/15/2021 11:45:00 AM 2.74 36.932 0.081 7.28 7.01 13.01
1/15/2021 12:00:00 PM 2.77 36.986 0.08 7.28 6.96 12.99
1/15/2021 12:15:00 PM 2.79 37.022 0.08 7.28 6.93 12.97
1/15/2021 12:30:00 PM 2.81 37.058 0.08 7.29 6.84 12.95
1/15/2021 12:45:00 PM 2.83 37.094 0.08 7.29 6.95 12.95
1/15/2021 1:00:00 PM 2.85 37.13 0.08 7.29 6.94 12.93
1/15/2021 1:15:00 PM 2.88 37.184 0.08 7.29 7.02 12.92
1/15/2021 1:30:00 PM 2.9 37.22 0.08 7.29 7.01 12.92
1/15/2021 1:45:00 PM 2.92 37.256 0.08 7.29 7.03 12.91
1/15/2021 2:00:00 PM 3 37.4 0.08 7.29 6.98 12.9
1/15/2021 2:15:00 PM 3.06 37.508 0.08 7.29 7 12.87
1/15/2021 2:30:00 PM 3.08 37.544 0.08 7.29 6.98 12.84
1/15/2021 2:45:00 PM 3.08 37.544 0.08 7.28 7.02 12.81
1/15/2021 3:00:00 PM 3.07 37.526 0.08 7.28 6.99 12.79
1/15/2021 3:15:00 PM 3.07 37.526 0.08 7.27 7 12.78
1/15/2021 3:30:00 PM 3.06 37.508 0.08 7.27 6.97 12.76
1/15/2021 3:45:00 PM 3.05 37.49 0.08 7.27 6.9 12.75
1/15/2021 4:00:00 PM 3.03 37.454 0.08 7.25 7.17 12.73
1/15/2021 4:15:00 PM 3.02 37.436 0.08 7.25 7 12.72
1/15/2021 4:30:00 PM 3.02 37.436 0.08 7.24 7.08 12.7
1/15/2021 4:45:00 PM 3.01 37.418 0.08 7.23 9 12.68
1/15/2021 5:00:00 PM 3.01 37.418 0.08 7.23 7.24 12.67
1/15/2021 5:15:00 PM 3 37.4 0.08 7.22 7.19 12.65
1/15/2021 5:30:00 PM 2.99 37.382 0.081 7.22 7.13 12.64
1/15/2021 5:45:00 PM 2.98 37.364 0.081 7.22 7.11 12.64
1/15/2021 6:00:00 PM 2.97 37.346 0.081 7.21 7.13 12.63
1/15/2021 6:15:00 PM 2.97 37.346 0.081 7.21 7.05 12.63
1/15/2021 6:30:00 PM 2.96 37.328 0.081 7.21 7.04 12.63
1/15/2021 6:45:00 PM 2.96 37.328 0.081 7.21 7 12.63
1/15/2021 7:00:00 PM 2.95 37.31 0.081 7.2 7.15 12.63
1/15/2021 7:15:00 PM 2.94 37.292 0.081 7.2 7.18 12.63
1/15/2021 7:30:00 PM 2.93 37.274 0.081 7.2 7.13 12.63
1/15/2021 7:45:00 PM 2.92 37.256 0.08 7.19 7.17 12.63
1/15/2021 8:00:00 PM 2.92 37.256 0.081 7.19 7.18 12.64
1/15/2021 8:15:00 PM 2.91 37.238 0.08 7.19 7.21 12.63
1/15/2021 8:30:00 PM 2.9 37.22 0.08 7.19 7.4 12.64
1/15/2021 8:45:00 PM 2.89 37.202 0.08 7.19 7.22 12.64
1/15/2021 9:00:00 PM 2.88 37.184 0.08 7.19 7.25 12.64
1/15/2021 9:15:00 PM 2.87 37.166 0.081 7.19 7.55 12.64
1/15/2021 9:30:00 PM 2.87 37.166 0.081 7.18 7.32 12.64
1/15/2021 9:45:00 PM 2.86 37.148 0.081 7.18 7.39 12.64
1/15/2021 10:00:00 PM 2.86 37.148 0.081 7.18 8.03 12.64
1/15/2021 10:15:00 PM 2.86 37.148 0.081 7.18 7.83 12.64
1/15/2021 10:30:00 PM 2.85 37.13 0.081 7.18 7.5 12.64
1/15/2021 10:45:00 PM 2.84 37.112 0.081 7.18 7.52 12.65
1/15/2021 11:00:00 PM 2.83 37.094 0.082 7.18 7.61 12.65
1/15/2021 11:15:00 PM 2.82 37.076 0.082 7.18 7.5 12.65
1/15/2021 11:30:00 PM 2.81 37.058 0.083 7.18 7.82 12.65
1/15/2021 11:45:00 PM 2.8 37.04 0.084 7.18 7.55 12.65
1/16/2021 12:00:00 AM 2.8 37.04 0.084 7.17 7.59 12.65
1/16/2021 12:15:00 AM 2.79 37.022 0.085 7.18 7.65 12.66
1/16/2021 12:30:00 AM 2.79 37.022 0.086 7.17 7.72 12.66
1/16/2021 12:45:00 AM 2.78 37.004 0.086 7.18 7.47 12.66
1/16/2021 1:00:00 AM 2.77 36.986 0.087 7.17 7.46 12.66
1/16/2021 1:15:00 AM 2.77 36.986 0.087 7.18 7.93 12.66
1/16/2021 1:30:00 AM 2.76 36.968 0.087 7.17 7.67 12.66
1/16/2021 1:45:00 AM 2.76 36.968 0.087 7.17 7.62 12.66
1/16/2021 2:00:00 AM 2.75 36.95 0.087 7.17 7.76 12.67
1/16/2021 2:15:00 AM 2.74 36.932 0.087 7.18 7.76 12.66
1/16/2021 2:30:00 AM 2.74 36.932 0.087 7.17 7.79 12.67
1/16/2021 2:45:00 AM 2.73 36.914 0.087 7.17 7.89 12.67
1/16/2021 3:00:00 AM 2.72 36.896 0.087 7.17 7.72 12.67
1/16/2021 3:15:00 AM 2.71 36.878 0.086 7.17 7.62 12.68
1/16/2021 3:30:00 AM 2.69 36.842 0.086 7.17 8.04 12.68
1/16/2021 3:45:00 AM 2.68 36.824 0.086 7.17 7.87 12.68
1/16/2021 4:00:00 AM 2.67 36.806 0.086 7.17 7.83 12.68
1/16/2021 4:15:00 AM 2.66 36.788 0.086 7.17 7.86 12.68
1/16/2021 4:30:00 AM 2.66 36.788 0.086 7.17 7.81 12.68
1/16/2021 4:45:00 AM 2.65 36.77 0.086 7.17 7.73 12.68
1/16/2021 5:00:00 AM 2.64 36.752 0.086 7.17 7.79 12.69
1/16/2021 5:15:00 AM 2.63 36.734 0.085 7.17 7.82 12.69
1/16/2021 5:30:00 AM 2.62 36.716 0.086 7.17 7.7 12.69
1/16/2021 5:45:00 AM 2.62 36.716 0.086 7.17 7.77 12.7
1/16/2021 6:00:00 AM 2.6 36.68 0.086 7.17 7.72 12.7
1/16/2021 6:15:00 AM 2.58 36.644 0.086 7.17 7.67 12.7
1/16/2021 6:30:00 AM 2.55 36.59 0.086 7.17 7.65 12.71
1/16/2021 6:45:00 AM 2.51 36.518 0.086 7.17 7.68 12.72
1/16/2021 7:00:00 AM 2.47 36.446 0.086 7.18 7.72 12.73
1/16/2021 7:15:00 AM 2.43 36.374 0.086 7.18 7.72 12.74
1/16/2021 7:30:00 AM 2.4 36.32 0.086 7.18 7.84 12.75
1/16/2021 7:45:00 AM 2.36 36.248 0.086 7.18 7.79 12.77
1/16/2021 8:00:00 AM 2.31 36.158 0.086 7.18 7.79 12.8
1/16/2021 8:15:00 AM 2.27 36.086 0.086 7.18 7.71 12.83
1/16/2021 8:30:00 AM 2.24 36.032 0.087 7.2 7.7 12.87
1/16/2021 8:45:00 AM 2.23 36.014 0.086 7.2 7.81 12.91
1/16/2021 9:00:00 AM 2.24 36.032 0.087 7.21 7.63 12.94
1/16/2021 9:15:00 AM 2.27 36.086 0.087 7.22 7.63 12.96
1/16/2021 9:30:00 AM 2.31 36.158 0.087 7.23 7.83 12.98
1/16/2021 9:45:00 AM 2.34 36.212 0.087 7.24 7.53 12.99
1/16/2021 10:00:00 AM 2.39 36.302 0.087 7.25 7.58 12.99
1/16/2021 10:15:00 AM 2.43 36.374 0.087 7.26 7.59 12.99
1/16/2021 10:30:00 AM 2.49 36.482 0.087 7.27 7.51 12.99
1/16/2021 10:45:00 AM 2.55 36.59 0.087 7.28 7.66 12.98
1/16/2021 11:00:00 AM 2.62 36.716 0.087 7.28 7.55 12.96
1/16/2021 11:15:00 AM 2.7 36.86 0.087 7.29 7.57 12.94
1/16/2021 11:30:00 AM 2.8 37.04 0.087 7.3 7.48 12.92
1/16/2021 11:45:00 AM 2.88 37.184 0.087 7.3 7.46 12.89
1/16/2021 12:00:00 PM 2.93 37.274 0.087 7.31 7.64 12.86
1/16/2021 12:15:00 PM 2.99 37.382 0.087 7.32 7.54 12.83
1/16/2021 12:30:00 PM 3.04 37.472 0.087 7.32 7.48 12.81
1/16/2021 12:45:00 PM 3.11 37.598 0.088 7.32 7.63 12.79
1/16/2021 1:00:00 PM 3.17 37.706 0.087 7.33 7.62 12.77
1/16/2021 1:15:00 PM 3.22 37.796 0.088 7.33 7.48 12.75
1/16/2021 1:30:00 PM 3.27 37.886 0.088 7.33 7.43 12.72
1/16/2021 1:45:00 PM 3.3 37.94 0.088 7.34 7.56 12.7
1/16/2021 2:00:00 PM 3.32 37.976 0.088 7.34 7.49 12.69
1/16/2021 2:15:00 PM 3.33 37.994 0.088 7.34 7.43 12.68
1/16/2021 2:30:00 PM 3.34 38.012 0.088 7.34 7.61 12.67
1/16/2021 2:45:00 PM 3.34 38.012 0.088 7.33 7.53 12.67
1/16/2021 3:00:00 PM 3.33 37.994 0.088 7.33 7.38 12.66
1/16/2021 3:15:00 PM 3.31 37.958 0.088 7.33 7.51 12.65
1/16/2021 3:30:00 PM 3.28 37.904 0.089 7.33 7.46 12.65
1/16/2021 3:45:00 PM 3.26 37.868 0.089 7.32 7.54 12.66
1/16/2021 4:00:00 PM 3.24 37.832 0.089 7.32 7.51 12.66
1/16/2021 4:15:00 PM 3.22 37.796 0.089 7.32 7.35 12.66
1/16/2021 4:30:00 PM 3.19 37.742 0.089 7.31 7.61 12.65
1/16/2021 4:45:00 PM 3.16 37.688 0.089 7.3 7.61 12.64
1/16/2021 5:00:00 PM 3.11 37.598 0.089 7.29 7.4 12.63
1/16/2021 5:15:00 PM 3.05 37.49 0.089 7.28 7.5 12.61
1/16/2021 5:30:00 PM 3 37.4 0.09 7.27 7.58 12.59
1/16/2021 5:45:00 PM 2.95 37.31 0.09 7.25 7.4 12.58
1/16/2021 6:00:00 PM 2.9 37.22 0.09 7.25 7.55 12.59
1/16/2021 6:15:00 PM 2.84 37.112 0.09 7.24 7.52 12.6
1/16/2021 6:30:00 PM 2.79 37.022 0.09 7.23 7.81 12.6
1/16/2021 6:45:00 PM 2.73 36.914 0.09 7.23 7.89 12.62
1/16/2021 7:00:00 PM 2.69 36.842 0.09 7.22 7.88 12.63
1/16/2021 7:15:00 PM 2.65 36.77 0.09 7.22 7.97 12.64
1/16/2021 7:30:00 PM 2.63 36.734 0.09 7.21 7.73 12.65
1/16/2021 7:45:00 PM 2.61 36.698 0.09 7.21 7.88 12.66
1/16/2021 8:00:00 PM 2.58 36.644 0.09 7.21 7.59 12.66
1/16/2021 8:15:00 PM 2.54 36.572 0.09 7.2 7.59 12.67
1/16/2021 8:30:00 PM 2.51 36.518 0.09 7.21 7.59 12.68
1/16/2021 8:45:00 PM 2.49 36.482 0.091 7.2 7.74 12.69
1/16/2021 9:00:00 PM 2.47 36.446 0.091 7.2 7.49 12.7
1/16/2021 9:15:00 PM 2.45 36.41 0.091 7.2 7.6 12.7
1/16/2021 9:30:00 PM 2.45 36.41 0.091 7.2 7.51 12.71
1/16/2021 9:45:00 PM 2.44 36.392 0.09 7.2 7.72 12.71
1/16/2021 10:00:00 PM 2.43 36.374 0.091 7.2 7.66 12.71
1/16/2021 10:15:00 PM 2.42 36.356 0.09 7.2 7.54 12.72
1/16/2021 10:30:00 PM 2.41 36.338 0.09 7.2 7.57 12.72
1/16/2021 10:45:00 PM 2.38 36.284 0.09 7.2 7.48 12.73
1/16/2021 11:00:00 PM 2.37 36.266 0.091 7.2 7.62 12.73
1/16/2021 11:15:00 PM 2.36 36.248 0.091 7.2 7.48 12.73
1/16/2021 11:30:00 PM 2.34 36.212 0.091 7.21 7.47 12.74
1/16/2021 11:45:00 PM 2.33 36.194 0.091 7.21 7.45 12.75
1/17/2021 12:00:00 AM 2.31 36.158 0.09 7.21 7.45 12.75
1/17/2021 12:15:00 AM 2.29 36.122 0.09 7.21 7.51 12.76
1/17/2021 12:30:00 AM 2.27 36.086 0.09 7.21 7.7 12.77
1/17/2021 12:45:00 AM 2.25 36.05 0.09 7.2 7.48 12.78
1/17/2021 1:00:00 AM 2.24 36.032 0.09 7.21 7.41 12.78
1/17/2021 1:15:00 AM 2.22 35.996 0.09 7.21 7.31 12.79
1/17/2021 1:30:00 AM 2.2 35.96 0.09 7.21 7.25 12.8
1/17/2021 1:45:00 AM 2.19 35.942 0.09 7.21 7.35 12.81
1/17/2021 2:00:00 AM 2.17 35.906 0.09 7.21 7.4 12.81
1/17/2021 2:15:00 AM 2.16 35.888 0.09 7.21 7.25 12.82
1/17/2021 2:30:00 AM 2.13 35.834 0.09 7.21 7.32 12.83
1/17/2021 2:45:00 AM 2.11 35.798 0.09 7.2 7.23 12.84
1/17/2021 3:00:00 AM 2.09 35.762 0.09 7.2 7.16 12.84
1/17/2021 3:15:00 AM 2.09 35.762 0.09 7.2 7.25 12.85
1/17/2021 3:30:00 AM 2.08 35.744 0.09 7.2 7.22 12.85
1/17/2021 3:45:00 AM 2.06 35.708 0.09 7.21 7.27 12.86
1/17/2021 4:00:00 AM 2.05 35.69 0.09 7.21 7.24 12.86
1/17/2021 4:15:00 AM 2.04 35.672 0.09 7.2 7.09 12.87
1/17/2021 4:30:00 AM 2.02 35.636 0.09 7.21 7.23 12.87
1/17/2021 4:45:00 AM 2.01 35.618 0.09 7.2 7.23 12.88
1/17/2021 5:00:00 AM 2 35.6 0.09 7.2 7.21 12.89
1/17/2021 5:15:00 AM 2 35.6 0.09 7.21 7.36 12.89
1/17/2021 5:30:00 AM 1.99 35.582 0.09 7.21 7.24 12.89
1/17/2021 5:45:00 AM 1.98 35.564 0.09 7.2 7.36 12.9
1/17/2021 6:00:00 AM 1.98 35.564 0.09 7.21 7.38 12.9
1/17/2021 6:15:00 AM 1.98 35.564 0.09 7.2 7.46 12.9
1/17/2021 6:30:00 AM 1.97 35.546 0.09 7.2 7.8 12.91
1/17/2021 6:45:00 AM 1.96 35.528 0.09 7.21 7.45 12.91
1/17/2021 7:00:00 AM 1.97 35.546 0.09 7.21 7.25 12.91
1/17/2021 7:15:00 AM 1.97 35.546 0.09 7.21 7.33 12.92
1/17/2021 7:30:00 AM 1.96 35.528 0.09 7.21 7.31 12.92
1/17/2021 7:45:00 AM 1.96 35.528 0.09 7.2 7.3 12.92
1/17/2021 8:00:00 AM 1.97 35.546 0.09 7.21 7.38 12.94
1/17/2021 8:15:00 AM 1.97 35.546 0.089 7.21 7.18 12.97
1/17/2021 8:30:00 AM 1.98 35.564 0.089 7.23 7.39 13
1/17/2021 8:45:00 AM 1.99 35.582 0.09 7.23 7.29 13.02
1/17/2021 9:00:00 AM 2.02 35.636 0.089 7.24 7.26 13.05
1/17/2021 9:15:00 AM 2.04 35.672 0.089 7.25 7.21 13.07
1/17/2021 9:30:00 AM 2.09 35.762 0.089 7.26 7.3 13.09
1/17/2021 9:45:00 AM 2.13 35.834 0.089 7.27 7.09 13.1
1/17/2021 10:00:00 AM 2.19 35.942 0.089 7.28 7.23 13.11
1/17/2021 10:15:00 AM 2.24 36.032 0.089 7.29 7.25 13.11
1/17/2021 10:30:00 AM 2.31 36.158 0.089 7.3 7.2 13.1
1/17/2021 10:45:00 AM 2.36 36.248 0.089 7.3 7.18 13.09
1/17/2021 11:00:00 AM 2.39 36.302 0.089 7.31 7.21 13.07
1/17/2021 11:15:00 AM 2.42 36.356 0.089 7.31 7.15 13.06
1/17/2021 11:30:00 AM 2.46 36.428 0.089 7.31 7.2 13.04
1/17/2021 11:45:00 AM 2.48 36.464 0.089 7.31 7.11 13.03
1/17/2021 12:00:00 PM 2.52 36.536 0.089 7.31 7.25 13.02
1/17/2021 12:15:00 PM 2.57 36.626 0.088 7.31 7.15 13.01
1/17/2021 12:30:00 PM 2.6 36.68 0.089 7.32 7.24 13
1/17/2021 12:45:00 PM 2.65 36.77 0.088 7.32 7.36 12.99
1/17/2021 1:00:00 PM 2.69 36.842 0.088 7.32 7.33 12.98
1/17/2021 1:15:00 PM 2.73 36.914 0.088 7.32 7.39 12.97
1/17/2021 1:30:00 PM 2.75 36.95 0.088 7.32 7.28 12.95
1/17/2021 1:45:00 PM 2.77 36.986 0.088 7.33 7.21 12.94
1/17/2021 2:00:00 PM 2.8 37.04 0.088 7.32 7.06 12.93
1/17/2021 2:15:00 PM 2.81 37.058 0.088 7.32 7.25 12.91
1/17/2021 2:30:00 PM 2.81 37.058 0.088 7.32 7.32 12.9
1/17/2021 2:45:00 PM 2.81 37.058 0.088 7.32 7.07 12.88
1/17/2021 3:00:00 PM 2.8 37.04 0.088 7.31 7.13 12.88
1/17/2021 3:15:00 PM 2.81 37.058 0.088 7.31 7.09 12.87
1/17/2021 3:30:00 PM 2.8 37.04 0.088 7.3 6.98 12.86
1/17/2021 3:45:00 PM 2.79 37.022 0.088 7.3 7.02 12.84
1/17/2021 4:00:00 PM 2.77 36.986 0.088 7.29 7.16 12.83
1/17/2021 4:15:00 PM 2.76 36.968 0.088 7.28 7.26 12.81
1/17/2021 4:30:00 PM 2.74 36.932 0.088 7.27 7.06 12.8
1/17/2021 4:45:00 PM 2.71 36.878 0.088 7.27 7.03 12.78
1/17/2021 5:00:00 PM 2.69 36.842 0.088 7.26 7.04 12.77
1/17/2021 5:15:00 PM 2.67 36.806 0.088 7.25 7.17 12.76
1/17/2021 5:30:00 PM 2.65 36.77 0.088 7.25 7.21 12.75
1/17/2021 5:45:00 PM 2.63 36.734 0.088 7.24 7.05 12.74
1/17/2021 6:00:00 PM 2.61 36.698 0.088 7.23 7.11 12.74
1/17/2021 6:15:00 PM 2.59 36.662 0.088 7.23 7.24 12.74
1/17/2021 6:30:00 PM 2.57 36.626 0.088 7.23 7.11 12.74
1/17/2021 6:45:00 PM 2.55 36.59 0.088 7.22 7.05 12.74
1/17/2021 7:00:00 PM 2.53 36.554 0.088 7.22 7.09 12.75
1/17/2021 7:15:00 PM 2.51 36.518 0.088 7.22 7.02 12.75
1/17/2021 7:30:00 PM 2.5 36.5 0.088 7.22 7.03 12.76
1/17/2021 7:45:00 PM 2.49 36.482 0.089 7.21 7.15 12.76
1/17/2021 8:00:00 PM 2.48 36.464 0.089 7.22 7.29 12.76
1/17/2021 8:15:00 PM 2.46 36.428 0.089 7.21 7.2 12.77
1/17/2021 8:30:00 PM 2.44 36.392 0.089 7.21 7.11 12.77
1/17/2021 8:45:00 PM 2.43 36.374 0.089 7.21 7.04 12.78
1/17/2021 9:00:00 PM 2.41 36.338 0.089 7.21 7.18 12.78
1/17/2021 9:15:00 PM 2.4 36.32 0.089 7.21 7.06 12.78
1/17/2021 9:30:00 PM 2.39 36.302 0.089 7.21 7.05 12.79
1/17/2021 9:45:00 PM 2.38 36.284 0.089 7.21 7.14 12.79
1/17/2021 10:00:00 PM 2.36 36.248 0.089 7.21 7.07 12.79
1/17/2021 10:15:00 PM 2.34 36.212 0.089 7.21 7.13 12.8
1/17/2021 10:30:00 PM 2.33 36.194 0.089 7.21 7.11 12.8
1/17/2021 10:45:00 PM 2.31 36.158 0.088 7.21 7.07 12.81
1/17/2021 11:00:00 PM 2.29 36.122 0.089 7.2 7.16 12.81
1/17/2021 11:15:00 PM 2.27 36.086 0.088 7.2 7.24 12.82
1/17/2021 11:30:00 PM 2.24 36.032 0.089 7.21 7.06 12.83
1/17/2021 11:45:00 PM 2.22 35.996 0.088 7.21 7.24 12.83
1/18/2021 12:00:00 AM 2.22 35.996 0.088 7.2 7.03 12.83
1/18/2021 12:15:00 AM 2.22 35.996 0.088 7.2 7.09 12.84
1/18/2021 12:30:00 AM 2.21 35.978 0.088 7.2 7.16 12.84
1/18/2021 12:45:00 AM 2.2 35.96 0.088 7.2 7.14 12.84
1/18/2021 1:00:00 AM 2.19 35.942 0.089 7.2 7 12.85
1/18/2021 1:15:00 AM 2.18 35.924 0.089 7.2 7.1 12.85
1/18/2021 1:30:00 AM 2.16 35.888 0.088 7.2 7.16 12.85
1/18/2021 1:45:00 AM 2.15 35.87 0.089 7.2 7.18 12.86
1/18/2021 2:00:00 AM 2.15 35.87 0.089 7.2 7.21 12.86
1/18/2021 2:15:00 AM 2.14 35.852 0.089 7.2 7.11 12.87
1/18/2021 2:30:00 AM 2.13 35.834 0.089 7.2 7.17 12.87
1/18/2021 2:45:00 AM 2.13 35.834 0.089 7.2 7.23 12.88
1/18/2021 3:00:00 AM 2.13 35.834 0.088 7.2 7.09 12.88
1/18/2021 3:15:00 AM 2.13 35.834 0.088 7.2 7.07 12.88
1/18/2021 3:30:00 AM 2.13 35.834 0.088 7.2 7.15 12.88
1/18/2021 3:45:00 AM 2.12 35.816 0.088 7.2 7.05 12.88
1/18/2021 4:00:00 AM 2.11 35.798 0.089 7.2 7.18 12.88
1/18/2021 4:15:00 AM 2.09 35.762 0.088 7.2 7.12 12.89
1/18/2021 4:30:00 AM 2.07 35.726 0.089 7.2 7.06 12.89
1/18/2021 4:45:00 AM 2.06 35.708 0.089 7.2 7 12.9
1/18/2021 5:00:00 AM 2.05 35.69 0.089 7.19 7.07 12.9
1/18/2021 5:15:00 AM 2.04 35.672 0.089 7.2 7.04 12.9
1/18/2021 5:30:00 AM 2.03 35.654 0.089 7.2 7.01 12.91
1/18/2021 5:45:00 AM 2.02 35.636 0.089 7.2 7.15 12.91
1/18/2021 6:00:00 AM 2.01 35.618 0.089 7.2 7.29 12.92
1/18/2021 6:15:00 AM 2 35.6 0.089 7.2 6.95 12.92
1/18/2021 6:30:00 AM 1.99 35.582 0.089 7.2 7.08 12.93
1/18/2021 6:45:00 AM 1.98 35.564 0.089 7.2 7.1 12.93
1/18/2021 7:00:00 AM 1.96 35.528 0.089 7.2 7.13 12.94
1/18/2021 7:15:00 AM 1.94 35.492 0.089 7.19 7.04 12.95
1/18/2021 7:30:00 AM 1.92 35.456 0.089 7.2 7 12.96
1/18/2021 7:45:00 AM 1.91 35.438 0.089 7.2 7.05 12.97
1/18/2021 8:00:00 AM 1.9 35.42 0.089 7.21 7.03 13
1/18/2021 8:15:00 AM 1.9 35.42 0.089 7.21 7.06 13.03
1/18/2021 8:30:00 AM 1.91 35.438 0.089 7.22 7.11 13.07
1/18/2021 8:45:00 AM 1.92 35.456 0.089 7.23 6.95 13.11
1/18/2021 9:00:00 AM 1.95 35.51 0.089 7.24 7.02 13.13
1/18/2021 9:15:00 AM 1.99 35.582 0.088 7.25 7.01 13.17
1/18/2021 9:30:00 AM 2.04 35.672 0.088 7.27 7.14 13.18
1/18/2021 9:45:00 AM 2.08 35.744 0.088 7.28 6.96 13.19
1/18/2021 10:00:00 AM 2.12 35.816 0.088 7.28 7.12 13.2
1/18/2021 10:15:00 AM 2.19 35.942 0.088 7.29 7.06 13.2
1/18/2021 10:30:00 AM 2.25 36.05 0.088 7.3 7.07 13.19
1/18/2021 10:45:00 AM 2.31 36.158 0.088 7.31 7.14 13.17
1/18/2021 11:00:00 AM 2.36 36.248 0.088 7.31 6.93 13.16
1/18/2021 11:15:00 AM 2.42 36.356 0.088 7.32 7.04 13.16
1/18/2021 11:30:00 AM 2.48 36.464 0.088 7.32 6.94 13.13
1/18/2021 11:45:00 AM 2.54 36.572 0.088 7.33 7.08 13.12
1/18/2021 12:00:00 PM 2.59 36.662 0.088 7.33 6.99 13.1
1/18/2021 12:15:00 PM 2.65 36.77 0.088 7.33 7.05 13.09
1/18/2021 12:30:00 PM 2.71 36.878 0.088 7.34 6.97 13.07
1/18/2021 12:45:00 PM 2.79 37.022 0.088 7.34 6.98 13.05
1/18/2021 1:00:00 PM 2.84 37.112 0.088 7.34 6.93 13.03
1/18/2021 1:15:00 PM 2.86 37.148 0.088 7.34 7 12.99
1/18/2021 1:30:00 PM 2.88 37.184 0.088 7.34 6.99 12.98
1/18/2021 1:45:00 PM 2.91 37.238 0.088 7.34 6.9 12.97
1/18/2021 2:00:00 PM 2.93 37.274 0.087 7.34 6.92 12.97
1/18/2021 2:15:00 PM 2.94 37.292 0.088 7.34 6.95 12.95
1/18/2021 2:30:00 PM 2.94 37.292 0.087 7.34 6.96 12.95
1/18/2021 2:45:00 PM 2.96 37.328 0.088 7.35 7.05 12.95
1/18/2021 3:00:00 PM 2.98 37.364 0.087 7.35 6.93 12.95
1/18/2021 3:15:00 PM 2.99 37.382 0.087 7.35 6.99 12.94
1/18/2021 3:30:00 PM 2.98 37.364 0.088 7.34 7.04 12.92
1/18/2021 3:45:00 PM 2.95 37.31 0.088 7.33 7.01 12.9
1/18/2021 4:00:00 PM 2.94 37.292 0.088 7.33 7.04 12.89
1/18/2021 4:15:00 PM 2.92 37.256 0.088 7.32 6.88 12.88
1/18/2021 4:30:00 PM 2.88 37.184 0.088 7.31 7.07 12.86
1/18/2021 4:45:00 PM 2.84 37.112 0.088 7.29 7.1 12.84
1/18/2021 5:00:00 PM 2.8 37.04 0.088 7.28 7.04 12.82
1/18/2021 5:15:00 PM 2.76 36.968 0.088 7.27 6.96 12.8
1/18/2021 5:30:00 PM 2.73 36.914 0.088 7.26 6.91 12.8
1/18/2021 5:45:00 PM 2.69 36.842 0.088 7.25 6.97 12.79
1/18/2021 6:00:00 PM 2.66 36.788 0.088 7.24 7.01 12.79
1/18/2021 6:15:00 PM 2.63 36.734 0.088 7.24 7.05 12.79
1/18/2021 6:30:00 PM 2.61 36.698 0.088 7.24 6.99 12.8
1/18/2021 6:45:00 PM 2.58 36.644 0.089 7.23 7.06 12.81
1/18/2021 7:00:00 PM 2.56 36.608 0.088 7.23 6.99 12.81
1/18/2021 7:15:00 PM 2.54 36.572 0.089 7.22 6.96 12.82
1/18/2021 7:30:00 PM 2.52 36.536 0.089 7.22 6.94 12.83
1/18/2021 7:45:00 PM 2.49 36.482 0.089 7.22 6.98 12.84
1/18/2021 8:00:00 PM 2.47 36.446 0.089 7.22 6.97 12.84
1/18/2021 8:15:00 PM 2.45 36.41 0.089 7.22 7.1 12.85
1/18/2021 8:30:00 PM 2.43 36.374 0.089 7.21 7.05 12.86
1/18/2021 8:45:00 PM 2.41 36.338 0.089 7.21 6.87 12.87
1/18/2021 9:00:00 PM 2.39 36.302 0.089 7.21 6.84 12.88
1/18/2021 9:15:00 PM 2.37 36.266 0.089 7.22 7.02 12.88
1/18/2021 9:30:00 PM 2.36 36.248 0.089 7.21 7.02 12.89
1/18/2021 9:45:00 PM 2.34 36.212 0.089 7.21 7.04 12.89
1/18/2021 10:00:00 PM 2.33 36.194 0.089 7.21 6.97 12.9
1/18/2021 10:15:00 PM 2.31 36.158 0.089 7.21 6.95 12.9
1/18/2021 10:30:00 PM 2.3 36.14 0.089 7.21 6.9 12.92
1/18/2021 10:45:00 PM 2.29 36.122 0.089 7.2 6.92 12.92
1/18/2021 11:00:00 PM 2.27 36.086 0.089 7.21 6.99 12.92
1/18/2021 11:15:00 PM 2.26 36.068 0.089 7.21 7.17 12.93
1/18/2021 11:30:00 PM 2.24 36.032 0.089 7.21 7.1 12.93
1/18/2021 11:45:00 PM 2.23 36.014 0.089 7.21 7.18 12.94
1/19/2021 12:00:00 AM 2.22 35.996 0.089 7.21 7 12.94
1/19/2021 12:15:00 AM 2.21 35.978 0.089 7.21 7.05 12.95
1/19/2021 12:30:00 AM 2.2 35.96 0.089 7.21 7.14 12.95
1/19/2021 12:45:00 AM 2.19 35.942 0.089 7.21 7.09 12.96
1/19/2021 1:00:00 AM 2.18 35.924 0.089 7.21 6.95 12.96
1/19/2021 1:15:00 AM 2.16 35.888 0.089 7.21 7.08 12.96
1/19/2021 1:30:00 AM 2.14 35.852 0.089 7.21 7.03 12.97
1/19/2021 1:45:00 AM 2.11 35.798 0.089 7.21 7.04 12.98
1/19/2021 2:00:00 AM 2.09 35.762 0.089 7.21 7.2 12.99
1/19/2021 2:15:00 AM 2.07 35.726 0.089 7.2 7.1 13
1/19/2021 2:30:00 AM 2.05 35.69 0.089 7.21 7.2 13.01
1/19/2021 2:45:00 AM 2.04 35.672 0.089 7.21 7.28 13.02
1/19/2021 3:00:00 AM 2.02 35.636 0.089 7.21 7.38 13.02
1/19/2021 3:15:00 AM 2 35.6 0.089 7.21 7.29 13.03
1/19/2021 3:30:00 AM 1.98 35.564 0.089 7.21 7.22 13.04
1/19/2021 3:45:00 AM 1.97 35.546 0.089 7.21 7.32 13.05
1/19/2021 4:00:00 AM 1.96 35.528 0.089 7.21 7.24 13.06
1/19/2021 4:15:00 AM 1.93 35.474 0.089 7.21 7.3 13.06
1/19/2021 4:30:00 AM 1.91 35.438 0.089 7.21 7.14 13.07
1/19/2021 4:45:00 AM 1.89 35.402 0.089 7.21 7.16 13.08
1/19/2021 5:00:00 AM 1.87 35.366 0.089 7.21 7.11 13.09
1/19/2021 5:15:00 AM 1.85 35.33 0.089 7.21 7.16 13.1
1/19/2021 5:30:00 AM 1.82 35.276 0.089 7.2 7.09 13.11
1/19/2021 5:45:00 AM 1.79 35.222 0.089 7.21 7.17 13.12
1/19/2021 6:00:00 AM 1.75 35.15 0.089 7.2 6.98 13.13
1/19/2021 6:15:00 AM 1.71 35.078 0.089 7.2 6.97 13.15
1/19/2021 6:30:00 AM 1.67 35.006 0.089 7.2 7.01 13.16
1/19/2021 6:45:00 AM 1.65 34.97 0.089 7.2 6.98 13.17
1/19/2021 7:00:00 AM 1.64 34.952 0.089 7.2 7.06 13.18
1/19/2021 7:15:00 AM 1.63 34.934 0.089 7.2 6.98 13.19
1/19/2021 7:30:00 AM 1.63 34.934 0.089 7.2 7.06 13.2
1/19/2021 7:45:00 AM 1.63 34.934 0.089 7.2 7.09 13.2
1/19/2021 8:00:00 AM 1.64 34.952 0.089 7.21 6.97 13.22
1/19/2021 8:15:00 AM 1.64 34.952 0.089 7.21 7.09 13.24
1/19/2021 8:30:00 AM 1.63 34.934 0.089 7.22 6.96 13.27
1/19/2021 8:45:00 AM 1.59 34.862 0.089 7.23 7.01 13.29
1/19/2021 9:00:00 AM 1.61 34.898 0.089 7.24 7.09 13.34
1/19/2021 9:15:00 AM 1.64 34.952 0.089 7.25 7.04 13.38
1/19/2021 9:30:00 AM 1.68 35.024 0.089 7.26 6.94 13.41
1/19/2021 9:45:00 AM 1.72 35.096 0.089 7.27 7.08 13.43
1/19/2021 10:00:00 AM 1.76 35.168 0.089 7.28 6.95 13.44
1/19/2021 10:15:00 AM 1.8 35.24 0.089 7.29 7.07 13.44
1/19/2021 10:30:00 AM 1.83 35.294 0.089 7.3 7.03 13.44
1/19/2021 10:45:00 AM 1.88 35.384 0.089 7.31 6.94 13.44
1/19/2021 11:00:00 AM 1.92 35.456 0.089 7.32 6.99 13.44
1/19/2021 11:15:00 AM 1.97 35.546 0.089 7.32 6.89 13.44
1/19/2021 11:30:00 AM 2.03 35.654 0.089 7.33 6.83 13.43
1/19/2021 11:45:00 AM 2.1 35.78 0.088 7.34 6.78 13.42
1/19/2021 12:00:00 PM 2.17 35.906 0.089 7.34 6.9 13.38
1/19/2021 12:15:00 PM 2.2 35.96 0.088 7.34 6.95 13.36
1/19/2021 12:30:00 PM 2.24 36.032 0.088 7.34 6.97 13.35
1/19/2021 12:45:00 PM 2.28 36.104 0.088 7.34 6.9 13.34
1/19/2021 1:00:00 PM 2.31 36.158 0.088 7.34 6.93 13.33
1/19/2021 1:15:00 PM 2.38 36.284 0.088 7.35 6.85 13.32
1/19/2021 1:30:00 PM 2.47 36.446 0.088 7.36 7 13.29
1/19/2021 1:45:00 PM 2.6 36.68 0.088 7.36 6.88 13.26
1/19/2021 2:00:00 PM 2.7 36.86 0.088 7.37 6.84 13.23
1/19/2021 2:15:00 PM 2.73 36.914 0.088 7.37 6.9 13.2
1/19/2021 2:30:00 PM 2.78 37.004 0.088 7.37 6.95 13.18
1/19/2021 2:45:00 PM 2.79 37.022 0.088 7.37 6.8 13.16
1/19/2021 3:00:00 PM 2.77 36.986 0.088 7.36 6.85 13.17
1/19/2021 3:15:00 PM 2.74 36.932 0.088 7.36 6.91 13.17
1/19/2021 3:30:00 PM 2.73 36.914 0.088 7.36 6.92 13.16
1/19/2021 3:45:00 PM 2.7 36.86 0.088 7.36 6.89 13.15
1/19/2021 4:00:00 PM 2.66 36.788 0.088 7.35 6.88 13.13
1/19/2021 4:15:00 PM 2.62 36.716 0.088 7.33 6.87 13.12
1/19/2021 4:30:00 PM 2.58 36.644 0.088 7.33 6.99 13.1
1/19/2021 4:45:00 PM 2.54 36.572 0.088 7.32 6.89 13.1
1/19/2021 5:00:00 PM 2.51 36.518 0.088 7.3 6.87 13.07
1/19/2021 5:15:00 PM 2.46 36.428 0.088 7.29 6.91 13.05
1/19/2021 5:30:00 PM 2.41 36.338 0.088 7.28 6.82 13.03
1/19/2021 5:45:00 PM 2.37 36.266 0.088 7.26 7 13.02
1/19/2021 6:00:00 PM 2.32 36.176 0.088 7.26 7.06 13.01
1/19/2021 6:15:00 PM 2.26 36.068 0.089 7.25 7.07 13.01
1/19/2021 6:30:00 PM 2.2 35.96 0.089 7.24 6.98 13.02
1/19/2021 6:45:00 PM 2.13 35.834 0.089 7.23 6.96 13.03
1/19/2021 7:00:00 PM 2.07 35.726 0.089 7.23 6.88 13.05
1/19/2021 7:15:00 PM 2.01 35.618 0.089 7.22 6.93 13.07
1/19/2021 7:30:00 PM 1.97 35.546 0.089 7.22 6.85 13.09
1/19/2021 7:45:00 PM 1.92 35.456 0.089 7.21 6.87 13.1
1/19/2021 8:00:00 PM 1.88 35.384 0.089 7.2 7.03 13.11
1/19/2021 8:15:00 PM 1.84 35.312 0.089 7.2 7.06 13.13
1/19/2021 8:30:00 PM 1.8 35.24 0.089 7.2 7 13.14
1/19/2021 8:45:00 PM 1.78 35.204 0.089 7.2 6.86 13.14
1/19/2021 9:00:00 PM 1.75 35.15 0.089 7.2 7.01 13.16
1/19/2021 9:15:00 PM 1.73 35.114 0.089 7.2 6.98 13.16
1/19/2021 9:30:00 PM 1.72 35.096 0.089 7.2 7.25 13.16
1/19/2021 9:45:00 PM 1.7 35.06 0.089 7.2 6.91 13.17
1/19/2021 10:00:00 PM 1.69 35.042 0.089 7.2 6.92 13.17
1/19/2021 10:15:00 PM 1.68 35.024 0.089 7.2 6.99 13.17
1/19/2021 10:30:00 PM 1.67 35.006 0.089 7.2 6.91 13.18
1/19/2021 10:45:00 PM 1.65 34.97 0.089 7.2 6.97 13.18
1/19/2021 11:00:00 PM 1.63 34.934 0.089 7.2 6.95 13.19
1/19/2021 11:15:00 PM 1.62 34.916 0.089 7.2 7.02 13.19
1/19/2021 11:30:00 PM 1.62 34.916 0.089 7.2 6.98 13.19
1/19/2021 11:45:00 PM 1.62 34.916 0.089 7.2 7.02 13.19
1/20/2021 12:00:00 AM 1.62 34.916 0.089 7.2 6.95 13.19
1/20/2021 12:15:00 AM 1.61 34.898 0.09 7.2 7.04 13.19
1/20/2021 12:30:00 AM 1.6 34.88 0.089 7.2 6.93 13.19
1/20/2021 12:45:00 AM 1.6 34.88 0.089 7.2 7.07 13.19
1/20/2021 1:00:00 AM 1.6 34.88 0.089 7.21 7.01 13.18
1/20/2021 1:15:00 AM 1.59 34.862 0.089 7.2 6.94 13.18
1/20/2021 1:30:00 AM 1.59 34.862 0.089 7.21 7.19 13.18
1/20/2021 1:45:00 AM 1.59 34.862 0.089 7.21 7.06 13.18
1/20/2021 2:00:00 AM 1.59 34.862 0.09 7.21 7.07 13.18
1/20/2021 2:15:00 AM 1.59 34.862 0.089 7.21 6.89 13.17
1/20/2021 2:30:00 AM 1.59 34.862 0.089 7.21 6.98 13.17
1/20/2021 2:45:00 AM 1.58 34.844 0.089 7.21 6.93 13.17
1/20/2021 3:00:00 AM 1.57 34.826 0.089 7.21 6.93 13.17
1/20/2021 3:15:00 AM 1.56 34.808 0.089 7.21 6.93 13.17
1/20/2021 3:30:00 AM 1.55 34.79 0.089 7.21 7.2 13.17
1/20/2021 3:45:00 AM 1.54 34.772 0.089 7.2 7.04 13.17
1/20/2021 4:00:00 AM 1.53 34.754 0.089 7.21 6.92 13.17
1/20/2021 4:15:00 AM 1.51 34.718 0.089 7.21 6.84 13.18
1/20/2021 4:30:00 AM 1.49 34.682 0.089 7.21 6.98 13.18
1/20/2021 4:45:00 AM 1.48 34.664 0.089 7.21 6.86 13.19
1/20/2021 5:00:00 AM 1.46 34.628 0.089 7.21 6.84 13.19
1/20/2021 5:15:00 AM 1.44 34.592 0.089 7.2 6.84 13.2
1/20/2021 5:30:00 AM 1.43 34.574 0.089 7.21 6.95 13.21
1/20/2021 5:45:00 AM 1.41 34.538 0.089 7.21 6.98 13.21
1/20/2021 6:00:00 AM 1.41 34.538 0.089 7.2 6.87 13.22
1/20/2021 6:15:00 AM 1.39 34.502 0.089 7.21 7.57 13.22
1/20/2021 6:30:00 AM 1.38 34.484 0.089 7.21 7.34 13.23
1/20/2021 6:45:00 AM 1.37 34.466 0.089 7.21 6.94 13.24
1/20/2021 7:00:00 AM 1.35 34.43 0.089 7.21 6.97 13.25
1/20/2021 7:15:00 AM 1.32 34.376 0.089 7.21 6.82 13.26
1/20/2021 7:30:00 AM 1.29 34.322 0.089 7.21 7.83 13.27
1/20/2021 7:45:00 AM 1.27 34.286 0.089 7.21 7 13.3
1/20/2021 8:00:00 AM 1.24 34.232 0.089 7.21 6.96 13.33
1/20/2021 8:15:00 AM 1.19 34.142 0.089 7.22 6.87 13.39
1/20/2021 8:30:00 AM 1.15 34.07 0.089 7.23 6.96 13.45
1/20/2021 8:45:00 AM 1.13 34.034 0.089 7.24 6.8 13.51
1/20/2021 9:00:00 AM 1.13 34.034 0.089 7.26 6.84 13.56
1/20/2021 9:15:00 AM 1.12 34.016 0.089 7.27 7.02 13.6
1/20/2021 9:30:00 AM 1.12 34.016 0.089 7.27 6.85 13.64
1/20/2021 9:45:00 AM 1.14 34.052 0.089 7.28 6.94 13.66
1/20/2021 10:00:00 AM 1.16 34.088 0.089 7.29 6.83 13.68
1/20/2021 10:15:00 AM 1.25 34.25 0.088 7.3 6.96 13.68
1/20/2021 10:30:00 AM 1.34 34.412 0.088 7.3 6.88 13.68
1/20/2021 10:45:00 AM 1.36 34.448 0.088 7.31 7.11 13.67
1/20/2021 11:00:00 AM 1.45 34.61 0.088 7.32 6.96 13.66
1/20/2021 11:15:00 AM 1.63 34.934 0.088 7.33 6.88 13.62
1/20/2021 11:30:00 AM 1.71 35.078 0.088 7.34 6.87 13.58
1/20/2021 11:45:00 AM 1.77 35.186 0.088 7.34 6.98 13.55
1/20/2021 12:00:00 PM 1.85 35.33 0.088 7.35 7.01 13.53
1/20/2021 12:15:00 PM 1.94 35.492 0.088 7.35 6.86 13.5
1/20/2021 12:30:00 PM 1.95 35.51 0.088 7.35 6.83 13.47
1/20/2021 12:45:00 PM 1.98 35.564 0.088 7.35 6.77 13.47
1/20/2021 1:00:00 PM 2.01 35.618 0.087 7.35 6.72 13.45
1/20/2021 1:15:00 PM 2.01 35.618 0.088 7.35 6.94 13.44
1/20/2021 1:30:00 PM 2.03 35.654 0.087 7.35 7.05 13.43
1/20/2021 1:45:00 PM 2.03 35.654 0.088 7.36 6.97 13.43
1/20/2021 2:00:00 PM 2.03 35.654 0.087 7.35 6.79 13.43
1/20/2021 2:15:00 PM 2.02 35.636 0.087 7.35 6.8 13.44
1/20/2021 2:30:00 PM 2.01 35.618 0.087 7.35 6.93 13.44
1/20/2021 2:45:00 PM 2 35.6 0.087 7.35 6.82 13.44
1/20/2021 3:00:00 PM 1.99 35.582 0.087 7.35 7.1 13.43
1/20/2021 3:15:00 PM 1.96 35.528 0.088 7.35 6.89 13.42
1/20/2021 3:30:00 PM 1.93 35.474 0.087 7.34 6.86 13.43
1/20/2021 3:45:00 PM 1.9 35.42 0.088 7.34 6.84 13.44
1/20/2021 4:00:00 PM 1.86 35.348 0.088 7.34 6.82 13.45
1/20/2021 4:15:00 PM 1.82 35.276 0.087 7.33 7.06 13.44
1/20/2021 4:30:00 PM 1.78 35.204 0.088 7.32 6.97 13.43
1/20/2021 4:45:00 PM 1.73 35.114 0.088 7.32 6.87 13.43
1/20/2021 5:00:00 PM 1.68 35.024 0.088 7.3 7.06 13.41
1/20/2021 5:15:00 PM 1.63 34.934 0.088 7.29 7.05 13.38
1/20/2021 5:30:00 PM 1.58 34.844 0.088 7.28 7.48 13.36
1/20/2021 5:45:00 PM 1.52 34.736 0.088 7.26 7.18 13.35
1/20/2021 6:00:00 PM 1.47 34.646 0.089 7.25 7.01 13.34
1/20/2021 6:15:00 PM 1.43 34.574 0.089 7.24 6.9 13.33
1/20/2021 6:30:00 PM 1.39 34.502 0.089 7.23 7.01 13.33
1/20/2021 6:45:00 PM 1.35 34.43 0.089 7.23 7.05 13.33
1/20/2021 7:00:00 PM 1.31 34.358 0.089 7.22 7.02 13.34
1/20/2021 7:15:00 PM 1.26 34.268 0.089 7.21 6.91 13.35
1/20/2021 7:30:00 PM 1.23 34.214 0.09 7.21 7 13.35
1/20/2021 7:45:00 PM 1.19 34.142 0.089 7.2 6.95 13.36
1/20/2021 8:00:00 PM 1.15 34.07 0.09 7.2 6.99 13.38
1/20/2021 8:15:00 PM 1.11 33.998 0.09 7.2 6.78 13.39
1/20/2021 8:30:00 PM 1.07 33.926 0.09 7.2 6.93 13.4
1/20/2021 8:45:00 PM 1.03 33.854 0.09 7.2 7.01 13.42
1/20/2021 9:00:00 PM 1.01 33.818 0.09 7.2 7.01 13.43
1/20/2021 9:15:00 PM 0.98 33.764 0.09 7.2 6.98 13.45
1/20/2021 9:30:00 PM 0.93 33.674 0.09 7.2 7.13 13.46
1/20/2021 9:45:00 PM 0.89 33.602 0.09 7.19 6.9 13.47
1/20/2021 10:00:00 PM 0.85 33.53 0.09 7.19 7.04 13.49
1/20/2021 10:15:00 PM 0.8 33.44 0.09 7.19 6.84 13.5
1/20/2021 10:30:00 PM 0.76 33.368 0.09 7.19 6.96 13.52
1/20/2021 10:45:00 PM 0.72 33.296 0.09 7.19 7.07 13.53
1/20/2021 11:00:00 PM 0.68 33.224 0.09 7.19 6.88 13.54
1/20/2021 11:15:00 PM 0.62 33.116 0.09 7.19 6.95 13.56
1/20/2021 11:30:00 PM 0.58 33.044 0.09 7.19 7 13.57
1/20/2021 11:45:00 PM 0.56 33.008 0.09 7.19 6.87 13.58
1/21/2021 12:00:00 AM 0.53 32.954 0.09 7.19 7.06 13.59
1/21/2021 12:15:00 AM 0.52 32.936 0.09 7.19 7.12 13.6
1/21/2021 12:30:00 AM 0.5 32.9 0.09 7.19 6.92 13.6
1/21/2021 12:45:00 AM 0.48 32.864 0.09 7.19 6.92 13.61
1/21/2021 1:00:00 AM 0.45 32.81 0.09 7.19 7.03 13.62
1/21/2021 1:15:00 AM 0.41 32.738 0.09 7.19 6.99 13.62
1/21/2021 1:30:00 AM 0.37 32.666 0.09 7.19 6.94 13.63
1/21/2021 1:45:00 AM 0.32 32.576 0.09 7.19 7.01 13.64
1/21/2021 2:00:00 AM 0.27 32.486 0.09 7.19 6.87 13.66
1/21/2021 2:15:00 AM 0.22 32.396 0.09 7.19 7.01 13.67
1/21/2021 2:30:00 AM 0.17 32.306 0.09 7.19 6.93 13.69
1/21/2021 2:45:00 AM 0.13 32.234 0.09 7.18 6.99 13.7
1/21/2021 3:00:00 AM 0.09 32.162 0.09 7.18 6.9 13.71
1/21/2021 3:15:00 AM 0.07 32.126 0.09 7.18 7.01 13.72
1/21/2021 3:30:00 AM 0.04 32.072 0.09 7.18 7.02 13.73
1/21/2021 3:45:00 AM 0.01 32.018 0.09 7.18 6.9 13.74
1/21/2021 4:00:00 AM -0.02 31.964 0.09 7.19 7.02 13.75
1/21/2021 4:15:00 AM -0.04 31.928 0.089 7.18 6.9 13.75
1/21/2021 4:30:00 AM -0.03 31.946 0.09 7.19 7.04 13.75
1/21/2021 4:45:00 AM -0.01 31.982 0.09 7.19 7.05 13.74
1/21/2021 5:00:00 AM 0 32 0.09 7.19 6.9 13.74
1/21/2021 5:15:00 AM 0.02 32.036 0.09 7.19 6.91 13.73
1/21/2021 5:30:00 AM 0.03 32.054 0.089 7.19 6.99 13.72
1/21/2021 5:45:00 AM 0.06 32.108 0.09 7.2 7.1 13.71
1/21/2021 6:00:00 AM 0.08 32.144 0.089 7.19 7.01 13.7
1/21/2021 6:15:00 AM 0.1 32.18 0.089 7.2 7.06 13.69
1/21/2021 6:30:00 AM 0.12 32.216 0.089 7.2 7.04 13.68
1/21/2021 6:45:00 AM 0.12 32.216 0.089 7.2 7.02 13.68
1/21/2021 7:00:00 AM 0.13 32.234 0.089 7.2 6.96 13.67
1/21/2021 7:15:00 AM 0.14 32.252 0.089 7.2 6.91 13.67
1/21/2021 7:30:00 AM 0.15 32.27 0.089 7.2 7.08 13.66
1/21/2021 7:45:00 AM 0.17 32.306 0.089 7.21 6.89 13.66
1/21/2021 8:00:00 AM 0.18 32.324 0.089 7.21 6.92 13.68
1/21/2021 8:15:00 AM 0.2 32.36 0.089 7.22 6.97 13.7
1/21/2021 8:30:00 AM 0.22 32.396 0.089 7.23 6.9 13.72
1/21/2021 8:45:00 AM 0.25 32.45 0.088 7.24 6.84 13.75
1/21/2021 9:00:00 AM 0.29 32.522 0.088 7.25 6.88 13.78
1/21/2021 9:15:00 AM 0.33 32.594 0.088 7.26 6.95 13.8
1/21/2021 9:30:00 AM 0.38 32.684 0.088 7.27 7.04 13.82
1/21/2021 9:45:00 AM 0.42 32.756 0.088 7.28 7.02 13.84
1/21/2021 10:00:00 AM 0.48 32.864 0.088 7.29 6.93 13.84
1/21/2021 10:15:00 AM 0.55 32.99 0.088 7.3 6.85 13.83
1/21/2021 10:30:00 AM 0.63 33.134 0.087 7.31 7 13.82
1/21/2021 10:45:00 AM 0.71 33.278 0.087 7.31 6.9 13.8
1/21/2021 11:00:00 AM 0.79 33.422 0.087 7.32 6.81 13.78
1/21/2021 11:15:00 AM 0.86 33.548 0.087 7.32 6.85 13.75
1/21/2021 11:30:00 AM 0.94 33.692 0.087 7.33 6.85 13.73
1/21/2021 11:45:00 AM 1.03 33.854 0.087 7.33 6.87 13.7
1/21/2021 12:00:00 PM 1.13 34.034 0.087 7.34 6.86 13.67
1/21/2021 12:15:00 PM 1.24 34.232 0.086 7.34 6.95 13.64
1/21/2021 12:30:00 PM 1.34 34.412 0.086 7.35 7.04 13.61
1/21/2021 12:45:00 PM 1.46 34.628 0.086 7.35 6.94 13.56
1/21/2021 1:00:00 PM 1.59 34.862 0.086 7.35 6.8 13.51
1/21/2021 1:15:00 PM 1.73 35.114 0.086 7.35 7.01 13.46
1/21/2021 1:30:00 PM 1.85 35.33 0.086 7.35 6.89 13.41
1/21/2021 1:45:00 PM 1.97 35.546 0.085 7.36 6.94 13.35
1/21/2021 2:00:00 PM 2.09 35.762 0.086 7.36 6.85 13.3
1/21/2021 2:15:00 PM 2.18 35.924 0.085 7.36 6.87 13.23
1/21/2021 2:30:00 PM 2.23 36.014 0.086 7.36 6.89 13.19
1/21/2021 2:45:00 PM 2.26 36.068 0.085 7.36 6.76 13.16
1/21/2021 3:00:00 PM 2.26 36.068 0.086 7.35 6.85 13.14
1/21/2021 3:15:00 PM 2.22 35.996 0.085 7.35 6.9 13.13
1/21/2021 3:30:00 PM 2.13 35.834 0.086 7.34 6.89 13.14
1/21/2021 3:45:00 PM 2.04 35.672 0.086 7.33 6.86 13.14
1/21/2021 4:00:00 PM 1.98 35.564 0.086 7.33 6.93 13.15
1/21/2021 4:15:00 PM 1.93 35.474 0.086 7.32 7.09 13.15
1/21/2021 4:30:00 PM 1.89 35.402 0.086 7.31 6.9 13.15
1/21/2021 4:45:00 PM 1.85 35.33 0.086 7.31 7.04 13.15
1/21/2021 5:00:00 PM 1.8 35.24 0.086 7.3 6.98 13.14
1/21/2021 5:15:00 PM 1.75 35.15 0.086 7.29 7.02 13.13
1/21/2021 5:30:00 PM 1.69 35.042 0.087 7.27 6.99 13.12
1/21/2021 5:45:00 PM 1.62 34.916 0.087 7.26 6.84 13.11
1/21/2021 6:00:00 PM 1.56 34.808 0.087 7.25 6.94 13.11
1/21/2021 6:15:00 PM 1.52 34.736 0.087 7.24 6.99 13.11
1/21/2021 6:30:00 PM 1.5 34.7 0.088 7.24 7.09 13.11
1/21/2021 6:45:00 PM 1.48 34.664 0.088 7.23 7.01 13.11
1/21/2021 7:00:00 PM 1.47 34.646 0.088 7.22 6.95 13.11
1/21/2021 7:15:00 PM 1.45 34.61 0.088 7.23 6.98 13.11
1/21/2021 7:30:00 PM 1.44 34.592 0.088 7.22 6.99 13.11
1/21/2021 7:45:00 PM 1.44 34.592 0.088 7.22 6.89 13.1
1/21/2021 8:00:00 PM 1.44 34.592 0.088 7.22 6.91 13.11
1/21/2021 8:15:00 PM 1.44 34.592 0.088 7.22 6.94 13.11
1/21/2021 8:30:00 PM 1.44 34.592 0.089 7.22 6.98 13.11
1/21/2021 8:45:00 PM 1.44 34.592 0.089 7.22 6.75 13.1
1/21/2021 9:00:00 PM 1.44 34.592 0.089 7.21 6.95 13.1
1/21/2021 9:15:00 PM 1.43 34.574 0.089 7.22 7.05 13.1
1/21/2021 9:30:00 PM 1.43 34.574 0.089 7.21 6.97 13.1
1/21/2021 9:45:00 PM 1.41 34.538 0.089 7.22 6.93 13.1
1/21/2021 10:00:00 PM 1.4 34.52 0.089 7.22 6.9 13.11
1/21/2021 10:15:00 PM 1.41 34.538 0.089 7.22 7.03 13.11
1/21/2021 10:30:00 PM 1.41 34.538 0.089 7.22 6.91 13.11
1/21/2021 10:45:00 PM 1.4 34.52 0.089 7.22 6.94 13.11
1/21/2021 11:00:00 PM 1.39 34.502 0.089 7.22 6.93 13.11
1/21/2021 11:15:00 PM 1.38 34.484 0.089 7.22 6.98 13.12
1/21/2021 11:30:00 PM 1.39 34.502 0.089 7.22 7 13.12
1/21/2021 11:45:00 PM 1.39 34.502 0.089 7.22 7.01 13.12
1/22/2021 12:00:00 AM 1.39 34.502 0.089 7.22 6.92 13.12
1/22/2021 12:15:00 AM 1.39 34.502 0.089 7.22 7.03 13.12
1/22/2021 12:30:00 AM 1.37 34.466 0.089 7.22 6.89 13.12
1/22/2021 12:45:00 AM 1.36 34.448 0.089 7.22 7 13.12
1/22/2021 1:00:00 AM 1.35 34.43 0.089 7.22 6.88 13.13
1/22/2021 1:15:00 AM 1.34 34.412 0.089 7.22 6.9 13.13
1/22/2021 1:30:00 AM 1.34 34.412 0.089 7.21 6.83 13.14
1/22/2021 1:45:00 AM 1.33 34.394 0.089 7.22 6.89 13.14
1/22/2021 2:00:00 AM 1.33 34.394 0.089 7.22 6.92 13.14
1/22/2021 2:15:00 AM 1.33 34.394 0.089 7.22 6.94 13.15
1/22/2021 2:30:00 AM 1.33 34.394 0.089 7.21 6.89 13.14
1/22/2021 2:45:00 AM 1.33 34.394 0.089 7.21 6.95 13.15
1/22/2021 3:00:00 AM 1.33 34.394 0.089 7.21 6.85 13.15
1/22/2021 3:15:00 AM 1.33 34.394 0.089 7.22 6.89 13.15
1/22/2021 3:30:00 AM 1.33 34.394 0.089 7.22 6.86 13.15
1/22/2021 3:45:00 AM 1.33 34.394 0.089 7.22 6.87 13.15
1/22/2021 4:00:00 AM 1.33 34.394 0.089 7.22 7.04 13.16
1/22/2021 4:15:00 AM 1.33 34.394 0.089 7.22 6.97 13.15
1/22/2021 4:30:00 AM 1.33 34.394 0.089 7.22 6.95 13.15
1/22/2021 4:45:00 AM 1.33 34.394 0.089 7.22 6.94 13.15
1/22/2021 5:00:00 AM 1.33 34.394 0.089 7.22 7 13.15
1/22/2021 5:15:00 AM 1.34 34.412 0.089 7.22 7.01 13.15
1/22/2021 5:30:00 AM 1.34 34.412 0.089 7.22 6.92 13.15
1/22/2021 5:45:00 AM 1.35 34.43 0.089 7.22 6.93 13.15
1/22/2021 6:00:00 AM 1.35 34.43 0.089 7.22 7 13.15
1/22/2021 6:15:00 AM 1.36 34.448 0.089 7.22 6.91 13.15
1/22/2021 6:30:00 AM 1.36 34.448 0.089 7.22 6.89 13.15
1/22/2021 6:45:00 AM 1.36 34.448 0.089 7.22 6.84 13.15
1/22/2021 7:00:00 AM 1.36 34.448 0.089 7.22 6.95 13.15
1/22/2021 7:15:00 AM 1.35 34.43 0.088 7.22 6.89 13.15
1/22/2021 7:30:00 AM 1.35 34.43 0.089 7.22 6.96 13.16
1/22/2021 7:45:00 AM 1.36 34.448 0.088 7.22 6.84 13.17
1/22/2021 8:00:00 AM 1.36 34.448 0.089 7.22 6.77 13.18
1/22/2021 8:15:00 AM 1.37 34.466 0.089 7.23 6.9 13.21
1/22/2021 8:30:00 AM 1.39 34.502 0.089 7.24 7.13 13.25
1/22/2021 8:45:00 AM 1.4 34.52 0.088 7.25 6.74 13.3
1/22/2021 9:00:00 AM 1.43 34.574 0.088 7.27 6.93 13.34
1/22/2021 9:15:00 AM 1.48 34.664 0.088 7.28 6.85 13.39
1/22/2021 9:30:00 AM 1.53 34.754 0.088 7.29 6.8 13.42
1/22/2021 9:45:00 AM 1.56 34.808 0.088 7.3 6.91 13.43
1/22/2021 10:00:00 AM 1.6 34.88 0.088 7.31 6.83 13.44
1/22/2021 10:15:00 AM 1.65 34.97 0.088 7.32 6.73 13.46
1/22/2021 10:30:00 AM 1.72 35.096 0.088 7.34 6.96 13.46
1/22/2021 10:45:00 AM 1.81 35.258 0.088 7.34 6.86 13.43
1/22/2021 11:00:00 AM 1.86 35.348 0.088 7.35 6.87 13.42
1/22/2021 11:15:00 AM 1.93 35.474 0.088 7.36 6.8 13.41
1/22/2021 11:30:00 AM 1.99 35.582 0.087 7.36 6.89 13.4
1/22/2021 11:45:00 AM 2.05 35.69 0.088 7.37 6.93 13.38
1/22/2021 12:00:00 PM 2.09 35.762 0.087 7.36 6.89 13.35
1/22/2021 12:15:00 PM 2.11 35.798 0.087 7.36 6.91 13.34
1/22/2021 12:30:00 PM 2.12 35.816 0.087 7.37 6.82 13.32
1/22/2021 12:45:00 PM 2.11 35.798 0.087 7.36 6.93 13.3
1/22/2021 1:00:00 PM 2.15 35.87 0.087 7.37 6.93 13.31
1/22/2021 1:15:00 PM 2.19 35.942 0.087 7.37 6.93 13.31
1/22/2021 1:30:00 PM 2.23 36.014 0.087 7.37 6.81 13.31
1/22/2021 1:45:00 PM 2.22 35.996 0.087 7.37 6.86 13.29
1/22/2021 2:00:00 PM 2.22 35.996 0.087 7.37 6.92 13.29
1/22/2021 2:15:00 PM 2.24 36.032 0.087 7.37 6.76 13.29
1/22/2021 2:30:00 PM 2.26 36.068 0.087 7.38 6.84 13.28
1/22/2021 2:45:00 PM 2.25 36.05 0.087 7.37 6.9 13.26
1/22/2021 3:00:00 PM 2.21 35.978 0.087 7.37 6.87 13.27
1/22/2021 3:15:00 PM 2.19 35.942 0.087 7.37 6.85 13.28
1/22/2021 3:30:00 PM 2.16 35.888 0.087 7.36 7.1 13.27
1/22/2021 3:45:00 PM 2.13 35.834 0.087 7.36 7.03 13.26
1/22/2021 4:00:00 PM 2.1 35.78 0.087 7.35 6.94 13.25
1/22/2021 4:15:00 PM 2.06 35.708 0.087 7.34 6.85 13.24
1/22/2021 4:30:00 PM 2.04 35.672 0.087 7.33 6.87 13.23
1/22/2021 4:45:00 PM 2.01 35.618 0.087 7.32 6.96 13.22
1/22/2021 5:00:00 PM 1.97 35.546 0.087 7.31 6.85 13.2
1/22/2021 5:15:00 PM 1.93 35.474 0.087 7.3 6.95 13.17
1/22/2021 5:30:00 PM 1.9 35.42 0.087 7.29 6.88 13.15
1/22/2021 5:45:00 PM 1.85 35.33 0.087 7.27 6.88 13.13
1/22/2021 6:00:00 PM 1.8 35.24 0.087 7.26 7 13.13
1/22/2021 6:15:00 PM 1.76 35.168 0.087 7.26 6.88 13.12
1/22/2021 6:30:00 PM 1.72 35.096 0.087 7.25 6.98 13.13
1/22/2021 6:45:00 PM 1.67 35.006 0.088 7.24 7.01 13.14
1/22/2021 7:00:00 PM 1.64 34.952 0.088 7.23 7.04 13.15
1/22/2021 7:15:00 PM 1.59 34.862 0.088 7.23 6.94 13.16
1/22/2021 7:30:00 PM 1.55 34.79 0.088 7.23 6.92 13.18
1/22/2021 7:45:00 PM 1.5 34.7 0.088 7.22 6.94 13.19
1/22/2021 8:00:00 PM 1.46 34.628 0.088 7.22 6.97 13.21
1/22/2021 8:15:00 PM 1.41 34.538 0.088 7.22 6.92 13.22
1/22/2021 8:30:00 PM 1.36 34.448 0.088 7.21 7.02 13.24
1/22/2021 8:45:00 PM 1.34 34.412 0.088 7.21 6.96 13.25
1/22/2021 9:00:00 PM 1.31 34.358 0.088 7.21 6.92 13.27
1/22/2021 9:15:00 PM 1.26 34.268 0.089 7.21 6.96 13.28
1/22/2021 9:30:00 PM 1.22 34.196 0.089 7.2 6.88 13.31
1/22/2021 9:45:00 PM 1.19 34.142 0.089 7.2 6.86 13.32
1/22/2021 10:00:00 PM 1.15 34.07 0.089 7.2 7.06 13.33
1/22/2021 10:15:00 PM 1.12 34.016 0.089 7.2 6.91 13.35
1/22/2021 10:30:00 PM 1.09 33.962 0.089 7.2 6.89 13.36
1/22/2021 10:45:00 PM 1.05 33.89 0.089 7.2 7.1 13.38
1/22/2021 11:00:00 PM 1.02 33.836 0.089 7.2 6.93 13.39
1/22/2021 11:15:00 PM 0.99 33.782 0.089 7.2 6.95 13.4
1/22/2021 11:30:00 PM 0.94 33.692 0.089 7.2 6.93 13.42
1/22/2021 11:45:00 PM 0.92 33.656 0.089 7.2 7.05 13.43
1/23/2021 12:00:00 AM 0.88 33.584 0.089 7.2 6.91 13.44
1/23/2021 12:15:00 AM 0.85 33.53 0.089 7.2 7.03 13.46
1/23/2021 12:30:00 AM 0.82 33.476 0.089 7.2 6.94 13.47
1/23/2021 12:45:00 AM 0.79 33.422 0.089 7.2 6.91 13.48
1/23/2021 1:00:00 AM 0.76 33.368 0.089 7.2 6.91 13.49
1/23/2021 1:15:00 AM 0.73 33.314 0.089 7.2 6.92 13.51
1/23/2021 1:30:00 AM 0.67 33.206 0.089 7.2 6.96 13.53
1/23/2021 1:45:00 AM 0.64 33.152 0.089 7.2 7.06 13.54
1/23/2021 2:00:00 AM 0.62 33.116 0.089 7.2 6.97 13.56
1/23/2021 2:15:00 AM 0.59 33.062 0.089 7.2 7.02 13.57
1/23/2021 2:30:00 AM 0.57 33.026 0.089 7.2 6.94 13.59
1/23/2021 2:45:00 AM 0.55 32.99 0.09 7.2 7.01 13.6
1/23/2021 3:00:00 AM 0.52 32.936 0.089 7.2 6.94 13.61
1/23/2021 3:15:00 AM 0.49 32.882 0.089 7.2 6.97 13.63
1/23/2021 3:30:00 AM 0.44 32.792 0.089 7.2 6.92 13.64
1/23/2021 3:45:00 AM 0.42 32.756 0.089 7.2 6.93 13.65
1/23/2021 4:00:00 AM 0.39 32.702 0.089 7.2 6.96 13.66
1/23/2021 4:15:00 AM 0.36 32.648 0.089 7.2 6.95 13.68
1/23/2021 4:30:00 AM 0.33 32.594 0.089 7.2 6.97 13.69
1/23/2021 4:45:00 AM 0.3 32.54 0.089 7.2 7.03 13.7
1/23/2021 5:00:00 AM 0.27 32.486 0.089 7.2 6.94 13.72
1/23/2021 5:15:00 AM 0.25 32.45 0.089 7.2 6.94 13.72
1/23/2021 5:30:00 AM 0.23 32.414 0.089 7.2 7.08 13.74
1/23/2021 5:45:00 AM 0.21 32.378 0.089 7.2 7.16 13.75
1/23/2021 6:00:00 AM 0.2 32.36 0.089 7.2 6.93 13.75
1/23/2021 6:15:00 AM 0.19 32.342 0.089 7.2 7 13.76
1/23/2021 6:30:00 AM 0.17 32.306 0.089 7.2 6.92 13.77
1/23/2021 6:45:00 AM 0.15 32.27 0.089 7.2 6.95 13.78
1/23/2021 7:00:00 AM 0.14 32.252 0.089 7.2 6.88 13.79
1/23/2021 7:15:00 AM 0.14 32.252 0.089 7.2 7.05 13.8
1/23/2021 7:30:00 AM 0.13 32.234 0.089 7.2 6.85 13.8
1/23/2021 7:45:00 AM 0.12 32.216 0.089 7.2 6.98 13.82
1/23/2021 8:00:00 AM 0.11 32.198 0.089 7.21 7.06 13.84
1/23/2021 8:15:00 AM 0.1 32.18 0.089 7.22 6.93 13.87
1/23/2021 8:30:00 AM 0.09 32.162 0.089 7.23 7.07 13.92
1/23/2021 8:45:00 AM 0.08 32.144 0.089 7.23 7.08 13.98
1/23/2021 9:00:00 AM 0.09 32.162 0.089 7.25 7 14.05
1/23/2021 9:15:00 AM 0.1 32.18 0.089 7.27 6.91 14.09
1/23/2021 9:30:00 AM 0.12 32.216 0.089 7.28 6.97 14.14
1/23/2021 9:45:00 AM 0.14 32.252 0.089 7.29 7.02 14.16
1/23/2021 10:00:00 AM 0.17 32.306 0.089 7.3 6.96 14.19
1/23/2021 10:15:00 AM 0.2 32.36 0.088 7.31 7.1 14.2
1/23/2021 10:30:00 AM 0.24 32.432 0.088 7.32 6.97 14.21
1/23/2021 10:45:00 AM 0.3 32.54 0.088 7.32 6.99 14.2
1/23/2021 11:00:00 AM 0.35 32.63 0.088 7.33 6.99 14.2
1/23/2021 11:15:00 AM 0.4 32.72 0.088 7.34 7.02 14.18
1/23/2021 11:30:00 AM 0.43 32.774 0.088 7.34 6.84 14.17
1/23/2021 11:45:00 AM 0.47 32.846 0.088 7.34 6.95 14.16
1/23/2021 12:00:00 PM 0.51 32.918 0.088 7.35 6.96 14.14
1/23/2021 12:15:00 PM 0.56 33.008 0.088 7.35 6.9 14.12
1/23/2021 12:30:00 PM 0.6 33.08 0.088 7.35 6.89 14.1
1/23/2021 12:45:00 PM 0.66 33.188 0.088 7.36 6.9 14.09
1/23/2021 1:00:00 PM 0.7 33.26 0.088 7.36 6.91 14.07
1/23/2021 1:15:00 PM 0.74 33.332 0.088 7.36 6.89 14.06
1/23/2021 1:30:00 PM 0.8 33.44 0.088 7.37 6.86 14.03
1/23/2021 1:45:00 PM 0.84 33.512 0.087 7.37 6.86 14.02
1/23/2021 2:00:00 PM 0.89 33.602 0.087 7.37 6.87 14
1/23/2021 2:15:00 PM 0.94 33.692 0.087 7.37 6.8 13.98
1/23/2021 2:30:00 PM 0.97 33.746 0.087 7.37 6.93 13.96
1/23/2021 2:45:00 PM 1 33.8 0.087 7.37 6.88 13.94
1/23/2021 3:00:00 PM 1.03 33.854 0.087 7.37 6.83 13.93
1/23/2021 3:15:00 PM 1.03 33.854 0.087 7.37 6.86 13.92
1/23/2021 3:30:00 PM 1.04 33.872 0.087 7.37 6.93 13.91
1/23/2021 3:45:00 PM 1.02 33.836 0.087 7.37 6.83 13.89
1/23/2021 4:00:00 PM 0.99 33.782 0.087 7.36 6.92 13.89
1/23/2021 4:15:00 PM 0.96 33.728 0.087 7.36 6.89 13.89
1/23/2021 4:30:00 PM 0.91 33.638 0.087 7.35 6.83 13.88
1/23/2021 4:45:00 PM 0.85 33.53 0.087 7.33 6.85 13.86
1/23/2021 5:00:00 PM 0.81 33.458 0.087 7.33 6.92 13.84
1/23/2021 5:15:00 PM 0.76 33.368 0.087 7.31 6.81 13.82
1/23/2021 5:30:00 PM 0.72 33.296 0.087 7.3 6.78 13.79
1/23/2021 5:45:00 PM 0.68 33.224 0.087 7.28 6.9 13.76
1/23/2021 6:00:00 PM 0.63 33.134 0.087 7.27 6.85 13.76
1/23/2021 6:15:00 PM 0.59 33.062 0.087 7.26 6.9 13.75
1/23/2021 6:30:00 PM 0.55 32.99 0.088 7.25 6.9 13.75
1/23/2021 6:45:00 PM 0.52 32.936 0.088 7.24 7.04 13.75
1/23/2021 7:00:00 PM 0.5 32.9 0.088 7.24 6.95 13.75
1/23/2021 7:15:00 PM 0.48 32.864 0.088 7.23 7.02 13.76
1/23/2021 7:30:00 PM 0.45 32.81 0.088 7.23 6.97 13.76
1/23/2021 7:45:00 PM 0.42 32.756 0.088 7.22 6.8 13.77
1/23/2021 8:00:00 PM 0.4 32.72 0.088 7.23 6.87 13.78
1/23/2021 8:15:00 PM 0.38 32.684 0.088 7.22 6.9 13.79
1/23/2021 8:30:00 PM 0.36 32.648 0.089 7.22 6.87 13.8
1/23/2021 8:45:00 PM 0.34 32.612 0.089 7.22 6.93 13.8
1/23/2021 9:00:00 PM 0.31 32.558 0.089 7.22 7.08 13.81
1/23/2021 9:15:00 PM 0.29 32.522 0.089 7.22 7.08 13.82
1/23/2021 9:30:00 PM 0.27 32.486 0.089 7.22 6.99 13.83
1/23/2021 9:45:00 PM 0.25 32.45 0.089 7.22 7 13.84
1/23/2021 10:00:00 PM 0.22 32.396 0.089 7.22 6.92 13.84
1/23/2021 10:15:00 PM 0.18 32.324 0.089 7.21 7.03 13.86
1/23/2021 10:30:00 PM 0.15 32.27 0.089 7.22 6.93 13.87
1/23/2021 10:45:00 PM 0.11 32.198 0.089 7.21 6.83 13.88
1/23/2021 11:00:00 PM 0.09 32.162 0.089 7.21 6.86 13.89
1/23/2021 11:15:00 PM 0.06 32.108 0.089 7.21 7.01 13.91
1/23/2021 11:30:00 PM 0.03 32.054 0.089 7.21 7 13.92
1/23/2021 11:45:00 PM 0 32 0.089 7.21 6.93 13.93
1/24/2021 12:00:00 AM -0.02 31.964 0.089 7.21 6.91 13.94
1/24/2021 12:15:00 AM -0.04 31.928 0.09 7.2 6.86 13.95
1/24/2021 12:30:00 AM -0.06 31.892 0.09 7.2 6.93 13.96
1/24/2021 12:45:00 AM -0.09 31.838 0.09 7.21 6.92 13.97
1/24/2021 1:00:00 AM -0.09 31.838 0.09 7.2 7.01 13.98
1/24/2021 1:15:00 AM -0.1 31.82 0.09 7.2 6.83 13.98
1/24/2021 1:30:00 AM -0.1 31.82 0.09 7.2 7.13 13.99
1/24/2021 1:45:00 AM -0.09 31.838 0.09 7.2 7.3 13.99
1/24/2021 2:00:00 AM -0.09 31.838 0.09 7.2 7.44 13.99
1/24/2021 2:15:00 AM -0.09 31.838 0.09 7.2 7.6 13.99
1/24/2021 2:30:00 AM -0.09 31.838 0.09 7.21 7.65 14
1/24/2021 2:45:00 AM -0.09 31.838 0.09 7.2 7.73 13.99
1/24/2021 3:00:00 AM -0.09 31.838 0.09 7.21 7.69 13.99
1/24/2021 3:15:00 AM -0.09 31.838 0.091 7.21 7.77 13.99
1/24/2021 3:30:00 AM -0.09 31.838 0.091 7.21 7.53 13.99
1/24/2021 3:45:00 AM -0.08 31.856 0.09 7.2 7.38 13.99
1/24/2021 4:00:00 AM -0.08 31.856 0.09 7.21 7.23 13.99
1/24/2021 4:15:00 AM -0.08 31.856 0.09 7.2 7.02 13.98
1/24/2021 4:30:00 AM -0.08 31.856 0.09 7.21 7.02 13.97
1/24/2021 4:45:00 AM -0.08 31.856 0.09 7.2 6.92 13.98
1/24/2021 5:00:00 AM -0.08 31.856 0.09 7.21 6.83 13.97
1/24/2021 5:15:00 AM -0.08 31.856 0.09 7.21 6.97 13.97
1/24/2021 5:30:00 AM -0.08 31.856 0.09 7.2 6.98 13.97
1/24/2021 5:45:00 AM -0.08 31.856 0.09 7.2 6.91 13.96
1/24/2021 6:00:00 AM -0.08 31.856 0.09 7.2 6.9 13.96
1/24/2021 6:15:00 AM -0.08 31.856 0.09 7.2 6.88 13.96
1/24/2021 6:30:00 AM -0.08 31.856 0.09 7.2 7.01 13.96
1/24/2021 6:45:00 AM -0.08 31.856 0.09 7.19 7.08 13.96
1/24/2021 7:00:00 AM -0.08 31.856 0.09 7.2 7.03 13.96
1/24/2021 7:15:00 AM -0.08 31.856 0.09 7.2 7.01 13.96
1/24/2021 7:30:00 AM -0.08 31.856 0.09 7.2 6.93 13.96
1/24/2021 7:45:00 AM -0.08 31.856 0.09 7.2 7.03 13.98
1/24/2021 8:00:00 AM -0.08 31.856 0.09 7.21 7 14.01
1/24/2021 8:15:00 AM -0.08 31.856 0.09 7.22 6.88 14.05
1/24/2021 8:30:00 AM -0.08 31.856 0.09 7.23 6.98 14.1
1/24/2021 8:45:00 AM -0.08 31.856 0.09 7.24 6.98 14.15
1/24/2021 9:00:00 AM -0.08 31.856 0.09 7.25 6.98 14.19
1/24/2021 9:15:00 AM -0.08 31.856 0.09 7.26 7 14.22
1/24/2021 9:30:00 AM -0.08 31.856 0.09 7.27 6.9 14.25
1/24/2021 9:45:00 AM -0.08 31.856 0.09 7.27 6.91 14.28
1/24/2021 10:00:00 AM -0.07 31.874 0.089 7.28 7.05 14.3
1/24/2021 10:15:00 AM -0.05 31.91 0.089 7.29 7.1 14.31
1/24/2021 10:30:00 AM -0.04 31.928 0.089 7.3 7.1 14.31
1/24/2021 10:45:00 AM -0.02 31.964 0.089 7.31 6.99 14.31
1/24/2021 11:00:00 AM -0.01 31.982 0.089 7.31 7.46 14.3
1/24/2021 11:15:00 AM 0.02 32.036 0.089 7.32 7.25 14.28
1/24/2021 11:30:00 AM 0.07 32.126 0.088 7.32 7.31 14.26
1/24/2021 11:45:00 AM 0.16 32.288 0.088 7.32 7.39 14.23
1/24/2021 12:00:00 PM 0.25 32.45 0.088 7.33 7.24 14.19
1/24/2021 12:15:00 PM 0.42 32.756 0.088 7.34 7.08 14.15
1/24/2021 12:30:00 PM 0.57 33.026 0.088 7.34 6.98 14.1
1/24/2021 12:45:00 PM 0.67 33.206 0.088 7.36 6.96 14.06
1/24/2021 1:00:00 PM 0.74 33.332 0.088 7.36 7.19 14.04
1/24/2021 1:15:00 PM 0.81 33.458 0.088 7.36 7.01 14.01
1/24/2021 1:30:00 PM 0.88 33.584 0.088 7.36 6.91 13.99
1/24/2021 1:45:00 PM 0.94 33.692 0.088 7.37 7.03 13.97
1/24/2021 2:00:00 PM 0.98 33.764 0.088 7.37 7.03 13.96
1/24/2021 2:15:00 PM 1.02 33.836 0.088 7.38 6.94 13.93
1/24/2021 2:30:00 PM 1.06 33.908 0.088 7.38 6.89 13.92
1/24/2021 2:45:00 PM 1.08 33.944 0.088 7.38 6.94 13.9
1/24/2021 3:00:00 PM 1.1 33.98 0.087 7.38 6.88 13.89
1/24/2021 3:15:00 PM 1.13 34.034 0.087 7.38 6.99 13.88
1/24/2021 3:30:00 PM 1.13 34.034 0.087 7.38 6.93 13.86
1/24/2021 3:45:00 PM 1.14 34.052 0.087 7.38 7.01 13.85
1/24/2021 4:00:00 PM 1.13 34.034 0.087 7.37 7.06 13.84
1/24/2021 4:15:00 PM 1.12 34.016 0.087 7.37 7.02 13.82
1/24/2021 4:30:00 PM 1.1 33.98 0.087 7.36 7.04 13.82
1/24/2021 4:45:00 PM 1.07 33.926 0.087 7.36 7.04 13.79
1/24/2021 5:00:00 PM 1.03 33.854 0.087 7.34 7.07 13.75
1/24/2021 5:15:00 PM 0.99 33.782 0.087 7.32 7.04 13.72
1/24/2021 5:30:00 PM 0.95 33.71 0.087 7.3 7.07 13.69
1/24/2021 5:45:00 PM 0.91 33.638 0.087 7.29 7.04 13.66
1/24/2021 6:00:00 PM 0.88 33.584 0.087 7.28 7.12 13.64
1/24/2021 6:15:00 PM 0.84 33.512 0.087 7.27 7.06 13.63
1/24/2021 6:30:00 PM 0.8 33.44 0.087 7.26 6.93 13.63
1/24/2021 6:45:00 PM 0.77 33.386 0.087 7.25 6.91 13.62
1/24/2021 7:00:00 PM 0.73 33.314 0.087 7.24 7.01 13.63
1/24/2021 7:15:00 PM 0.71 33.278 0.088 7.23 6.96 13.63
1/24/2021 7:30:00 PM 0.68 33.224 0.088 7.23 6.94 13.64
1/24/2021 7:45:00 PM 0.65 33.17 0.088 7.23 6.99 13.64
1/24/2021 8:00:00 PM 0.62 33.116 0.088 7.22 6.97 13.65
1/24/2021 8:15:00 PM 0.59 33.062 0.088 7.22 6.97 13.66
1/24/2021 8:30:00 PM 0.57 33.026 0.088 7.22 7.07 13.67
1/24/2021 8:45:00 PM 0.55 32.99 0.088 7.22 6.97 13.67
1/24/2021 9:00:00 PM 0.53 32.954 0.088 7.22 7.02 13.68
1/24/2021 9:15:00 PM 0.52 32.936 0.088 7.22 6.95 13.68
1/24/2021 9:30:00 PM 0.51 32.918 0.088 7.22 6.93 13.69
1/24/2021 9:45:00 PM 0.49 32.882 0.088 7.22 6.92 13.69
1/24/2021 10:00:00 PM 0.48 32.864 0.088 7.22 6.95 13.7
1/24/2021 10:15:00 PM 0.47 32.846 0.088 7.21 6.96 13.7
1/24/2021 10:30:00 PM 0.46 32.828 0.088 7.22 6.96 13.7
1/24/2021 10:45:00 PM 0.45 32.81 0.088 7.22 6.89 13.7
1/24/2021 11:00:00 PM 0.44 32.792 0.089 7.22 6.88 13.71
1/24/2021 11:15:00 PM 0.43 32.774 0.088 7.22 6.89 13.71
1/24/2021 11:30:00 PM 0.42 32.756 0.088 7.21 7.03 13.71
1/24/2021 11:45:00 PM 0.41 32.738 0.088 7.21 7.04 13.72
1/25/2021 12:00:00 AM 0.4 32.72 0.089 7.21 6.97 13.72
1/25/2021 12:15:00 AM 0.38 32.684 0.088 7.21 6.95 13.72
1/25/2021 12:30:00 AM 0.35 32.63 0.088 7.21 7.04 13.73
1/25/2021 12:45:00 AM 0.3 32.54 0.088 7.22 7.02 13.74
1/25/2021 1:00:00 AM 0.26 32.468 0.088 7.21 7 13.76
1/25/2021 1:15:00 AM 0.21 32.378 0.088 7.21 6.9 13.77
1/25/2021 1:30:00 AM 0.16 32.288 0.089 7.2 6.92 13.79
1/25/2021 1:45:00 AM 0.12 32.216 0.089 7.21 6.94 13.8
1/25/2021 2:00:00 AM 0.07 32.126 0.089 7.2 7.03 13.82
1/25/2021 2:15:00 AM 0.02 32.036 0.089 7.2 6.86 13.84
1/25/2021 2:30:00 AM -0.02 31.964 0.089 7.2 6.93 13.86
1/25/2021 2:45:00 AM -0.06 31.892 0.089 7.19 6.97 13.87
1/25/2021 3:00:00 AM -0.08 31.856 0.089 7.2 6.93 13.89
1/25/2021 3:15:00 AM -0.1 31.82 0.089 7.2 6.94 13.9
1/25/2021 3:30:00 AM -0.11 31.802 0.089 7.2 6.87 13.91
1/25/2021 3:45:00 AM -0.11 31.802 0.089 7.2 7.11 13.91
1/25/2021 4:00:00 AM -0.1 31.82 0.089 7.2 7.09 13.92
1/25/2021 4:15:00 AM -0.09 31.838 0.089 7.2 7.17 13.92
1/25/2021 4:30:00 AM -0.09 31.838 0.09 7.2 7 13.92
1/25/2021 4:45:00 AM -0.09 31.838 0.089 7.2 7.16 13.92
1/25/2021 5:00:00 AM -0.09 31.838 0.089 7.2 6.87 13.92
1/25/2021 5:15:00 AM -0.09 31.838 0.09 7.19 7.08 13.92
1/25/2021 5:30:00 AM -0.09 31.838 0.093 7.19 6.91 13.92
1/25/2021 5:45:00 AM -0.09 31.838 0.09 7.2 6.93 13.91
1/25/2021 6:00:00 AM -0.09 31.838 0.09 7.19 6.95 13.91
1/25/2021 6:15:00 AM -0.09 31.838 0.09 7.2 6.93 13.91
1/25/2021 6:30:00 AM -0.09 31.838 0.09 7.19 6.94 13.91
1/25/2021 6:45:00 AM -0.09 31.838 0.09 7.19 6.94 13.9
1/25/2021 7:00:00 AM -0.09 31.838 0.09 7.19 7.03 13.89
1/25/2021 7:15:00 AM -0.09 31.838 0.09 7.18 6.77 13.89
1/25/2021 7:30:00 AM -0.08 31.856 0.09 7.18 6.78 13.88
1/25/2021 7:45:00 AM -0.08 31.856 0.09 7.18 6.87 13.89
1/25/2021 8:00:00 AM -0.08 31.856 0.091 7.18 6.9 13.91
1/25/2021 8:15:00 AM -0.08 31.856 0.091 7.19 7.1 13.95
1/25/2021 8:30:00 AM -0.08 31.856 0.09 7.2 7.12 13.99
1/25/2021 8:45:00 AM -0.08 31.856 0.09 7.21 7.24 14.04
1/25/2021 9:00:00 AM -0.07 31.874 0.09 7.23 7.03 14.09
1/25/2021 9:15:00 AM -0.07 31.874 0.09 7.23 7.13 14.14
1/25/2021 9:30:00 AM -0.07 31.874 0.09 7.24 7.06 14.17
1/25/2021 9:45:00 AM -0.07 31.874 0.089 7.26 7.33 14.2
1/25/2021 10:00:00 AM -0.07 31.874 0.089 7.27 7 14.22
1/25/2021 10:15:00 AM -0.06 31.892 0.088 7.27 7.04 14.23
1/25/2021 10:30:00 AM -0.05 31.91 0.088 7.27 7.25 14.25
1/25/2021 10:45:00 AM -0.05 31.91 0.087 7.3 7.2 14.27
1/25/2021 11:00:00 AM -0.04 31.928 0.087 7.3 7.3 14.27
1/25/2021 11:15:00 AM -0.03 31.946 0.087 7.31 7.23 14.26
1/25/2021 11:30:00 AM -0.02 31.964 0.086 7.31 7.15 14.25
1/25/2021 11:45:00 AM 0.01 32.018 0.086 7.32 7.31 14.25
1/25/2021 12:00:00 PM 0.05 32.09 0.086 7.33 7.34 14.24
1/25/2021 12:15:00 PM 0.13 32.234 0.087 7.33 7.16 14.2
1/25/2021 12:30:00 PM 0.2 32.36 0.087 7.33 7.28 14.17
1/25/2021 12:45:00 PM 0.28 32.504 0.088 7.35 7.13 14.14
1/25/2021 1:00:00 PM 0.39 32.702 0.088 7.35 7.16 14.11
1/25/2021 1:15:00 PM 0.48 32.864 0.088 7.36 7.02 14.09
1/25/2021 1:30:00 PM 0.57 33.026 0.088 7.37 7.14 14.06
1/25/2021 1:45:00 PM 0.65 33.17 0.088 7.37 7.03 14.04
1/25/2021 2:00:00 PM 0.71 33.278 0.088 7.37 7.04 14.02
1/25/2021 2:15:00 PM 0.79 33.422 0.088 7.38 6.96 14
1/25/2021 2:30:00 PM 0.86 33.548 0.088 7.38 6.96 13.98
1/25/2021 2:45:00 PM 0.91 33.638 0.088 7.39 7.14 13.95
1/25/2021 3:00:00 PM 0.98 33.764 0.088 7.39 6.91 13.92
1/25/2021 3:15:00 PM 1.03 33.854 0.088 7.39 6.96 13.9
1/25/2021 3:30:00 PM 1.06 33.908 0.087 7.39 6.92 13.88
1/25/2021 3:45:00 PM 1.09 33.962 0.087 7.39 6.96 13.86
1/25/2021 4:00:00 PM 1.11 33.998 0.086 7.38 7.03 13.83
1/25/2021 4:15:00 PM 1.11 33.998 0.087 7.38 6.9 13.8
1/25/2021 4:30:00 PM 1.11 33.998 0.086 7.37 6.91 13.78
1/25/2021 4:45:00 PM 1.1 33.98 0.086 7.36 6.92 13.75
1/25/2021 5:00:00 PM 1.09 33.962 0.086 7.34 7 13.7
1/25/2021 5:15:00 PM 1.07 33.926 0.086 7.32 7.08 13.66
1/25/2021 5:30:00 PM 1.03 33.854 0.086 7.3 6.95 13.62
1/25/2021 5:45:00 PM 1.01 33.818 0.087 7.3 7 13.59
1/25/2021 6:00:00 PM 0.98 33.764 0.087 7.29 7.03 13.57
1/25/2021 6:15:00 PM 0.95 33.71 0.087 7.27 6.81 13.55
1/25/2021 6:30:00 PM 0.93 33.674 0.087 7.27 6.97 13.54
1/25/2021 6:45:00 PM 0.9 33.62 0.087 7.25 7.04 13.54
1/25/2021 7:00:00 PM 0.88 33.584 0.088 7.25 7 13.53
1/25/2021 7:15:00 PM 0.86 33.548 0.088 7.24 6.96 13.53
1/25/2021 7:30:00 PM 0.85 33.53 0.088 7.24 6.91 13.53
1/25/2021 7:45:00 PM 0.83 33.494 0.088 7.24 6.96 13.53
1/25/2021 8:00:00 PM 0.82 33.476 0.088 7.24 6.98 13.53
1/25/2021 8:15:00 PM 0.81 33.458 0.088 7.23 7.03 13.53
1/25/2021 8:30:00 PM 0.8 33.44 0.088 7.23 7.06 13.54
1/25/2021 8:45:00 PM 0.8 33.44 0.088 7.23 6.99 13.53
1/25/2021 9:00:00 PM 0.79 33.422 0.088 7.22 7 13.54
1/25/2021 9:15:00 PM 0.78 33.404 0.088 7.22 6.92 13.54
1/25/2021 9:30:00 PM 0.78 33.404 0.088 7.22 6.99 13.54
1/25/2021 9:45:00 PM 0.77 33.386 0.088 7.22 7.01 13.54
1/25/2021 10:00:00 PM 0.77 33.386 0.088 7.22 6.99 13.54
1/25/2021 10:15:00 PM 0.77 33.386 0.088 7.22 7 13.54
1/25/2021 10:30:00 PM 0.77 33.386 0.088 7.22 6.95 13.54
1/25/2021 10:45:00 PM 0.77 33.386 0.088 7.22 7.03 13.54
1/25/2021 11:00:00 PM 0.76 33.368 0.088 7.22 7.05 13.54
1/25/2021 11:15:00 PM 0.76 33.368 0.088 7.22 6.99 13.54
1/25/2021 11:30:00 PM 0.76 33.368 0.088 7.22 6.97 13.53
1/25/2021 11:45:00 PM 0.76 33.368 0.088 7.22 6.97 13.53
1/26/2021 12:00:00 AM 0.76 33.368 0.088 7.22 6.86 13.53
1/26/2021 12:15:00 AM 0.77 33.386 0.088 7.22 6.98 13.53
1/26/2021 12:30:00 AM 0.77 33.386 0.088 7.22 6.91 13.53
1/26/2021 12:45:00 AM 0.77 33.386 0.088 7.22 6.97 13.53
1/26/2021 1:00:00 AM 0.77 33.386 0.088 7.22 7.01 13.52
1/26/2021 1:15:00 AM 0.78 33.404 0.088 7.22 7.09 13.52
1/26/2021 1:30:00 AM 0.78 33.404 0.088 7.22 7.05 13.52
1/26/2021 1:45:00 AM 0.78 33.404 0.088 7.22 7.1 13.51
1/26/2021 2:00:00 AM 0.78 33.404 0.088 7.22 6.82 13.51
1/26/2021 2:15:00 AM 0.78 33.404 0.088 7.22 6.76 13.51
1/26/2021 2:30:00 AM 0.78 33.404 0.088 7.22 6.81 13.51
1/26/2021 2:45:00 AM 0.78 33.404 0.088 7.22 7.01 13.5
1/26/2021 3:00:00 AM 0.78 33.404 0.088 7.22 6.89 13.5
1/26/2021 3:15:00 AM 0.78 33.404 0.088 7.22 6.84 13.5
1/26/2021 3:30:00 AM 0.77 33.386 0.088 7.22 6.93 13.5
1/26/2021 3:45:00 AM 0.78 33.404 0.088 7.22 6.84 13.5
1/26/2021 4:00:00 AM 0.77 33.386 0.088 7.22 6.71 13.49
1/26/2021 4:15:00 AM 0.76 33.368 0.088 7.22 6.78 13.49
1/26/2021 4:30:00 AM 0.75 33.35 0.088 7.22 6.89 13.49
1/26/2021 4:45:00 AM 0.73 33.314 0.088 7.22 6.84 13.49
1/26/2021 5:00:00 AM 0.72 33.296 0.088 7.22 6.88 13.49
1/26/2021 5:15:00 AM 0.71 33.278 0.088 7.22 6.87 13.49
1/26/2021 5:30:00 AM 0.71 33.278 0.088 7.22 6.81 13.5
1/26/2021 5:45:00 AM 0.7 33.26 0.088 7.22 6.93 13.5
1/26/2021 6:00:00 AM 0.7 33.26 0.088 7.22 6.78 13.5
1/26/2021 6:15:00 AM 0.69 33.242 0.088 7.22 6.71 13.5
1/26/2021 6:30:00 AM 0.68 33.224 0.088 7.22 6.85 13.5
1/26/2021 6:45:00 AM 0.68 33.224 0.088 7.22 6.85 13.5
1/26/2021 7:00:00 AM 0.68 33.224 0.088 7.22 6.86 13.5
1/26/2021 7:15:00 AM 0.68 33.224 0.088 7.22 6.77 13.5
1/26/2021 7:30:00 AM 0.67 33.206 0.088 7.22 6.89 13.5
1/26/2021 7:45:00 AM 0.53 32.954 0.088 7.22 6.82 13.51
1/26/2021 8:00:00 AM 0.5 32.9 0.088 7.22 6.88 13.53
1/26/2021 8:15:00 AM 0.4 32.72 0.088 7.22 6.96 13.56
1/26/2021 8:30:00 AM 0.26 32.468 0.088 7.22 6.7 13.61
1/26/2021 8:45:00 AM 0.25 32.45 0.088 7.22 6.85 13.66
1/26/2021 9:00:00 AM 0.25 32.45 0.088 7.22 6.89 13.71
1/26/2021 9:15:00 AM 0.22 32.396 0.087 7.23 6.95 13.75
1/26/2021 9:30:00 AM 0.21 32.378 0.087 7.24 6.89 13.79
1/26/2021 9:45:00 AM 0.13 32.234 0.087 7.25 6.95 13.84
1/26/2021 10:00:00 AM 0.13 32.234 0.087 7.25 7.1 13.87
1/26/2021 10:15:00 AM 0.03 32.054 0.087 7.26 6.95 13.92
1/26/2021 10:30:00 AM 0.03 32.054 0.087 7.26 7.04 13.94
1/26/2021 10:45:00 AM -0.02 31.964 0.087 7.27 7.07 13.97
1/26/2021 11:00:00 AM 0.02 32.036 0.087 7.28 6.98 14.01
1/26/2021 11:15:00 AM 0.06 32.108 0.087 7.29 6.91 14.02
1/26/2021 11:30:00 AM 0.09 32.162 0.086 7.29 6.7 14.04
1/26/2021 11:45:00 AM 0.12 32.216 0.092 7.29 7.33 14.03
1/26/2021 12:00:00 PM 0.11 32.198 0.086 7.29 7.78 14.02
1/26/2021 12:15:00 PM 0.11 32.198 0.085 7.29 7.14 14.03
1/26/2021 12:30:00 PM 0.15 32.27 0.086 7.3 7.09 14.03
1/26/2021 12:45:00 PM 0.14 32.252 0.086 7.3 6.99 14.04
1/26/2021 1:00:00 PM 0.15 32.27 0.086 7.31 6.79 14.03
1/26/2021 1:15:00 PM 0.17 32.306 0.086 7.32 6.82 14.03
1/26/2021 1:30:00 PM 0.16 32.288 0.086 7.32 6.86 14.01
1/26/2021 1:45:00 PM 0.18 32.324 0.086 7.31 6.83 14.01
1/26/2021 2:00:00 PM 0.23 32.414 0.085 7.32 6.89 14.01
1/26/2021 2:15:00 PM 0.27 32.486 0.085 7.32 6.7 14
1/26/2021 2:30:00 PM 0.31 32.558 0.085 7.33 6.76 13.98
1/26/2021 2:45:00 PM 0.37 32.666 0.088 7.33 6.84 13.96
1/26/2021 3:00:00 PM 0.41 32.738 0.088 7.33 6.78 13.93
1/26/2021 3:15:00 PM 0.45 32.81 0.085 7.32 6.7 13.89
1/26/2021 3:30:00 PM 0.49 32.882 0.085 7.32 6.71 13.85
1/26/2021 3:45:00 PM 0.52 32.936 0.085 7.31 6.81 13.82
1/26/2021 4:00:00 PM 0.55 32.99 0.086 7.31 6.73 13.79
1/26/2021 4:15:00 PM 0.58 33.044 0.086 7.31 6.75 13.75
1/26/2021 4:30:00 PM 0.6 33.08 0.086 7.3 6.72 13.72
1/26/2021 4:45:00 PM 0.62 33.116 0.086 7.29 6.68 13.68
1/26/2021 5:00:00 PM 0.64 33.152 0.086 7.29 6.68 13.65
1/26/2021 5:15:00 PM 0.65 33.17 0.086 7.28 6.67 13.61
1/26/2021 5:30:00 PM 0.66 33.188 0.086 7.27 6.73 13.58
1/26/2021 5:45:00 PM 0.67 33.206 0.086 7.26 6.82 13.55
1/26/2021 6:00:00 PM 0.69 33.242 0.086 7.26 6.71 13.53
1/26/2021 6:15:00 PM 0.71 33.278 0.086 7.25 6.67 13.51
1/26/2021 6:30:00 PM 0.73 33.314 0.086 7.25 6.78 13.49
1/26/2021 6:45:00 PM 0.75 33.35 0.086 7.25 6.7 13.47
1/26/2021 7:00:00 PM 0.77 33.386 0.086 7.24 6.68 13.46
1/26/2021 7:15:00 PM 0.78 33.404 0.086 7.24 6.77 13.45
1/26/2021 7:30:00 PM 0.8 33.44 0.086 7.24 6.73 13.44
1/26/2021 7:45:00 PM 0.82 33.476 0.086 7.24 6.86 13.43
1/26/2021 8:00:00 PM 0.84 33.512 0.086 7.23 6.81 13.41
1/26/2021 8:15:00 PM 0.86 33.548 0.086 7.23 6.68 13.41
1/26/2021 8:30:00 PM 0.88 33.584 0.086 7.23 6.78 13.4
1/26/2021 8:45:00 PM 0.9 33.62 0.086 7.22 6.87 13.39
1/26/2021 9:00:00 PM 0.91 33.638 0.086 7.23 6.71 13.39
1/26/2021 9:15:00 PM 0.93 33.674 0.086 7.23 6.76 13.38
1/26/2021 9:30:00 PM 0.94 33.692 0.086 7.23 6.74 13.37
1/26/2021 9:45:00 PM 0.94 33.692 0.086 7.22 6.68 13.37
1/26/2021 10:00:00 PM 0.96 33.728 0.086 7.22 6.85 13.37
1/26/2021 10:15:00 PM 0.96 33.728 0.086 7.22 6.66 13.37
1/26/2021 10:30:00 PM 0.98 33.764 0.086 7.22 6.75 13.36
1/26/2021 10:45:00 PM 0.99 33.782 0.086 7.22 7.06 13.36
1/26/2021 11:00:00 PM 1 33.8 0.087 7.22 6.57 13.36
1/26/2021 11:15:00 PM 1.01 33.818 0.087 7.22 6.67 13.35
1/26/2021 11:30:00 PM 1.02 33.836 0.087 7.22 6.65 13.35
1/26/2021 11:45:00 PM 1.04 33.872 0.087 7.22 6.65 13.35
1/27/2021 12:00:00 AM 1.05 33.89 0.087 7.22 6.71 13.34
1/27/2021 12:15:00 AM 1.05 33.89 0.087 7.22 6.75 13.34
1/27/2021 12:30:00 AM 1.06 33.908 0.087 7.22 6.73 13.34
1/27/2021 12:45:00 AM 1.07 33.926 0.087 7.22 6.64 13.34
1/27/2021 1:00:00 AM 1.07 33.926 0.088 7.22 6.64 13.34
1/27/2021 1:15:00 AM 1.07 33.926 0.088 7.22 6.58 13.34
1/27/2021 1:30:00 AM 1.07 33.926 0.088 7.22 6.62 13.34
1/27/2021 1:45:00 AM 1.07 33.926 0.089 7.23 6.67 13.35
1/27/2021 2:00:00 AM 1.07 33.926 0.089 7.23 6.82 13.35
1/27/2021 2:15:00 AM 1.07 33.926 0.089 7.22 6.81 13.35
1/27/2021 2:30:00 AM 1.06 33.908 0.089 7.23 6.72 13.36
1/27/2021 2:45:00 AM 1.05 33.89 0.09 7.23 6.68 13.36
1/27/2021 3:00:00 AM 1.05 33.89 0.09 7.23 6.61 13.37
1/27/2021 3:15:00 AM 1.04 33.872 0.09 7.22 6.78 13.38
1/27/2021 3:30:00 AM 1.03 33.854 0.09 7.23 6.55 13.38
1/27/2021 3:45:00 AM 1.03 33.854 0.09 7.22 6.64 13.39
1/27/2021 4:00:00 AM 1.02 33.836 0.09 7.22 6.75 13.4
1/27/2021 4:15:00 AM 1 33.8 0.09 7.23 6.52 13.4
1/27/2021 4:30:00 AM 0.98 33.764 0.091 7.22 6.51 13.41
1/27/2021 4:45:00 AM 0.97 33.746 0.09 7.22 6.52 13.42
1/27/2021 5:00:00 AM 0.95 33.71 0.091 7.22 6.59 13.43
1/27/2021 5:15:00 AM 0.93 33.674 0.091 7.23 6.65 13.43
1/27/2021 5:30:00 AM 0.91 33.638 0.091 7.22 6.5 13.44
1/27/2021 5:45:00 AM 0.88 33.584 0.091 7.22 6.71 13.45
1/27/2021 6:00:00 AM 0.87 33.566 0.091 7.22 6.66 13.47
1/27/2021 6:15:00 AM 0.85 33.53 0.091 7.22 6.75 13.48
1/27/2021 6:30:00 AM 0.84 33.512 0.091 7.22 6.62 13.49
1/27/2021 6:45:00 AM 0.83 33.494 0.091 7.22 6.83 13.49
1/27/2021 7:00:00 AM 0.83 33.494 0.091 7.22 6.63 13.5
1/27/2021 7:15:00 AM 0.81 33.458 0.091 7.22 6.6 13.51
1/27/2021 7:30:00 AM 0.81 33.458 0.091 7.22 6.56 13.52
1/27/2021 7:45:00 AM 0.79 33.422 0.091 7.22 6.71 13.54
1/27/2021 8:00:00 AM 0.78 33.404 0.091 7.23 6.66 13.57
1/27/2021 8:15:00 AM 0.77 33.386 0.091 7.24 6.56 13.62
1/27/2021 8:30:00 AM 0.77 33.386 0.091 7.25 6.67 13.68
1/27/2021 8:45:00 AM 0.78 33.404 0.091 7.26 6.67 13.75
1/27/2021 9:00:00 AM 0.78 33.404 0.09 7.28 6.56 13.8
1/27/2021 9:15:00 AM 0.8 33.44 0.09 7.3 6.72 13.86
1/27/2021 9:30:00 AM 0.84 33.512 0.09 7.31 6.64 13.9
1/27/2021 9:45:00 AM 0.86 33.548 0.09 7.32 6.63 13.93
1/27/2021 10:00:00 AM 0.88 33.584 0.09 7.33 6.6 13.94
1/27/2021 10:15:00 AM 0.91 33.638 0.089 7.34 6.64 13.95
1/27/2021 10:30:00 AM 0.93 33.674 0.089 7.35 6.52 13.96
1/27/2021 10:45:00 AM 0.94 33.692 0.089 7.35 6.58 13.97
1/27/2021 11:00:00 AM 0.98 33.764 0.089 7.37 6.63 13.98
1/27/2021 11:15:00 AM 1.02 33.836 0.089 7.37 6.68 13.97
1/27/2021 11:30:00 AM 1.06 33.908 0.089 7.38 6.58 13.97
1/27/2021 11:45:00 AM 1.11 33.998 0.089 7.38 6.58 13.96
1/27/2021 12:00:00 PM 1.15 34.07 0.089 7.39 6.65 13.95
1/27/2021 12:15:00 PM 1.18 34.124 0.089 7.39 6.64 13.94
1/27/2021 12:30:00 PM 1.21 34.178 0.088 7.39 6.54 13.93
1/27/2021 12:45:00 PM 1.23 34.214 0.088 7.4 6.72 13.92
1/27/2021 1:00:00 PM 1.26 34.268 0.088 7.4 6.72 13.91
1/27/2021 1:15:00 PM 1.29 34.322 0.088 7.4 6.56 13.9
1/27/2021 1:30:00 PM 1.31 34.358 0.088 7.41 6.55 13.89
1/27/2021 1:45:00 PM 1.32 34.376 0.088 7.41 6.52 13.89
1/27/2021 2:00:00 PM 1.32 34.376 0.088 7.41 6.47 13.87
1/27/2021 2:15:00 PM 1.32 34.376 0.088 7.41 6.65 13.87
1/27/2021 2:30:00 PM 1.31 34.358 0.088 7.4 6.53 13.86
1/27/2021 2:45:00 PM 1.3 34.34 0.088 7.4 6.51 13.85
1/27/2021 3:00:00 PM 1.29 34.322 0.088 7.4 7.22 13.85
1/27/2021 3:15:00 PM 1.28 34.304 0.088 7.4 6.85 13.83
1/27/2021 3:30:00 PM 1.27 34.286 0.088 7.39 7 13.81
1/27/2021 3:45:00 PM 1.24 34.232 0.088 7.38 6.66 13.8
1/27/2021 4:00:00 PM 1.21 34.178 0.088 7.38 6.62 13.8
1/27/2021 4:15:00 PM 1.19 34.142 0.088 7.37 6.71 13.8
1/27/2021 4:30:00 PM 1.18 34.124 0.087 7.37 6.73 13.78
1/27/2021 4:45:00 PM 1.16 34.088 0.088 7.36 6.54 13.75
1/27/2021 5:00:00 PM 1.14 34.052 0.088 7.35 6.54 13.72
1/27/2021 5:15:00 PM 1.1 33.98 0.088 7.33 6.84 13.68
1/27/2021 5:30:00 PM 1.07 33.926 0.088 7.32 6.77 13.64
1/27/2021 5:45:00 PM 1.04 33.872 0.088 7.3 6.64 13.61
1/27/2021 6:00:00 PM 1.01 33.818 0.088 7.29 6.65 13.59
1/27/2021 6:15:00 PM 0.99 33.782 0.088 7.27 6.67 13.57
1/27/2021 6:30:00 PM 0.96 33.728 0.088 7.27 6.67 13.56
1/27/2021 6:45:00 PM 0.93 33.674 0.088 7.26 6.62 13.56
1/27/2021 7:00:00 PM 0.9 33.62 0.088 7.25 6.67 13.56
1/27/2021 7:15:00 PM 0.88 33.584 0.088 7.25 6.7 13.56
1/27/2021 7:30:00 PM 0.86 33.548 0.088 7.24 6.7 13.56
1/27/2021 7:45:00 PM 0.82 33.476 0.088 7.24 6.67 13.57
1/27/2021 8:00:00 PM 0.78 33.404 0.088 7.24 6.64 13.57
1/27/2021 8:15:00 PM 0.73 33.314 0.088 7.23 6.66 13.59
1/27/2021 8:30:00 PM 0.68 33.224 0.089 7.23 6.75 13.61
1/27/2021 8:45:00 PM 0.64 33.152 0.089 7.23 6.67 13.62
1/27/2021 9:00:00 PM 0.59 33.062 0.088 7.22 6.64 13.63
1/27/2021 9:15:00 PM 0.54 32.972 0.089 7.22 6.68 13.66
1/27/2021 9:30:00 PM 0.49 32.882 0.089 7.22 6.69 13.67
1/27/2021 9:45:00 PM 0.44 32.792 0.089 7.21 6.68 13.69
1/27/2021 10:00:00 PM 0.41 32.738 0.089 7.21 6.66 13.71
1/27/2021 10:15:00 PM 0.36 32.648 0.089 7.21 6.64 13.73
1/27/2021 10:30:00 PM 0.33 32.594 0.089 7.21 6.64 13.74
1/27/2021 10:45:00 PM 0.3 32.54 0.089 7.21 6.61 13.75
1/27/2021 11:00:00 PM 0.26 32.468 0.089 7.21 6.72 13.77
1/27/2021 11:15:00 PM 0.22 32.396 0.089 7.21 6.77 13.78
1/27/2021 11:30:00 PM 0.2 32.36 0.089 7.21 6.67 13.8
1/27/2021 11:45:00 PM 0.17 32.306 0.089 7.21 6.64 13.81
1/28/2021 12:00:00 AM 0.16 32.288 0.089 7.21 6.72 13.82
1/28/2021 12:15:00 AM 0.15 32.27 0.089 7.21 6.66 13.82
1/28/2021 12:30:00 AM 0.14 32.252 0.089 7.21 6.81 13.83
1/28/2021 12:45:00 AM 0.12 32.216 0.09 7.21 6.66 13.84
1/28/2021 1:00:00 AM 0.1 32.18 0.089 7.21 6.68 13.84
1/28/2021 1:15:00 AM 0.08 32.144 0.09 7.21 6.75 13.85
1/28/2021 1:30:00 AM 0.05 32.09 0.09 7.22 6.64 13.86
1/28/2021 1:45:00 AM 0.02 32.036 0.09 7.21 6.64 13.87
1/28/2021 2:00:00 AM -0.03 31.946 0.09 7.21 6.66 13.88
1/28/2021 2:15:00 AM -0.07 31.874 0.09 7.21 6.71 13.9
1/28/2021 2:30:00 AM -0.1 31.82 0.09 7.21 6.89 13.92
1/28/2021 2:45:00 AM -0.1 31.82 0.09 7.21 6.61 13.93
1/28/2021 3:00:00 AM -0.09 31.838 0.09 7.21 6.63 13.94
1/28/2021 3:15:00 AM -0.09 31.838 0.09 7.21 6.63 13.94
1/28/2021 3:30:00 AM -0.09 31.838 0.09 7.21 6.66 13.94
1/28/2021 3:45:00 AM -0.08 31.856 0.09 7.21 6.65 13.94
1/28/2021 4:00:00 AM -0.08 31.856 0.09 7.21 6.68 13.94
1/28/2021 4:15:00 AM -0.08 31.856 0.09 7.2 6.71 13.94
1/28/2021 4:30:00 AM -0.08 31.856 0.09 7.2 6.98 13.94
1/28/2021 4:45:00 AM -0.08 31.856 0.09 7.2 6.78 13.94
1/28/2021 5:00:00 AM -0.08 31.856 0.09 7.2 6.71 13.94
1/28/2021 5:15:00 AM -0.08 31.856 0.09 7.2 6.66 13.93
1/28/2021 5:30:00 AM -0.09 31.838 0.09 7.2 6.75 13.94
1/28/2021 5:45:00 AM -0.08 31.856 0.09 7.2 6.89 13.94
1/28/2021 6:00:00 AM -0.09 31.838 0.09 7.2 6.58 13.94
1/28/2021 6:15:00 AM -0.09 31.838 0.091 7.2 6.71 13.94
1/28/2021 6:30:00 AM -0.09 31.838 0.091 7.2 6.78 13.94
1/28/2021 6:45:00 AM -0.09 31.838 0.091 7.19 6.97 13.94
1/28/2021 7:00:00 AM -0.09 31.838 0.091 7.2 6.66 13.94
1/28/2021 7:15:00 AM -0.08 31.856 0.091 7.2 6.79 13.94
1/28/2021 7:30:00 AM -0.08 31.856 0.091 7.2 6.51 13.94
1/28/2021 7:45:00 AM -0.08 31.856 0.091 7.2 6.61 13.96
1/28/2021 8:00:00 AM -0.08 31.856 0.091 7.21 6.55 14
1/28/2021 8:15:00 AM -0.08 31.856 0.091 7.22 6.49 14.05
1/28/2021 8:30:00 AM -0.07 31.874 0.091 7.23 6.71 14.11
1/28/2021 8:45:00 AM -0.08 31.856 0.09 7.24 6.85 14.17
1/28/2021 9:00:00 AM -0.07 31.874 0.09 7.26 6.6 14.24
1/28/2021 9:15:00 AM -0.07 31.874 0.09 7.27 6.6 14.28
1/28/2021 9:30:00 AM -0.07 31.874 0.09 7.29 6.59 14.31
1/28/2021 9:45:00 AM -0.07 31.874 0.09 7.3 6.56 14.35
1/28/2021 10:00:00 AM -0.07 31.874 0.09 7.3 6.6 14.37
1/28/2021 10:15:00 AM -0.06 31.892 0.089 7.31 6.69 14.39
1/28/2021 10:30:00 AM -0.05 31.91 0.089 7.32 6.61 14.39
1/28/2021 10:45:00 AM -0.04 31.928 0.089 7.32 6.71 14.39
1/28/2021 11:00:00 AM -0.03 31.946 0.089 7.33 6.74 14.39
1/28/2021 11:15:00 AM -0.03 31.946 0.088 7.34 6.67 14.37
1/28/2021 11:30:00 AM 0 32 0.088 7.34 6.75 14.36
1/28/2021 11:45:00 AM 0.03 32.054 0.088 7.34 6.68 14.34
1/28/2021 12:00:00 PM 0.07 32.126 0.088 7.34 6.29 14.31
1/28/2021 12:15:00 PM 0.18 32.324 0.088 7.35 6.69 14.28
1/28/2021 12:30:00 PM 0.24 32.432 0.088 7.35 6.67 14.24
1/28/2021 12:45:00 PM 0.35 32.63 0.088 7.36 6.57 14.2
1/28/2021 1:00:00 PM 0.46 32.828 0.088 7.36 6.56 14.16
1/28/2021 1:15:00 PM 0.58 33.044 0.088 7.36 6.66 14.12
1/28/2021 1:30:00 PM 0.66 33.188 0.088 7.36 6.45 14.08
1/28/2021 1:45:00 PM 0.73 33.314 0.088 7.36 6.44 14.03
1/28/2021 2:00:00 PM 0.8 33.44 0.088 7.36 6.63 14
1/28/2021 2:15:00 PM 0.84 33.512 0.088 7.36 6.55 13.98
1/28/2021 2:30:00 PM 0.84 33.512 0.088 7.36 6.5 13.97
1/28/2021 2:45:00 PM 0.84 33.512 0.088 7.36 6.54 13.96
1/28/2021 3:00:00 PM 0.82 33.476 0.088 7.35 6.48 13.95
1/28/2021 3:15:00 PM 0.78 33.404 0.088 7.35 6.33 13.95
1/28/2021 3:30:00 PM 0.74 33.332 0.088 7.35 6.53 13.96
1/28/2021 3:45:00 PM 0.64 33.152 0.088 7.34 6.44 13.98
1/28/2021 4:00:00 PM 0.51 32.918 0.088 7.33 6.58 14.02
1/28/2021 4:15:00 PM 0.41 32.738 0.088 7.32 6.59 14.05
1/28/2021 4:30:00 PM 0.32 32.576 0.088 7.3 6.57 14.07
1/28/2021 4:45:00 PM 0.25 32.45 0.088 7.29 6.54 14.09
1/28/2021 5:00:00 PM 0.2 32.36 0.088 7.29 6.61 14.1
1/28/2021 5:15:00 PM 0.17 32.306 0.088 7.28 6.55 14.09
1/28/2021 5:30:00 PM 0.12 32.216 0.088 7.27 6.52 14.07
1/28/2021 5:45:00 PM 0.05 32.09 0.088 7.26 6.64 14.05
1/28/2021 6:00:00 PM 0.01 32.018 0.088 7.24 6.65 14.04
1/28/2021 6:15:00 PM -0.03 31.946 0.088 7.23 6.69 14.03
1/28/2021 6:30:00 PM -0.06 31.892 0.089 7.22 6.64 14.03
1/28/2021 6:45:00 PM -0.09 31.838 0.089 7.21 6.64 14.03
1/28/2021 7:00:00 PM -0.09 31.838 0.089 7.21 6.51 14.03
1/28/2021 7:15:00 PM -0.09 31.838 0.089 7.21 6.63 14.03
1/28/2021 7:30:00 PM -0.09 31.838 0.089 7.2 6.51 14.02
1/28/2021 7:45:00 PM -0.09 31.838 0.09 7.2 6.65 14.02
1/28/2021 8:00:00 PM -0.09 31.838 0.09 7.2 6.67 14.02
1/28/2021 8:15:00 PM -0.09 31.838 0.09 7.2 6.64 14.01
1/28/2021 8:30:00 PM -0.09 31.838 0.09 7.2 6.68 14.01
1/28/2021 8:45:00 PM -0.08 31.856 0.09 7.2 6.62 14
1/28/2021 9:00:00 PM -0.08 31.856 0.09 7.2 6.51 14
1/28/2021 9:15:00 PM -0.08 31.856 0.091 7.2 6.6 13.99
1/28/2021 9:30:00 PM -0.08 31.856 0.091 7.2 6.57 13.99
1/28/2021 9:45:00 PM -0.08 31.856 0.091 7.2 6.48 13.98
1/28/2021 10:00:00 PM -0.08 31.856 0.091 7.2 6.68 13.97
1/28/2021 10:15:00 PM -0.08 31.856 0.091 7.2 6.53 13.97
1/28/2021 10:30:00 PM -0.08 31.856 0.091 7.2 6.56 13.97
1/28/2021 10:45:00 PM -0.08 31.856 0.092 7.2 6.54 13.96
1/28/2021 11:00:00 PM -0.08 31.856 0.092 7.2 6.51 13.95
1/28/2021 11:15:00 PM -0.08 31.856 0.091 7.2 6.52 13.94
1/28/2021 11:30:00 PM -0.08 31.856 0.092 7.2 6.6 13.93
1/28/2021 11:45:00 PM -0.08 31.856 0.091 7.19 6.52 13.93
1/29/2021 12:00:00 AM -0.08 31.856 0.092 7.19 6.44 13.92
1/29/2021 12:15:00 AM -0.08 31.856 0.091 7.2 6.44 13.92
1/29/2021 12:30:00 AM -0.08 31.856 0.091 7.19 6.56 13.91
1/29/2021 12:45:00 AM -0.08 31.856 0.091 7.19 6.55 13.91
1/29/2021 1:00:00 AM -0.08 31.856 0.091 7.19 6.56 13.91
1/29/2021 1:15:00 AM -0.08 31.856 0.091 7.19 6.61 13.91
1/29/2021 1:30:00 AM -0.08 31.856 0.091 7.19 6.52 13.91
1/29/2021 1:45:00 AM -0.08 31.856 0.091 7.19 6.52 13.91
1/29/2021 2:00:00 AM -0.08 31.856 0.091 7.19 6.48 13.9
1/29/2021 2:15:00 AM -0.08 31.856 0.091 7.19 6.63 13.9
1/29/2021 2:30:00 AM -0.08 31.856 0.091 7.19 6.59 13.89
1/29/2021 2:45:00 AM -0.08 31.856 0.091 7.19 6.6 13.89
1/29/2021 3:00:00 AM -0.08 31.856 0.091 7.19 6.59 13.89
1/29/2021 3:15:00 AM -0.08 31.856 0.091 7.19 6.67 13.89
1/29/2021 3:30:00 AM -0.08 31.856 0.091 7.19 6.56 13.89
1/29/2021 3:45:00 AM -0.08 31.856 0.091 7.19 6.55 13.88
1/29/2021 4:00:00 AM -0.08 31.856 0.091 7.19 6.62 13.88
1/29/2021 4:15:00 AM -0.08 31.856 0.091 7.19 6.39 13.88
1/29/2021 4:30:00 AM -0.08 31.856 0.091 7.19 6.57 13.88
1/29/2021 4:45:00 AM -0.08 31.856 0.091 7.19 6.58 13.88
1/29/2021 5:00:00 AM -0.08 31.856 0.091 7.19 6.51 13.88
1/29/2021 5:15:00 AM -0.08 31.856 0.091 7.19 6.41 13.88
1/29/2021 5:30:00 AM -0.08 31.856 0.091 7.19 6.54 13.88
1/29/2021 5:45:00 AM -0.08 31.856 0.091 7.19 6.56 13.88
1/29/2021 6:00:00 AM -0.08 31.856 0.091 7.19 6.67 13.88
1/29/2021 6:15:00 AM -0.08 31.856 0.091 7.18 6.7 13.88
1/29/2021 6:30:00 AM -0.08 31.856 0.091 7.18 6.59 13.88
1/29/2021 6:45:00 AM -0.08 31.856 0.091 7.18 6.56 13.88
1/29/2021 7:00:00 AM -0.08 31.856 0.091 7.18 6.58 13.88
1/29/2021 7:15:00 AM -0.08 31.856 0.091 7.18 6.66 13.88
1/29/2021 7:30:00 AM -0.08 31.856 0.091 7.18 6.6 13.89
1/29/2021 7:45:00 AM -0.08 31.856 0.091 7.18 6.66 13.91
1/29/2021 8:00:00 AM -0.08 31.856 0.091 7.19 6.53 13.95
1/29/2021 8:15:00 AM -0.08 31.856 0.091 7.2 6.56 14
1/29/2021 8:30:00 AM -0.08 31.856 0.091 7.21 6.6 14.06
1/29/2021 8:45:00 AM -0.08 31.856 0.091 7.22 6.53 14.12
1/29/2021 9:00:00 AM -0.07 31.874 0.091 7.23 6.44 14.17
1/29/2021 9:15:00 AM -0.07 31.874 0.091 7.24 6.63 14.22
1/29/2021 9:30:00 AM -0.07 31.874 0.091 7.26 6.47 14.26
1/29/2021 9:45:00 AM -0.07 31.874 0.091 7.27 6.58 14.3
1/29/2021 10:00:00 AM -0.07 31.874 0.091 7.28 6.67 14.34
1/29/2021 10:15:00 AM -0.06 31.892 0.091 7.29 6.7 14.35
1/29/2021 10:30:00 AM -0.05 31.91 0.09 7.3 6.75 14.37
1/29/2021 10:45:00 AM -0.05 31.91 0.09 7.31 6.68 14.39
1/29/2021 11:00:00 AM -0.04 31.928 0.09 7.32 6.73 14.4
1/29/2021 11:15:00 AM -0.05 31.91 0.09 7.33 6.82 14.41
1/29/2021 11:30:00 AM -0.05 31.91 0.089 7.34 6.58 14.42
1/29/2021 11:45:00 AM -0.05 31.91 0.089 7.34 6.84 14.41
1/29/2021 12:00:00 PM -0.05 31.91 0.089 7.35 6.66 14.42
1/29/2021 12:15:00 PM -0.05 31.91 0.089 7.35 6.64 14.42
1/29/2021 12:30:00 PM -0.04 31.928 0.089 7.36 6.73 14.42
1/29/2021 12:45:00 PM -0.04 31.928 0.089 7.36 6.7 14.42
1/29/2021 1:00:00 PM -0.04 31.928 0.089 7.36 6.79 14.42
1/29/2021 1:15:00 PM -0.04 31.928 0.089 7.37 6.71 14.42
1/29/2021 1:30:00 PM -0.03 31.946 0.089 7.37 6.73 14.42
1/29/2021 1:45:00 PM -0.03 31.946 0.089 7.37 6.78 14.42
1/29/2021 2:00:00 PM -0.03 31.946 0.089 7.38 6.64 14.42
1/29/2021 2:15:00 PM -0.02 31.964 0.089 7.38 6.81 14.41
1/29/2021 2:30:00 PM -0.01 31.982 0.089 7.38 6.83 14.41
1/29/2021 2:45:00 PM -0.01 31.982 0.089 7.38 6.88 14.41
1/29/2021 3:00:00 PM -0.02 31.964 0.089 7.38 6.66 14.4
1/29/2021 3:15:00 PM -0.01 31.982 0.089 7.38 6.7 14.4
1/29/2021 3:30:00 PM -0.01 31.982 0.089 7.38 6.62 14.39
1/29/2021 3:45:00 PM -0.01 31.982 0.088 7.38 6.61 14.39
1/29/2021 4:00:00 PM -0.01 31.982 0.088 7.37 6.59 14.38
1/29/2021 4:15:00 PM -0.02 31.964 0.088 7.36 6.61 14.38
1/29/2021 4:30:00 PM -0.02 31.964 0.088 7.36 6.56 14.35
1/29/2021 4:45:00 PM -0.03 31.946 0.088 7.35 6.59 14.33
1/29/2021 5:00:00 PM -0.04 31.928 0.088 7.34 6.61 14.3
1/29/2021 5:15:00 PM -0.04 31.928 0.088 7.32 6.6 14.25
1/29/2021 5:30:00 PM -0.05 31.91 0.088 7.3 6.53 14.2
1/29/2021 5:45:00 PM -0.06 31.892 0.088 7.29 6.64 14.15
1/29/2021 6:00:00 PM -0.06 31.892 0.088 7.27 6.74 14.1
1/29/2021 6:15:00 PM -0.06 31.892 0.089 7.26 6.69 14.08
1/29/2021 6:30:00 PM -0.06 31.892 0.089 7.25 6.64 14.05
1/29/2021 6:45:00 PM -0.06 31.892 0.089 7.24 6.64 14.02
1/29/2021 7:00:00 PM -0.06 31.892 0.089 7.23 6.64 14.01
1/29/2021 7:15:00 PM -0.06 31.892 0.089 7.23 6.76 13.99
1/29/2021 7:30:00 PM -0.06 31.892 0.089 7.22 6.55 13.98
1/29/2021 7:45:00 PM -0.06 31.892 0.089 7.22 6.52 13.97
1/29/2021 8:00:00 PM -0.06 31.892 0.089 7.21 6.6 13.96
1/29/2021 8:15:00 PM -0.06 31.892 0.089 7.21 6.68 13.96
1/29/2021 8:30:00 PM -0.06 31.892 0.089 7.21 6.63 13.95
1/29/2021 8:45:00 PM -0.06 31.892 0.09 7.21 6.55 13.95
1/29/2021 9:00:00 PM -0.06 31.892 0.089 7.21 6.76 13.95
1/29/2021 9:15:00 PM -0.06 31.892 0.089 7.21 6.64 13.94
1/29/2021 9:30:00 PM -0.07 31.874 0.089 7.2 6.54 13.94
1/29/2021 9:45:00 PM -0.07 31.874 0.09 7.2 6.55 13.94
1/29/2021 10:00:00 PM -0.07 31.874 0.089 7.2 6.65 13.94
1/29/2021 10:15:00 PM -0.07 31.874 0.09 7.2 6.66 13.94
1/29/2021 10:30:00 PM -0.07 31.874 0.09 7.2 6.56 13.94
1/29/2021 10:45:00 PM -0.07 31.874 0.09 7.2 6.53 13.94
1/29/2021 11:00:00 PM -0.07 31.874 0.09 7.2 6.62 13.93
1/29/2021 11:15:00 PM -0.07 31.874 0.09 7.2 6.66 13.93
1/29/2021 11:30:00 PM -0.07 31.874 0.09 7.19 6.51 13.93
1/29/2021 11:45:00 PM -0.07 31.874 0.09 7.19 6.57 13.93
1/30/2021 12:00:00 AM -0.07 31.874 0.09 7.19 6.65 13.93
1/30/2021 12:15:00 AM -0.07 31.874 0.09 7.19 6.54 13.93
1/30/2021 12:30:00 AM -0.07 31.874 0.09 7.19 6.64 13.93
1/30/2021 12:45:00 AM -0.08 31.856 0.089 7.19 6.55 13.93
1/30/2021 1:00:00 AM -0.08 31.856 0.09 7.19 6.55 13.93
1/30/2021 1:15:00 AM -0.08 31.856 0.089 7.19 6.57 13.93
1/30/2021 1:30:00 AM -0.08 31.856 0.09 7.19 6.59 13.93
1/30/2021 1:45:00 AM -0.08 31.856 0.09 7.19 6.61 13.94
1/30/2021 2:00:00 AM -0.08 31.856 0.09 7.19 6.59 13.93
1/30/2021 2:15:00 AM -0.08 31.856 0.089 7.19 6.57 13.93
1/30/2021 2:30:00 AM -0.08 31.856 0.09 7.19 6.55 13.93
1/30/2021 2:45:00 AM -0.08 31.856 0.09 7.19 6.66 13.93
1/30/2021 3:00:00 AM -0.08 31.856 0.09 7.19 6.63 13.93
1/30/2021 3:15:00 AM -0.08 31.856 0.09 7.19 6.66 13.93
1/30/2021 3:30:00 AM -0.07 31.874 0.09 7.19 6.59 13.93
1/30/2021 3:45:00 AM -0.08 31.856 0.09 7.19 6.57 13.92
1/30/2021 4:00:00 AM -0.08 31.856 0.09 7.19 6.66 13.92
1/30/2021 4:15:00 AM -0.08 31.856 0.09 7.19 6.76 13.92
1/30/2021 4:30:00 AM -0.08 31.856 0.09 7.18 6.56 13.92
1/30/2021 4:45:00 AM -0.08 31.856 0.09 7.18 6.74 13.92
1/30/2021 5:00:00 AM -0.08 31.856 0.09 7.18 6.68 13.93
1/30/2021 5:15:00 AM -0.08 31.856 0.09 7.18 6.75 13.92
1/30/2021 5:30:00 AM -0.08 31.856 0.09 7.18 6.75 13.93
1/30/2021 5:45:00 AM -0.08 31.856 0.09 7.18 6.65 13.93
1/30/2021 6:00:00 AM -0.08 31.856 0.09 7.18 6.58 13.92
1/30/2021 6:15:00 AM -0.08 31.856 0.09 7.18 6.75 13.93
1/30/2021 6:30:00 AM -0.09 31.838 0.09 7.18 6.68 13.93
1/30/2021 6:45:00 AM -0.09 31.838 0.091 7.18 6.73 13.93
1/30/2021 7:00:00 AM -0.09 31.838 0.091 7.18 6.67 13.92
1/30/2021 7:15:00 AM -0.08 31.856 0.091 7.18 6.68 13.92
1/30/2021 7:30:00 AM -0.08 31.856 0.091 7.18 6.75 13.93
1/30/2021 7:45:00 AM -0.08 31.856 0.091 7.18 6.73 13.95
1/30/2021 8:00:00 AM -0.08 31.856 0.091 7.19 6.83 13.99
1/30/2021 8:15:00 AM -0.07 31.874 0.091 7.2 7.47 14.04
1/30/2021 8:30:00 AM -0.07 31.874 0.09 7.21 6.77 14.11
1/30/2021 8:45:00 AM -0.07 31.874 0.091 7.23 6.79 14.17
1/30/2021 9:00:00 AM -0.07 31.874 0.09 7.24 6.81 14.22
1/30/2021 9:15:00 AM -0.06 31.892 0.09 7.25 6.75 14.27
1/30/2021 9:30:00 AM -0.06 31.892 0.09 7.26 6.76 14.3
1/30/2021 9:45:00 AM -0.05 31.91 0.09 7.27 6.73 14.34
1/30/2021 10:00:00 AM -0.04 31.928 0.09 7.28 6.74 14.37
1/30/2021 10:15:00 AM -0.02 31.964 0.09 7.29 6.84 14.39
1/30/2021 10:30:00 AM 0 32 0.09 7.3 6.8 14.4
1/30/2021 10:45:00 AM 0.02 32.036 0.089 7.31 6.87 14.41
1/30/2021 11:00:00 AM 0.04 32.072 0.089 7.32 6.71 14.42
1/30/2021 11:15:00 AM 0.06 32.108 0.089 7.33 6.81 14.41
1/30/2021 11:30:00 AM 0.08 32.144 0.089 7.33 6.9 14.4
1/30/2021 11:45:00 AM 0.11 32.198 0.088 7.34 6.72 14.39
1/30/2021 12:00:00 PM 0.14 32.252 0.088 7.34 6.63 14.38
1/30/2021 12:15:00 PM 0.17 32.306 0.088 7.34 6.72 14.35
1/30/2021 12:30:00 PM 0.2 32.36 0.088 7.35 6.64 14.34
1/30/2021 12:45:00 PM 0.23 32.414 0.087 7.35 6.77 14.3
1/30/2021 1:00:00 PM 0.26 32.468 0.087 7.34 6.7 14.28
1/30/2021 1:15:00 PM 0.3 32.54 0.087 7.35 6.73 14.26
1/30/2021 1:30:00 PM 0.31 32.558 0.087 7.35 6.8 14.24
1/30/2021 1:45:00 PM 0.34 32.612 0.087 7.35 6.67 14.21
1/30/2021 2:00:00 PM 0.34 32.612 0.087 7.35 6.67 14.2
1/30/2021 2:15:00 PM 0.35 32.63 0.087 7.35 6.69 14.18
1/30/2021 2:30:00 PM 0.36 32.648 0.087 7.35 6.67 14.17
1/30/2021 2:45:00 PM 0.35 32.63 0.087 7.35 6.6 14.16
1/30/2021 3:00:00 PM 0.33 32.594 0.086 7.35 6.79 14.16
1/30/2021 3:15:00 PM 0.3 32.54 0.087 7.35 6.66 14.16
1/30/2021 3:30:00 PM 0.27 32.486 0.086 7.34 6.64 14.16
1/30/2021 3:45:00 PM 0.23 32.414 0.087 7.34 6.69 14.17
1/30/2021 4:00:00 PM 0.18 32.324 0.086 7.33 6.61 14.18
1/30/2021 4:15:00 PM 0.13 32.234 0.086 7.32 6.72 14.19
1/30/2021 4:30:00 PM 0.1 32.18 0.086 7.31 6.84 14.2
1/30/2021 4:45:00 PM 0.08 32.144 0.086 7.3 6.8 14.2
1/30/2021 5:00:00 PM 0.05 32.09 0.086 7.3 6.71 14.19
1/30/2021 5:15:00 PM 0.03 32.054 0.086 7.29 6.81 14.17
1/30/2021 5:30:00 PM 0.02 32.036 0.086 7.28 6.79 14.13
1/30/2021 5:45:00 PM 0 32 0.087 7.27 6.85 14.1
1/30/2021 6:00:00 PM -0.01 31.982 0.087 7.25 6.83 14.07
1/30/2021 6:15:00 PM -0.03 31.946 0.087 7.24 6.73 14.04
1/30/2021 6:30:00 PM -0.05 31.91 0.087 7.23 6.63 14.03
1/30/2021 6:45:00 PM -0.06 31.892 0.087 7.22 6.72 14.01
1/30/2021 7:00:00 PM -0.07 31.874 0.087 7.22 6.78 14.01
1/30/2021 7:15:00 PM -0.08 31.856 0.087 7.21 6.68 14
1/30/2021 7:30:00 PM -0.09 31.838 0.088 7.21 6.71 14
1/30/2021 7:45:00 PM -0.09 31.838 0.088 7.2 6.63 14
1/30/2021 8:00:00 PM -0.1 31.82 0.088 7.2 6.7 14
1/30/2021 8:15:00 PM -0.09 31.838 0.088 7.2 6.67 13.99
1/30/2021 8:30:00 PM -0.09 31.838 0.088 7.19 6.81 13.99
1/30/2021 8:45:00 PM -0.09 31.838 0.088 7.19 6.64 13.99
1/30/2021 9:00:00 PM -0.09 31.838 0.088 7.19 6.75 13.99
1/30/2021 9:15:00 PM -0.09 31.838 0.089 7.19 6.8 13.99
1/30/2021 9:30:00 PM -0.09 31.838 0.089 7.19 6.68 13.98
1/30/2021 9:45:00 PM -0.09 31.838 0.089 7.19 6.68 13.97
1/30/2021 10:00:00 PM -0.09 31.838 0.089 7.19 6.72 13.97
1/30/2021 10:15:00 PM -0.09 31.838 0.089 7.19 6.6 13.96
1/30/2021 10:30:00 PM -0.09 31.838 0.089 7.19 6.69 13.96
1/30/2021 10:45:00 PM -0.09 31.838 0.089 7.19 6.62 13.95
1/30/2021 11:00:00 PM -0.09 31.838 0.089 7.19 6.77 13.95
1/30/2021 11:15:00 PM -0.08 31.856 0.089 7.19 6.7 13.95
1/30/2021 11:30:00 PM -0.08 31.856 0.089 7.18 6.63 13.94
1/30/2021 11:45:00 PM -0.08 31.856 0.089 7.18 6.66 13.93
1/31/2021 12:00:00 AM -0.08 31.856 0.09 7.18 6.61 13.92
1/31/2021 12:15:00 AM -0.08 31.856 0.089 7.19 6.77 13.92
1/31/2021 12:30:00 AM -0.08 31.856 0.09 7.18 6.73 13.91
1/31/2021 12:45:00 AM -0.07 31.874 0.089 7.18 6.76 13.91
1/31/2021 1:00:00 AM -0.07 31.874 0.09 7.18 6.7 13.9
1/31/2021 1:15:00 AM -0.07 31.874 0.089 7.18 6.75 13.89
1/31/2021 1:30:00 AM -0.07 31.874 0.09 7.18 6.54 13.89
1/31/2021 1:45:00 AM -0.07 31.874 0.089 7.18 6.75 13.88
1/31/2021 2:00:00 AM -0.07 31.874 0.089 7.17 6.71 13.88
1/31/2021 2:15:00 AM -0.07 31.874 0.089 7.17 6.72 13.88
1/31/2021 2:30:00 AM -0.07 31.874 0.089 7.18 6.71 13.87
1/31/2021 2:45:00 AM -0.07 31.874 0.089 7.17 6.66 13.87
1/31/2021 3:00:00 AM -0.07 31.874 0.089 7.17 6.51 13.87
1/31/2021 3:15:00 AM -0.07 31.874 0.089 7.17 6.72 13.86
1/31/2021 3:30:00 AM -0.07 31.874 0.089 7.17 6.62 13.86
1/31/2021 3:45:00 AM -0.07 31.874 0.089 7.17 6.52 13.86
1/31/2021 4:00:00 AM -0.07 31.874 0.089 7.17 6.85 13.86
1/31/2021 4:15:00 AM -0.07 31.874 0.089 7.17 6.68 13.85
1/31/2021 4:30:00 AM -0.07 31.874 0.089 7.17 6.59 13.85
1/31/2021 4:45:00 AM -0.07 31.874 0.089 7.17 6.65 13.85
1/31/2021 5:00:00 AM -0.07 31.874 0.089 7.17 6.67 13.84
1/31/2021 5:15:00 AM -0.07 31.874 0.089 7.17 6.66 13.84
1/31/2021 5:30:00 AM -0.07 31.874 0.089 7.17 6.7 13.83
1/31/2021 5:45:00 AM -0.07 31.874 0.089 7.17 6.55 13.83
1/31/2021 6:00:00 AM -0.07 31.874 0.089 7.17 6.76 13.83
1/31/2021 6:15:00 AM -0.07 31.874 0.089 7.17 6.64 13.83
1/31/2021 6:30:00 AM -0.07 31.874 0.089 7.17 6.63 13.82
1/31/2021 6:45:00 AM -0.07 31.874 0.089 7.16 6.59 13.82
1/31/2021 7:00:00 AM -0.07 31.874 0.089 7.17 6.76 13.82
1/31/2021 7:15:00 AM -0.06 31.892 0.089 7.17 6.73 13.82
1/31/2021 7:30:00 AM -0.06 31.892 0.089 7.17 6.55 13.82
1/31/2021 7:45:00 AM -0.06 31.892 0.089 7.17 6.61 13.83
1/31/2021 8:00:00 AM -0.06 31.892 0.089 7.18 6.82 13.85
1/31/2021 8:15:00 AM -0.06 31.892 0.089 7.18 6.81 13.88
1/31/2021 8:30:00 AM -0.05 31.91 0.089 7.19 6.7 13.94
1/31/2021 8:45:00 AM -0.05 31.91 0.089 7.21 6.57 14.01
1/31/2021 9:00:00 AM -0.05 31.91 0.089 7.22 6.63 14.06
1/31/2021 9:15:00 AM -0.05 31.91 0.089 7.23 6.68 14.1
1/31/2021 9:30:00 AM -0.05 31.91 0.089 7.24 6.67 14.14
1/31/2021 9:45:00 AM -0.04 31.928 0.089 7.25 6.71 14.18
1/31/2021 10:00:00 AM -0.05 31.91 0.089 7.27 6.58 14.21
1/31/2021 10:15:00 AM -0.05 31.91 0.089 7.28 6.73 14.25
1/31/2021 10:30:00 AM -0.05 31.91 0.088 7.28 12.08 14.28
1/31/2021 10:45:00 AM -0.05 31.91 0.088 7.29 6.61 14.3
1/31/2021 11:00:00 AM -0.06 31.892 0.088 7.3 6.69 14.3
1/31/2021 11:15:00 AM -0.06 31.892 0.088 7.3 6.63 14.31
1/31/2021 11:30:00 AM -0.05 31.91 0.088 7.31 6.64 14.31
1/31/2021 11:45:00 AM -0.04 31.928 0.088 7.31 6.66 14.32
1/31/2021 12:00:00 PM -0.02 31.964 0.088 7.31 6.65 14.33
1/31/2021 12:15:00 PM 0 32 0.088 7.32 6.7 14.34
1/31/2021 12:30:00 PM 0.03 32.054 0.088 7.33 6.67 14.35
1/31/2021 12:45:00 PM 0.06 32.108 0.088 7.33 6.68 14.35
1/31/2021 1:00:00 PM 0.08 32.144 0.088 7.34 6.67 14.35
1/31/2021 1:15:00 PM 0.09 32.162 0.087 7.34 6.68 14.34
1/31/2021 1:30:00 PM 0.1 32.18 0.087 7.35 6.61 14.32
1/31/2021 1:45:00 PM 0.11 32.198 0.087 7.35 6.6 14.31
1/31/2021 2:00:00 PM 0.11 32.198 0.087 7.35 6.68 14.3
1/31/2021 2:15:00 PM 0.11 32.198 0.087 7.35 6.6 14.29
1/31/2021 2:30:00 PM 0.1 32.18 0.087 7.35 6.64 14.28
1/31/2021 2:45:00 PM 0.11 32.198 0.087 7.34 6.65 14.27
1/31/2021 3:00:00 PM 0.11 32.198 0.086 7.35 6.66 14.26
1/31/2021 3:15:00 PM 0.1 32.18 0.086 7.34 6.65 14.25
1/31/2021 3:30:00 PM 0.1 32.18 0.086 7.34 6.71 14.24
1/31/2021 3:45:00 PM 0.09 32.162 0.087 7.33 6.63 14.22
1/31/2021 4:00:00 PM 0.09 32.162 0.086 7.34 6.72 14.21
1/31/2021 4:15:00 PM 0.08 32.144 0.087 7.33 6.69 14.18
1/31/2021 4:30:00 PM 0.08 32.144 0.087 7.31 6.7 14.15
1/31/2021 4:45:00 PM 0.07 32.126 0.086 7.3 6.69 14.11
1/31/2021 5:00:00 PM 0.07 32.126 0.086 7.29 6.72 14.07
1/31/2021 5:15:00 PM 0.06 32.108 0.086 7.28 6.63 14.03
1/31/2021 5:30:00 PM 0.05 32.09 0.086 7.26 6.66 13.99
1/31/2021 5:45:00 PM 0.05 32.09 0.086 7.25 6.71 13.95
1/31/2021 6:00:00 PM 0.04 32.072 0.086 7.24 6.77 13.92
1/31/2021 6:15:00 PM 0.03 32.054 0.087 7.24 6.62 13.9
1/31/2021 6:30:00 PM 0.02 32.036 0.086 7.22 6.66 13.87
1/31/2021 6:45:00 PM 0.02 32.036 0.086 7.22 6.61 13.86
1/31/2021 7:00:00 PM 0.02 32.036 0.086 7.22 6.71 13.85
1/31/2021 7:15:00 PM 0.01 32.018 0.086 7.2 6.71 13.84
1/31/2021 7:30:00 PM 0.01 32.018 0.086 7.2 6.77 13.84
1/31/2021 7:45:00 PM 0.01 32.018 0.086 7.2 6.69 13.83
1/31/2021 8:00:00 PM 0 32 0.086 7.2 6.63 13.83
1/31/2021 8:15:00 PM 0 32 0.086 7.2 6.66 13.82
1/31/2021 8:30:00 PM -0.01 31.982 0.086 7.19 7.06 13.82
1/31/2021 8:45:00 PM -0.03 31.946 0.086 7.19 6.76 13.82
1/31/2021 9:00:00 PM -0.04 31.928 0.086 7.19 6.68 13.82
1/31/2021 9:15:00 PM -0.05 31.91 0.086 7.19 6.81 13.82
1/31/2021 9:30:00 PM -0.06 31.892 0.086 7.19 6.79 13.83
1/31/2021 9:45:00 PM -0.07 31.874 0.086 7.19 6.86 13.82
1/31/2021 10:00:00 PM -0.06 31.892 0.086 7.19 6.85 13.82
1/31/2021 10:15:00 PM -0.05 31.91 0.087 7.18 6.89 13.82
1/31/2021 10:30:00 PM -0.05 31.91 0.086 7.18 6.74 13.82
1/31/2021 10:45:00 PM -0.05 31.91 0.086 7.18 6.77 13.82
1/31/2021 11:00:00 PM -0.04 31.928 0.086 7.18 6.71 13.82
1/31/2021 11:15:00 PM -0.04 31.928 0.086 7.18 6.75 13.81
1/31/2021 11:30:00 PM -0.04 31.928 0.087 7.18 6.75 13.81
1/31/2021 11:45:00 PM -0.05 31.91 0.086 7.18 6.78 13.81
2/1/2021 12:00:00 AM -0.05 31.91 0.086 7.18 6.75 13.81
2/1/2021 12:15:00 AM -0.05 31.91 0.086 7.18 6.66 13.8
2/1/2021 12:30:00 AM -0.04 31.928 0.086 7.17 6.72 13.8
2/1/2021 12:45:00 AM -0.05 31.91 0.086 7.18 6.7 13.8
2/1/2021 1:00:00 AM -0.06 31.892 0.086 7.17 6.75 13.8
2/1/2021 1:15:00 AM -0.05 31.91 0.086 7.17 6.6 13.81
2/1/2021 1:30:00 AM -0.04 31.928 0.086 7.18 6.48 13.8
2/1/2021 1:45:00 AM -0.04 31.928 0.086 7.17 6.69 13.8
2/1/2021 2:00:00 AM -0.03 31.946 0.086 7.17 6.72 13.8
2/1/2021 2:15:00 AM -0.03 31.946 0.086 7.18 6.65 13.79
2/1/2021 2:30:00 AM -0.03 31.946 0.086 7.18 6.64 13.79
2/1/2021 2:45:00 AM -0.03 31.946 0.086 7.18 6.62 13.79
2/1/2021 3:00:00 AM -0.03 31.946 0.086 7.17 6.67 13.79
2/1/2021 3:15:00 AM -0.03 31.946 0.086 7.18 6.69 13.79
2/1/2021 3:30:00 AM -0.03 31.946 0.086 7.18 6.56 13.79
2/1/2021 3:45:00 AM -0.02 31.964 0.086 7.17 6.62 13.79
2/1/2021 4:00:00 AM -0.02 31.964 0.086 7.18 6.61 13.78
2/1/2021 4:15:00 AM -0.02 31.964 0.086 7.18 6.61 13.78
2/1/2021 4:30:00 AM -0.01 31.982 0.086 7.17 6.7 13.78
2/1/2021 4:45:00 AM -0.02 31.964 0.086 7.18 6.56 13.78
2/1/2021 5:00:00 AM -0.03 31.946 0.086 7.18 6.59 13.78
2/1/2021 5:15:00 AM -0.04 31.928 0.086 7.18 6.66 13.78
2/1/2021 5:30:00 AM -0.05 31.91 0.086 7.18 6.64 13.79
2/1/2021 5:45:00 AM -0.05 31.91 0.086 7.18 6.64 13.79
2/1/2021 6:00:00 AM -0.05 31.91 0.086 7.18 6.61 13.79
2/1/2021 6:15:00 AM -0.05 31.91 0.086 7.18 6.63 13.8
2/1/2021 6:30:00 AM -0.06 31.892 0.086 7.18 6.63 13.8
2/1/2021 6:45:00 AM -0.06 31.892 0.086 7.17 6.74 13.8
2/1/2021 7:00:00 AM -0.06 31.892 0.086 7.17 6.66 13.79
2/1/2021 7:15:00 AM -0.05 31.91 0.086 7.17 6.61 13.8
2/1/2021 7:30:00 AM -0.05 31.91 0.086 7.17 6.6 13.8
2/1/2021 7:45:00 AM -0.05 31.91 0.086 7.18 6.68 13.81
2/1/2021 8:00:00 AM -0.05 31.91 0.086 7.18 6.74 13.83
2/1/2021 8:15:00 AM -0.05 31.91 0.086 7.19 6.78 13.85
2/1/2021 8:30:00 AM -0.06 31.892 0.086 7.19 6.68 13.87
2/1/2021 8:45:00 AM -0.05 31.91 0.086 7.2 7.05 13.91
2/1/2021 9:00:00 AM -0.04 31.928 0.086 7.21 6.59 13.97
2/1/2021 9:15:00 AM -0.04 31.928 0.086 7.23 6.7 14.02
2/1/2021 9:30:00 AM -0.03 31.946 0.086 7.24 6.79 14.05
2/1/2021 9:45:00 AM -0.04 31.928 0.085 7.24 6.71 14.07
2/1/2021 10:00:00 AM -0.03 31.946 0.085 7.26 6.63 14.09
2/1/2021 10:15:00 AM -0.02 31.964 0.085 7.26 6.73 14.11
2/1/2021 10:30:00 AM -0.01 31.982 0.085 7.27 6.64 14.13
2/1/2021 10:45:00 AM -0.02 31.964 0.085 7.28 6.67 14.14
2/1/2021 11:00:00 AM 0 32 0.085 7.28 6.64 14.15
2/1/2021 11:15:00 AM 0.03 32.054 0.085 7.29 6.67 14.16
2/1/2021 11:30:00 AM 0.05 32.09 0.085 7.29 6.59 14.17
2/1/2021 11:45:00 AM 0.1 32.18 0.084 7.3 6.74 14.17
2/1/2021 12:00:00 PM 0.13 32.234 0.084 7.31 6.66 14.16
2/1/2021 12:15:00 PM 0.16 32.288 0.084 7.31 6.63 14.15
2/1/2021 12:30:00 PM 0.2 32.36 0.084 7.32 6.6 14.14
2/1/2021 12:45:00 PM 0.22 32.396 0.084 7.32 6.75 14.12
2/1/2021 1:00:00 PM 0.24 32.432 0.084 7.32 6.65 14.11
2/1/2021 1:15:00 PM 0.24 32.432 0.084 7.33 6.69 14.1
2/1/2021 1:30:00 PM 0.26 32.468 0.084 7.33 6.66 14.09
2/1/2021 1:45:00 PM 0.27 32.486 0.083 7.33 6.59 14.09
2/1/2021 2:00:00 PM 0.25 32.45 0.084 7.33 6.55 14.09
2/1/2021 2:15:00 PM 0.26 32.468 0.084 7.33 6.68 14.08
2/1/2021 2:30:00 PM 0.27 32.486 0.084 7.33 6.61 14.08
2/1/2021 2:45:00 PM 0.27 32.486 0.083 7.33 6.59 14.07
2/1/2021 3:00:00 PM 0.26 32.468 0.083 7.33 6.67 14.06
2/1/2021 3:15:00 PM 0.26 32.468 0.083 7.33 6.48 14.05
2/1/2021 3:30:00 PM 0.25 32.45 0.083 7.33 6.64 14.04
2/1/2021 3:45:00 PM 0.23 32.414 0.083 7.33 6.5 14.04
2/1/2021 4:00:00 PM 0.23 32.414 0.083 7.32 6.6 14.05
2/1/2021 4:15:00 PM 0.22 32.396 0.083 7.32 6.62 14.05
2/1/2021 4:30:00 PM 0.2 32.36 0.083 7.32 6.57 14.04
2/1/2021 4:45:00 PM 0.19 32.342 0.083 7.31 6.72 14.03
2/1/2021 5:00:00 PM 0.17 32.306 0.084 7.3 6.67 14
2/1/2021 5:15:00 PM 0.16 32.288 0.084 7.29 6.58 13.96
2/1/2021 5:30:00 PM 0.14 32.252 0.084 7.28 6.85 13.91
2/1/2021 5:45:00 PM 0.12 32.216 0.084 7.26 6.71 13.87
2/1/2021 6:00:00 PM 0.11 32.198 0.084 7.25 6.67 13.84
2/1/2021 6:15:00 PM 0.09 32.162 0.084 7.24 6.75 13.81
2/1/2021 6:30:00 PM 0.08 32.144 0.084 7.22 6.8 13.79
2/1/2021 6:45:00 PM 0.07 32.126 0.084 7.22 6.79 13.78
2/1/2021 7:00:00 PM 0.05 32.09 0.084 7.21 6.62 13.77
2/1/2021 7:15:00 PM 0.04 32.072 0.084 7.21 6.69 13.76
2/1/2021 7:30:00 PM 0.04 32.072 0.084 7.2 6.68 13.76
2/1/2021 7:45:00 PM 0.04 32.072 0.084 7.19 6.67 13.75
2/1/2021 8:00:00 PM 0.03 32.054 0.085 7.18 6.71 13.75
2/1/2021 8:15:00 PM 0.02 32.036 0.085 7.19 6.64 13.75
2/1/2021 8:30:00 PM 0.02 32.036 0.085 7.19 6.64 13.76
2/1/2021 8:45:00 PM 0.01 32.018 0.084 7.19 6.66 13.76
2/1/2021 9:00:00 PM 0.01 32.018 0.085 7.19 6.76 13.76
2/1/2021 9:15:00 PM 0 32 0.085 7.19 6.55 13.76
2/1/2021 9:30:00 PM 0 32 0.085 7.19 6.64 13.76
2/1/2021 9:45:00 PM -0.01 31.982 0.085 7.19 6.59 13.76
2/1/2021 10:00:00 PM -0.01 31.982 0.085 7.19 6.5 13.76
2/1/2021 10:15:00 PM -0.02 31.964 0.085 7.19 6.62 13.76
2/1/2021 10:30:00 PM -0.02 31.964 0.085 7.19 6.62 13.76
2/1/2021 10:45:00 PM -0.03 31.946 0.085 7.19 6.58 13.77
2/1/2021 11:00:00 PM -0.02 31.964 0.085 7.18 6.65 13.77
2/1/2021 11:15:00 PM -0.02 31.964 0.085 7.18 6.67 13.76
2/1/2021 11:30:00 PM -0.02 31.964 0.085 7.18 6.65 13.76
2/1/2021 11:45:00 PM -0.02 31.964 0.085 7.18 6.58 13.76
2/2/2021 12:00:00 AM -0.02 31.964 0.086 7.19 6.77 13.76
2/2/2021 12:15:00 AM -0.02 31.964 0.085 7.19 6.64 13.76
2/2/2021 12:30:00 AM -0.01 31.982 0.085 7.19 6.51 13.75
2/2/2021 12:45:00 AM -0.01 31.982 0.085 7.19 6.93 13.75
2/2/2021 1:00:00 AM -0.01 31.982 0.085 7.18 6.64 13.75
2/2/2021 1:15:00 AM -0.01 31.982 0.085 7.18 6.48 13.75
2/2/2021 1:30:00 AM -0.01 31.982 0.086 7.18 6.43 13.74
2/2/2021 1:45:00 AM -0.01 31.982 0.085 7.18 6.55 13.74
2/2/2021 2:00:00 AM -0.02 31.964 0.086 7.19 6.75 13.74
2/2/2021 2:15:00 AM -0.02 31.964 0.086 7.19 6.53 13.74
2/2/2021 2:30:00 AM -0.02 31.964 0.086 7.19 6.55 13.74
2/2/2021 2:45:00 AM -0.02 31.964 0.086 7.19 6.55 13.74
2/2/2021 3:00:00 AM -0.02 31.964 0.086 7.18 6.58 13.73
2/2/2021 3:15:00 AM -0.02 31.964 0.086 7.19 6.56 13.73
2/2/2021 3:30:00 AM -0.03 31.946 0.086 7.19 6.52 13.74
2/2/2021 3:45:00 AM -0.03 31.946 0.086 7.19 6.47 13.74
2/2/2021 4:00:00 AM -0.03 31.946 0.086 7.19 6.58 13.73
2/2/2021 4:15:00 AM -0.04 31.928 0.086 7.19 6.69 13.73
2/2/2021 4:30:00 AM -0.05 31.91 0.086 7.19 6.7 13.74
2/2/2021 4:45:00 AM -0.05 31.91 0.086 7.19 6.69 13.74
2/2/2021 5:00:00 AM -0.06 31.892 0.086 7.19 6.72 13.73
2/2/2021 5:15:00 AM -0.06 31.892 0.086 7.19 6.61 13.74
2/2/2021 5:30:00 AM -0.06 31.892 0.086 7.19 6.64 13.74
2/2/2021 5:45:00 AM -0.06 31.892 0.086 7.19 6.74 13.74
2/2/2021 6:00:00 AM -0.06 31.892 0.086 7.18 6.58 13.73
2/2/2021 6:15:00 AM -0.07 31.874 0.086 7.19 6.59 13.74
2/2/2021 6:30:00 AM -0.07 31.874 0.086 7.18 6.6 13.74
2/2/2021 6:45:00 AM -0.07 31.874 0.086 7.19 6.52 13.73
2/2/2021 7:00:00 AM -0.06 31.892 0.086 7.18 6.62 13.73
2/2/2021 7:15:00 AM -0.05 31.91 0.086 7.18 6.61 13.72
2/2/2021 7:30:00 AM -0.05 31.91 0.086 7.19 6.44 13.73
2/2/2021 7:45:00 AM -0.04 31.928 0.086 7.19 6.56 13.74
2/2/2021 8:00:00 AM -0.04 31.928 0.086 7.2 6.62 13.77
2/2/2021 8:15:00 AM -0.03 31.946 0.086 7.21 6.69 13.8
2/2/2021 8:30:00 AM -0.02 31.964 0.086 7.21 6.67 13.84
2/2/2021 8:45:00 AM -0.02 31.964 0.086 7.23 6.51 13.89
2/2/2021 9:00:00 AM -0.02 31.964 0.086 7.24 6.56 13.92
2/2/2021 9:15:00 AM -0.01 31.982 0.086 7.25 6.55 13.95
2/2/2021 9:30:00 AM 0 32 0.086 7.26 6.6 13.99
2/2/2021 9:45:00 AM 0.01 32.018 0.086 7.27 6.6 14.01
2/2/2021 10:00:00 AM 0.02 32.036 0.086 7.29 6.48 14.03
2/2/2021 10:15:00 AM 0.01 32.018 0.086 7.29 6.52 14.05
2/2/2021 10:30:00 AM 0.02 32.036 0.086 7.3 6.41 14.06
2/2/2021 10:45:00 AM 0.03 32.054 0.085 7.3 6.54 14.06
2/2/2021 11:00:00 AM 0.03 32.054 0.085 7.31 6.6 14.07
2/2/2021 11:15:00 AM 0.03 32.054 0.085 7.31 6.5 14.08
2/2/2021 11:30:00 AM 0.04 32.072 0.085 7.32 6.57 14.09
2/2/2021 11:45:00 AM 0.04 32.072 0.085 7.33 6.51 14.1
2/2/2021 12:00:00 PM 0.06 32.108 0.085 7.33 6.57 14.11
2/2/2021 12:15:00 PM 0.07 32.126 0.085 7.34 6.55 14.1
2/2/2021 12:30:00 PM 0.09 32.162 0.085 7.34 6.66 14.1
2/2/2021 12:45:00 PM 0.1 32.18 0.085 7.34 6.52 14.09
2/2/2021 1:00:00 PM 0.11 32.198 0.085 7.34 6.55 14.08
2/2/2021 1:15:00 PM 0.12 32.216 0.085 7.35 6.47 14.07
2/2/2021 1:30:00 PM 0.11 32.198 0.085 7.35 6.55 14.06
2/2/2021 1:45:00 PM 0.12 32.216 0.085 7.35 6.44 14.06
2/2/2021 2:00:00 PM 0.12 32.216 0.085 7.35 6.62 14.06
2/2/2021 2:15:00 PM 0.13 32.234 0.085 7.35 6.57 14.05
2/2/2021 2:30:00 PM 0.12 32.216 0.085 7.35 6.35 14.05
2/2/2021 2:45:00 PM 0.12 32.216 0.085 7.34 6.48 14.04
2/2/2021 3:00:00 PM 0.11 32.198 0.085 7.35 6.48 14.03
2/2/2021 3:15:00 PM 0.11 32.198 0.085 7.34 6.4 14.02
2/2/2021 3:30:00 PM 0.08 32.144 0.085 7.34 6.5 14
2/2/2021 3:45:00 PM 0.07 32.126 0.085 7.33 6.53 14
2/2/2021 4:00:00 PM 0.06 32.108 0.085 7.33 6.4 14
2/2/2021 4:15:00 PM 0.05 32.09 0.085 7.33 6.52 14
2/2/2021 4:30:00 PM 0.04 32.072 0.085 7.32 6.58 14
2/2/2021 4:45:00 PM 0.04 32.072 0.085 7.32 6.53 13.98
2/2/2021 5:00:00 PM 0.04 32.072 0.085 7.31 6.65 13.95
2/2/2021 5:15:00 PM 0.03 32.054 0.085 7.3 6.46 13.92
2/2/2021 5:30:00 PM 0.01 32.018 0.085 7.29 6.56 13.88
2/2/2021 5:45:00 PM 0 32 0.085 7.28 6.66 13.83
2/2/2021 6:00:00 PM 0 32 0.085 7.26 6.55 13.79
2/2/2021 6:15:00 PM -0.02 31.964 0.085 7.25 6.54 13.77
2/2/2021 6:30:00 PM -0.02 31.964 0.085 7.24 6.52 13.75
2/2/2021 6:45:00 PM -0.02 31.964 0.085 7.23 6.51 13.73
2/2/2021 7:00:00 PM -0.02 31.964 0.091 7.24 73.89 13.7
2/2/2021 7:15:00 PM -0.02 31.964 0.091 7.24 14.37 13.7
2/2/2021 7:30:00 PM -0.02 31.964 0.091 7.24 10.09 13.7
2/2/2021 7:45:00 PM -0.02 31.964 0.091 7.24 8.08 13.69
2/2/2021 8:00:00 PM -0.01 31.982 0.091 7.24 5.73 13.68
2/2/2021 8:15:00 PM -0.02 31.964 0.091 7.24 2.71 13.68
2/2/2021 8:30:00 PM -0.04 31.928 0.091 7.24 1.47 13.67
2/2/2021 8:45:00 PM -0.04 31.928 0.091 7.23 1.75 13.67
2/2/2021 9:00:00 PM -0.04 31.928 0.091 7.02 5.94 13.67
2/2/2021 9:15:00 PM -0.03 31.946 0.091 7.19 6.07 13.65
2/2/2021 9:30:00 PM -0.04 31.928 0.091 7.21 6.1 13.63
2/2/2021 9:45:00 PM -0.03 31.946 0.091 7.03 6.05 13.65
2/2/2021 10:00:00 PM -0.03 31.946 0.091 7.18 6.08 13.64
2/2/2021 10:15:00 PM -0.02 31.964 0.091 7.2 6.07 13.63
2/2/2021 10:30:00 PM -0.01 31.982 0.091 7.2 6.1 13.62
2/2/2021 10:45:00 PM -0.01 31.982 0.091 7.2 6.11 13.62
2/2/2021 11:00:00 PM -0.01 31.982 0.091 7.2 6.11 13.61
2/2/2021 11:15:00 PM -0.01 31.982 0.091 7.2 6.07 13.62
2/2/2021 11:30:00 PM -0.01 31.982 0.091 7.2 6.05 13.62
2/2/2021 11:45:00 PM -0.01 31.982 0.091 7.2 6.09 13.62
2/3/2021 12:00:00 AM -0.01 31.982 0.091 7.2 6.05 13.62
2/3/2021 12:15:00 AM 0 32 0.091 7.19 6.09 13.61
2/3/2021 12:30:00 AM 0 32 0.091 7.2 6.06 13.61
2/3/2021 12:45:00 AM 0.01 32.018 0.091 7.2 6.05 13.61
2/3/2021 1:00:00 AM 0.01 32.018 0.091 7.19 6.05 13.61
2/3/2021 1:15:00 AM 0.01 32.018 0.091 7.19 6.05 13.61
2/3/2021 1:30:00 AM 0.01 32.018 0.091 7.19 6.09 13.6
2/3/2021 1:45:00 AM 0.02 32.036 0.091 7.19 6.1 13.61
2/3/2021 2:00:00 AM 0.02 32.036 0.091 7.19 6.12 13.61
2/3/2021 2:15:00 AM 0.01 32.018 0.091 7.19 6.06 13.61
2/3/2021 2:30:00 AM 0.01 32.018 0.091 7.19 6.09 13.6
2/3/2021 2:45:00 AM 0 32 0.091 7.19 6.08 13.6
2/3/2021 3:00:00 AM 0 32 0.091 7.19 6.13 13.6
2/3/2021 3:15:00 AM 0 32 0.092 7.19 6.06 13.61
2/3/2021 3:30:00 AM 0 32 0.091 7.19 6.82 13.6
2/3/2021 3:45:00 AM -0.01 31.982 0.092 7.19 6.07 13.6
2/3/2021 4:00:00 AM 0 32 0.092 7.19 6.08 13.61
2/3/2021 4:15:00 AM -0.01 31.982 0.092 7.19 6.06 13.61
2/3/2021 4:30:00 AM -0.01 31.982 0.092 7.19 6.12 13.61
2/3/2021 4:45:00 AM 0 32 0.092 7.19 6.05 13.61
2/3/2021 5:00:00 AM 0 32 0.092 7.19 6.07 13.61
2/3/2021 5:15:00 AM 0 32 0.092 7.19 6.1 13.62
2/3/2021 5:30:00 AM 0 32 0.092 7.19 6.11 13.62
2/3/2021 5:45:00 AM 0.01 32.018 0.092 7.19 6.08 13.63
2/3/2021 6:00:00 AM 0.01 32.018 0.092 7.19 6.05 13.62
2/3/2021 6:15:00 AM 0 32 0.092 7.19 6.11 13.62
2/3/2021 6:30:00 AM 0 32 0.092 7.19 6.04 13.62
2/3/2021 6:45:00 AM -0.01 31.982 0.092 7.19 6.07 13.63
2/3/2021 7:00:00 AM -0.01 31.982 0.092 7.19 6.11 13.64
2/3/2021 7:15:00 AM -0.01 31.982 0.092 7.19 6.06 13.64
2/3/2021 7:30:00 AM -0.01 31.982 0.092 7.19 6.09 13.64
2/3/2021 7:45:00 AM -0.02 31.964 0.092 7.2 6.09 13.66
2/3/2021 8:00:00 AM -0.02 31.964 0.092 7.2 6.12 13.68
2/3/2021 8:15:00 AM -0.02 31.964 0.092 7.21 6.12 13.71
2/3/2021 8:30:00 AM -0.02 31.964 0.092 7.21 6.08 13.75
2/3/2021 8:45:00 AM -0.02 31.964 0.092 7.22 6.1 13.8
2/3/2021 9:00:00 AM -0.01 31.982 0.092 7.24 6.06 13.86
2/3/2021 9:15:00 AM -0.01 31.982 0.092 7.25 6.08 13.9
2/3/2021 9:30:00 AM 0 32 0.092 7.26 6.08 13.93
2/3/2021 9:45:00 AM 0.01 32.018 0.092 7.27 6.04 13.96
2/3/2021 10:00:00 AM 0.03 32.054 0.091 7.29 6.06 14
2/3/2021 10:15:00 AM 0.06 32.108 0.091 7.29 6.07 14.03
2/3/2021 10:30:00 AM 0.09 32.162 0.091 7.31 6.02 14.05
2/3/2021 10:45:00 AM 0.12 32.216 0.091 7.32 6.06 14.07
2/3/2021 11:00:00 AM 0.16 32.288 0.091 7.33 6.04 14.08
2/3/2021 11:15:00 AM 0.22 32.396 0.091 7.34 6.09 14.08
2/3/2021 11:30:00 AM 0.26 32.468 0.091 7.35 6.04 14.07
2/3/2021 11:45:00 AM 0.3 32.54 0.091 7.36 6.05 14.06
2/3/2021 12:00:00 PM 0.35 32.63 0.091 7.35 6.05 14.03
2/3/2021 12:15:00 PM 0.39 32.702 0.091 7.36 6.07 14.01
2/3/2021 12:30:00 PM 0.43 32.774 0.09 7.36 6.09 13.98
2/3/2021 12:45:00 PM 0.49 32.882 0.09 7.36 6.01 13.94
2/3/2021 1:00:00 PM 0.54 32.972 0.09 7.37 6.06 13.91
2/3/2021 1:15:00 PM 0.58 33.044 0.09 7.37 6.03 13.88
2/3/2021 1:30:00 PM 0.6 33.08 0.09 7.37 6.01 13.87
2/3/2021 1:45:00 PM 0.65 33.17 0.09 7.37 6.03 13.85
2/3/2021 2:00:00 PM 0.7 33.26 0.09 7.37 6.02 13.83
2/3/2021 2:15:00 PM 0.71 33.278 0.09 7.17 6 13.82
2/3/2021 2:30:00 PM 0.71 33.278 0.089 7.38 6.04 13.79
2/3/2021 2:45:00 PM 0.7 33.26 0.089 7.37 6.02 13.79
2/3/2021 3:00:00 PM 0.65 33.17 0.089 7.37 6.03 13.79
2/3/2021 3:15:00 PM 0.63 33.134 0.089 7.37 6.06 13.81
2/3/2021 3:30:00 PM 0.65 33.17 0.089 7.37 6.01 13.81
2/3/2021 3:45:00 PM 0.65 33.17 0.089 7.37 6.07 13.82
2/3/2021 4:00:00 PM 0.61 33.098 0.089 7.37 6.04 13.82
2/3/2021 4:15:00 PM 0.57 33.026 0.089 7.37 6.08 13.82
2/3/2021 4:30:00 PM 0.58 33.044 0.089 7.37 6.08 13.82
2/3/2021 4:45:00 PM 0.55 32.99 0.089 7.36 6.06 13.8
2/3/2021 5:00:00 PM 0.51 32.918 0.09 7.35 6.12 13.79
2/3/2021 5:15:00 PM 0.49 32.882 0.09 7.35 6.08 13.77
2/3/2021 5:30:00 PM 0.47 32.846 0.09 7.33 6.11 13.73
2/3/2021 5:45:00 PM 0.43 32.774 0.09 7.31 6.13 13.69
2/3/2021 6:00:00 PM 0.41 32.738 0.09 7.3 6.1 13.66
2/3/2021 6:15:00 PM 0.38 32.684 0.09 7.28 6.11 13.63
2/3/2021 6:30:00 PM 0.35 32.63 0.09 7.27 6.12 13.6
2/3/2021 6:45:00 PM 0.33 32.594 0.09 7.25 6.08 13.6
2/3/2021 7:00:00 PM 0.31 32.558 0.09 7.24 6.16 13.59
2/3/2021 7:15:00 PM 0.29 32.522 0.091 7.23 6.13 13.58
2/3/2021 7:30:00 PM 0.26 32.468 0.091 7.23 6.12 13.59
2/3/2021 7:45:00 PM 0.23 32.414 0.091 7.22 6.11 13.6
2/3/2021 8:00:00 PM 0.21 32.378 0.091 7.22 6.15 13.61
2/3/2021 8:15:00 PM 0.17 32.306 0.091 7.21 6.1 13.62
2/3/2021 8:30:00 PM 0.15 32.27 0.091 7.21 7.23 13.63
2/3/2021 8:45:00 PM 0.12 32.216 0.086 7.21 7.38 13.64
2/3/2021 9:00:00 PM 0.09 32.162 0.086 7.21 7.35 13.66
2/3/2021 9:15:00 PM 0.06 32.108 0.086 7.2 7.37 13.67
2/3/2021 9:30:00 PM 0.04 32.072 0.086 7.2 7.37 13.69
2/3/2021 9:45:00 PM 0.01 32.018 0.086 7.2 6.93 13.69
2/3/2021 10:00:00 PM -0.01 31.982 0.086 7.2 6.84 13.71
2/3/2021 10:15:00 PM -0.03 31.946 0.086 7.19 6.71 13.72
2/3/2021 10:30:00 PM -0.05 31.91 0.087 7.2 6.87 13.73
2/3/2021 10:45:00 PM -0.08 31.856 0.086 7.2 6.9 13.74
2/3/2021 11:00:00 PM -0.09 31.838 0.087 7.19 6.94 13.75
2/3/2021 11:15:00 PM -0.1 31.82 0.087 7.2 6.82 13.76
2/3/2021 11:30:00 PM -0.09 31.838 0.087 7.19 7 13.77
2/3/2021 11:45:00 PM -0.09 31.838 0.087 7.19 6.77 13.77
2/4/2021 12:00:00 AM -0.08 31.856 0.087 7.19 6.85 13.76
2/4/2021 12:15:00 AM -0.08 31.856 0.087 7.19 6.98 13.76
2/4/2021 12:30:00 AM -0.08 31.856 0.088 7.19 6.92 13.76
2/4/2021 12:45:00 AM -0.08 31.856 0.088 7.19 6.81 13.76
2/4/2021 1:00:00 AM -0.08 31.856 0.088 7.19 6.84 13.75
2/4/2021 1:15:00 AM -0.08 31.856 0.088 7.19 6.86 13.75
2/4/2021 1:30:00 AM -0.08 31.856 0.088 7.19 6.77 13.74
2/4/2021 1:45:00 AM -0.08 31.856 0.088 7.19 6.9 13.74
2/4/2021 2:00:00 AM -0.08 31.856 0.088 7.19 6.8 13.73
2/4/2021 2:15:00 AM -0.08 31.856 0.089 7.18 6.94 13.73
2/4/2021 2:30:00 AM -0.08 31.856 0.089 7.18 6.82 13.73
2/4/2021 2:45:00 AM -0.08 31.856 0.089 7.18 6.84 13.72
2/4/2021 3:00:00 AM -0.08 31.856 0.089 7.18 6.9 13.72
2/4/2021 3:15:00 AM -0.08 31.856 0.089 7.18 6.87 13.71
2/4/2021 3:30:00 AM -0.08 31.856 0.089 7.18 6.78 13.71
2/4/2021 3:45:00 AM -0.08 31.856 0.089 7.18 7 13.7
2/4/2021 4:00:00 AM -0.08 31.856 0.089 7.17 6.85 13.7
2/4/2021 4:15:00 AM -0.08 31.856 0.089 7.18 6.95 13.72
2/4/2021 4:30:00 AM -0.08 31.856 0.089 7.18 7.03 13.72
2/4/2021 4:45:00 AM -0.08 31.856 0.089 7.17 6.94 13.71
2/4/2021 5:00:00 AM -0.08 31.856 0.089 7.17 6.96 13.71
2/4/2021 5:15:00 AM -0.08 31.856 0.089 7.17 6.94 13.71
2/4/2021 5:30:00 AM -0.08 31.856 0.089 7.17 6.9 13.71
2/4/2021 5:45:00 AM -0.08 31.856 0.089 7.17 6.87 13.71
2/4/2021 6:00:00 AM -0.08 31.856 0.089 7.17 6.79 13.71
2/4/2021 6:15:00 AM -0.08 31.856 0.089 7.16 6.88 13.71
2/4/2021 6:30:00 AM -0.08 31.856 0.088 7.16 6.79 13.71
2/4/2021 6:45:00 AM -0.08 31.856 0.088 7.16 6.72 13.7
2/4/2021 7:00:00 AM -0.08 31.856 0.088 7.16 6.84 13.7
2/4/2021 7:15:00 AM -0.08 31.856 0.088 7.16 6.81 13.7
2/4/2021 7:30:00 AM -0.08 31.856 0.088 7.15 6.72 13.71
2/4/2021 7:45:00 AM -0.08 31.856 0.088 7.16 6.85 13.74
2/4/2021 8:00:00 AM -0.08 31.856 0.088 7.16 6.92 13.78
2/4/2021 8:15:00 AM -0.08 31.856 0.087 7.17 7.01 13.83
2/4/2021 8:30:00 AM -0.08 31.856 0.087 7.18 7.05 13.88
2/4/2021 8:45:00 AM -0.07 31.874 0.087 7.19 6.85 13.94
2/4/2021 9:00:00 AM -0.07 31.874 0.087 7.2 6.84 14
2/4/2021 9:15:00 AM -0.07 31.874 0.087 7.21 6.98 14.04
2/4/2021 9:30:00 AM -0.07 31.874 0.087 7.22 6.8 14.08
2/4/2021 9:45:00 AM -0.06 31.892 0.087 7.23 6.95 14.12
2/4/2021 10:00:00 AM -0.06 31.892 0.086 7.24 6.95 14.15
2/4/2021 10:15:00 AM -0.06 31.892 0.086 7.25 6.87 14.17
2/4/2021 10:30:00 AM -0.05 31.91 0.086 7.27 6.98 14.18
2/4/2021 10:45:00 AM -0.05 31.91 0.085 7.27 7.01 14.19
2/4/2021 11:00:00 AM -0.05 31.91 0.085 7.29 7.23 14.2
2/4/2021 11:15:00 AM -0.04 31.928 0.085 7.3 7.56 14.21
2/4/2021 11:30:00 AM -0.03 31.946 0.085 7.31 7.55 14.21
2/4/2021 11:45:00 AM -0.03 31.946 0.085 7.3 7.89 14.21
2/4/2021 12:00:00 PM -0.02 31.964 0.085 7.3 7.67 14.2
2/4/2021 12:15:00 PM 0 32 0.086 7.3 7.47 14.17
2/4/2021 12:30:00 PM 0.02 32.036 0.086 7.31 7.44 14.16
2/4/2021 12:45:00 PM 0.05 32.09 0.086 7.32 7.54 14.14
2/4/2021 1:00:00 PM 0.09 32.162 0.087 7.32 7.3 14.11
2/4/2021 1:15:00 PM 0.13 32.234 0.087 7.32 7.36 14.09
2/4/2021 1:30:00 PM 0.17 32.306 0.087 7.32 7.2 14.07
2/4/2021 1:45:00 PM 0.22 32.396 0.087 7.32 7.29 14.04
2/4/2021 2:00:00 PM 0.27 32.486 0.087 7.32 7.12 14.02
2/4/2021 2:15:00 PM 0.34 32.612 0.087 7.33 7.14 14
2/4/2021 2:30:00 PM 0.41 32.738 0.087 7.34 7.23 13.97
2/4/2021 2:45:00 PM 0.45 32.81 0.087 7.34 7.23 13.95
2/4/2021 3:00:00 PM 0.49 32.882 0.087 7.34 7.03 13.93
2/4/2021 3:15:00 PM 0.52 32.936 0.087 7.34 7.12 13.91
2/4/2021 3:30:00 PM 0.53 32.954 0.087 7.35 6.94 13.9
2/4/2021 3:45:00 PM 0.52 32.936 0.087 7.35 7.08 13.9
2/4/2021 4:00:00 PM 0.47 32.846 0.087 7.34 7.14 13.9
2/4/2021 4:15:00 PM 0.44 32.792 0.087 7.34 7.1 13.91
2/4/2021 4:30:00 PM 0.42 32.756 0.087 7.34 7.18 13.91
2/4/2021 4:45:00 PM 0.41 32.738 0.087 7.34 7.11 13.9
2/4/2021 5:00:00 PM 0.4 32.72 0.087 7.33 7.06 13.87
2/4/2021 5:15:00 PM 0.39 32.702 0.087 7.32 7.13 13.83
2/4/2021 5:30:00 PM 0.37 32.666 0.087 7.31 7 13.79
2/4/2021 5:45:00 PM 0.35 32.63 0.087 7.29 7.14 13.75
2/4/2021 6:00:00 PM 0.33 32.594 0.087 7.28 6.91 13.71
2/4/2021 6:15:00 PM 0.31 32.558 0.087 7.27 6.93 13.69
2/4/2021 6:30:00 PM 0.29 32.522 0.087 7.26 7.08 13.67
2/4/2021 6:45:00 PM 0.27 32.486 0.087 7.25 6.94 13.66
2/4/2021 7:00:00 PM 0.24 32.432 0.087 7.24 7.04 13.65
2/4/2021 7:15:00 PM 0.21 32.378 0.088 7.23 7 13.66
2/4/2021 7:30:00 PM 0.19 32.342 0.087 7.23 6.94 13.66
2/4/2021 7:45:00 PM 0.17 32.306 0.088 7.23 6.96 13.67
2/4/2021 8:00:00 PM 0.15 32.27 0.088 7.22 6.95 13.67
2/4/2021 8:15:00 PM 0.14 32.252 0.088 7.22 7.04 13.67
2/4/2021 8:30:00 PM 0.13 32.234 0.091 7.22 7.17 13.68
2/4/2021 8:45:00 PM 0.12 32.216 0.088 7.22 7.23 13.68
2/4/2021 9:00:00 PM 0.1 32.18 0.088 7.22 7.19 13.68
2/4/2021 9:15:00 PM 0.09 32.162 0.088 7.22 7.21 13.68
2/4/2021 9:30:00 PM 0.08 32.144 0.088 7.21 7.34 13.68
2/4/2021 9:45:00 PM 0.08 32.144 0.088 7.21 7.29 13.68
2/4/2021 10:00:00 PM 0.07 32.126 0.088 7.21 7.27 13.68
2/4/2021 10:15:00 PM 0.07 32.126 0.088 7.21 7.32 13.68
2/4/2021 10:30:00 PM 0.07 32.126 0.089 7.21 7.16 13.68
2/4/2021 10:45:00 PM 0.08 32.144 0.088 7.21 7.3 13.68
2/4/2021 11:00:00 PM 0.08 32.144 0.088 7.21 7.11 13.67
2/4/2021 11:15:00 PM 0.08 32.144 0.088 7.21 7.02 13.67
2/4/2021 11:30:00 PM 0.09 32.162 0.089 7.21 7.26 13.66
2/4/2021 11:45:00 PM 0.1 32.18 0.089 7.21 7.08 13.66
2/5/2021 12:00:00 AM 0.11 32.198 0.089 7.21 7.11 13.65
2/5/2021 12:15:00 AM 0.11 32.198 0.088 7.22 7.02 13.65
2/5/2021 12:30:00 AM 0.11 32.198 0.089 7.21 7.03 13.64
2/5/2021 12:45:00 AM 0.07 32.126 0.088 7.21 7.05 13.64
2/5/2021 1:00:00 AM 0.08 32.144 0.089 7.21 6.94 13.64
2/5/2021 1:15:00 AM 0.1 32.18 0.088 7.22 6.85 13.63
2/5/2021 1:30:00 AM 0.11 32.198 0.088 7.21 6.94 13.63
2/5/2021 1:45:00 AM 0.12 32.216 0.089 7.22 6.87 13.63
2/5/2021 2:00:00 AM 0.14 32.252 0.089 7.21 7 13.62
2/5/2021 2:15:00 AM 0.15 32.27 0.089 7.22 6.94 13.61
2/5/2021 2:30:00 AM 0.16 32.288 0.089 7.22 6.8 13.6
2/5/2021 2:45:00 AM 0.17 32.306 0.089 7.22 6.91 13.59
2/5/2021 3:00:00 AM 0.17 32.306 0.089 7.22 6.87 13.58
2/5/2021 3:15:00 AM 0.17 32.306 0.089 7.22 6.73 13.57
2/5/2021 3:30:00 AM 0.18 32.324 0.089 7.22 6.79 13.56
2/5/2021 3:45:00 AM 0.19 32.342 0.089 7.22 6.9 13.55
2/5/2021 4:00:00 AM 0.2 32.36 0.089 7.22 6.88 13.54
2/5/2021 4:15:00 AM 0.21 32.378 0.089 7.22 6.94 13.54
2/5/2021 4:30:00 AM 0.21 32.378 0.089 7.22 7.02 13.52
2/5/2021 4:45:00 AM 0.22 32.396 0.089 7.22 6.76 13.52
2/5/2021 5:00:00 AM 0.23 32.414 0.089 7.22 6.87 13.52
2/5/2021 5:15:00 AM 0.24 32.432 0.089 7.22 6.9 13.51
2/5/2021 5:30:00 AM 0.25 32.45 0.089 7.22 6.84 13.5
2/5/2021 5:45:00 AM 0.26 32.468 0.089 7.22 6.78 13.5
2/5/2021 6:00:00 AM 0.26 32.468 0.089 7.22 6.95 13.49
2/5/2021 6:15:00 AM 0.26 32.468 0.089 7.22 6.87 13.48
2/5/2021 6:30:00 AM 0.28 32.504 0.089 7.22 6.76 13.48
2/5/2021 6:45:00 AM 0.3 32.54 0.089 7.22 6.88 13.47
2/5/2021 7:00:00 AM 0.32 32.576 0.089 7.22 6.92 13.47
2/5/2021 7:15:00 AM 0.33 32.594 0.089 7.22 6.93 13.46
2/5/2021 7:30:00 AM 0.35 32.63 0.088 7.23 6.86 13.46
2/5/2021 7:45:00 AM 0.37 32.666 0.088 7.23 6.87 13.47
2/5/2021 8:00:00 AM 0.39 32.702 0.088 7.24 6.81 13.5
2/5/2021 8:15:00 AM 0.44 32.792 0.088 7.25 6.82 13.58
2/5/2021 8:30:00 AM 0.47 32.846 0.088 7.27 6.79 13.62
2/5/2021 8:45:00 AM 0.49 32.882 0.088 7.28 6.67 13.67
2/5/2021 9:00:00 AM 0.55 32.99 0.088 7.3 6.84 13.72
2/5/2021 9:15:00 AM 0.61 33.098 0.088 7.31 6.83 13.75
2/5/2021 9:30:00 AM 0.66 33.188 0.088 7.33 6.84 13.78
2/5/2021 9:45:00 AM 0.72 33.296 0.087 7.35 6.78 13.8
2/5/2021 10:00:00 AM 0.75 33.35 0.087 7.36 6.8 13.79
2/5/2021 10:15:00 AM 0.77 33.386 0.087 7.37 6.84 13.81
2/5/2021 10:30:00 AM 0.82 33.476 0.087 7.38 6.91 13.81